Ship Status Report: callsign 000000

sailwx.info

Track history (hours):
 
Tides and Currents Weather Stations Pressure Air Temp Water Temp Dewpoint Dewpoint Depression Visibility Wind Speed Wind Dir Waves Ship Positions

Callsign 000000 (name unknown)

Last reported at 2014-Sep-03 06:33 UTC. Time now 2014-Sep-03 07:26 UTC.
Position N 39°04' E 117°51'.

Type: Fishing. MMSI: 200007452.

Date/timePositionNaut miles runAvg speedWind from/ knotsBaromVisibWave heightAir tempDewpointWater temp
2014-Sep-03 06:33N 39°04' E 117°51'1462.3
2014-Sep-03 06:33N 39°04' E 117°51'985322404.1
2014-Sep-03 06:33N 23°06' E 113°26'65536850.2
2014-Sep-03 06:32N 31°21' E 121°27'2100.1
2014-Sep-03 06:31N 31°22' E 121°30'70160066.9
2014-Sep-03 06:30N 22°11' E 113°25'70119867.3
2014-Sep-03 06:28N 31°20' E 121°33'372963.6
2014-Sep-03 06:05N 37°32' E 121°42'9671856.7
2014-Sep-03 05:34N 23°06' E 113°26'659791039.7
2014-Sep-03 05:33N 31°24' E 121°31'494444495.2
2014-Sep-03 05:33N 39°04' E 117°51'21362.3
2014-Sep-03 05:33N 39°03' E 117°52'494889497.4
2014-Sep-03 05:33N 31°22' E 121°30'2104.3
2014-Sep-03 05:32N 31°21' E 121°27'3719274.6
2014-Sep-03 05:30N 37°32' E 121°42'101710895.6
2014-Sep-03 05:24N 22°11' E 113°25'6712841.9
2014-Sep-03 05:10N 29°51' E 122°29'6331045.3
2014-Sep-03 04:34N 23°06' E 113°26'9841771751.8
2014-Sep-03 04:33N 39°04' E 117°48'74563864.3
2014-Sep-03 04:33N 26°45' E 119°43'65738144.5
2014-Sep-03 04:32N 37°34' E 121°45'102034631.5
2014-Sep-03 04:30N 22°11' E 113°25'69910395.3
2014-Sep-03 04:26N 31°21' E 121°27'109562.4
2014-Sep-03 04:14N 29°47' E 122°31'1224067.1
2014-Sep-03 04:13N 31°32' E 121°19'429.4
2014-Sep-03 04:05N 31°30' E 121°23'3179.3
2014-Sep-03 04:04N 31°28' E 121°25'4485.1
2014-Sep-03 03:33N 31°60' E 120°49'6632386896.9
2014-Sep-03 03:33N 23°06' E 113°26'984110742.2
2014-Sep-03 03:33N 39°05' E 117°45'49674355.6
2014-Sep-03 03:32N 31°25' E 121°31'4706.8
2014-Sep-03 03:32N 31°21' E 121°27'69947465.4
2014-Sep-03 03:31N 22°11' E 113°25'66658484.9
2014-Sep-03 03:30N 29°43' E 122°29'1241768.4
2014-Sep-03 03:26N 31°32' E 121°20'54900.6
2014-Sep-03 03:23N 32°02' E 120°27'6584113.8
2014-Sep-03 03:13N 23°02' E 113°22'98934895.1
2014-Sep-03 03:11N 39°05' E 117°44'48917241.8
2014-Sep-03 03:10N 31°31' E 121°23'486808.5
2014-Sep-03 02:33N 39°04' E 117°51'985154157.7
2014-Sep-03 02:33N 23°06' E 113°26'467869.5
2014-Sep-03 02:33N 22°27' E 113°52'671345028.6
2014-Sep-03 02:33N 31°21' E 121°27'7731391287.7
2014-Sep-03 02:33N 20°25' E 113°54'778107721.8
2014-Sep-03 02:32N 31°29' E 121°25'4919987.2
2014-Sep-03 02:29N 39°05' E 117°44'10185423.8
2014-Sep-03 02:18N 22°26' E 113°53'462836.0
2014-Sep-03 02:17N 23°04' E 113°25'6593961.0
2014-Sep-03 02:07N 31°60' E 120°38'6571167.3
2014-Sep-03 01:33N 23°06' E 113°26'985709127.1
2014-Sep-03 01:33N 39°04' E 117°52'1035232934.6
2014-Sep-03 01:33N 22°09' E 113°53'685154198.9
2014-Sep-03 01:33N 31°21' E 121°27'606762.2
2014-Sep-03 01:32N 32°00' E 120°34'4474567.6
2014-Sep-03 01:26N 39°05' E 117°44'2193210.1
2014-Sep-03 01:22N 37°31' E 121°57'219269.8
2014-Sep-03 00:33N 39°05' E 117°45'4451600886.8
2014-Sep-03 00:33N 32°01' E 120°31'655214307.1
2014-Sep-03 00:33N 23°06' E 113°26'40620905.6
2014-Sep-03 00:32N 26°44' E 119°44'425117668.1
2014-Sep-03 00:32N 22°13' E 113°44'687224725.8
2014-Sep-03 00:32N 31°21' E 121°27'7190.4
2014-Sep-03 00:29N 31°28' E 121°25'7 7.8
2014-Sep-02 23:33N 31°21' E 121°27'670104900.6
2014-Sep-02 23:33N 22°20' E 114°05'597566.4
2014-Sep-02 23:33N 23°06' E 113°26'9714288.6
2014-Sep-02 23:19N 37°31' E 121°57'370486.8
2014-Sep-02 22:33N 31°21' E 121°27'655294799.9
2014-Sep-02 22:33N 23°06' E 113°26'435.0
2014-Sep-02 22:27N 23°04' E 113°29'6586368.3
2014-Sep-02 22:21N 31°28' E 121°25'659827.4
2014-Sep-02 21:33N 23°06' E 113°26'176126431.5
2014-Sep-02 21:33N 23°21' E 116°36'551220310.1
2014-Sep-02 21:33N 31°28' E 121°25'3105.6
2014-Sep-02 21:32N 31°31' E 121°23'1011790.8
2014-Sep-02 21:32N 31°21' E 121°27'65431838.9
2014-Sep-02 21:30N 23°04' E 113°29'658694.1
2014-Sep-02 20:33N 31°28' E 121°25'659592803.1
2014-Sep-02 20:33N 23°06' E 113°26'65520687.7
2014-Sep-02 20:31N 31°21' E 121°27'10202.8
2014-Sep-02 20:29N 31°31' E 121°23'659712.9
2014-Sep-02 19:33N 23°06' E 113°26'65612166.0
2014-Sep-02 19:30N 32°00' E 120°34'65525357.6
2014-Sep-02 19:28N 23°04' E 113°30'65414719.6
2014-Sep-02 19:26N 31°21' E 121°27'783.2
2014-Sep-02 19:20N 31°28' E 121°25'28157.5
2014-Sep-02 19:10N 31°46' E 120°60'6591066.4
2014-Sep-02 18:33N 23°06' E 113°26'65528077.7
2014-Sep-02 18:31N 31°21' E 121°27'37412689.9
2014-Sep-02 18:30N 37°34' E 122°00'3505270.0
2014-Sep-02 18:26N 31°48' E 120°55'6576388.8
2014-Sep-02 18:19N 23°04' E 113°30'103511223.0
2014-Sep-02 18:14N 38°46' E 121°49'73107.3
2014-Sep-02 17:33N 37°34' E 122°03'9761757528.7
2014-Sep-02 17:33N 23°06' E 113°26'65521837.0
2014-Sep-02 17:31N 31°21' E 121°27'65413084.0
2014-Sep-02 17:28N 23°04' E 113°30'65824435.0
2014-Sep-02 17:27N 31°31' E 121°23'4045.4
2014-Sep-02 16:33N 31°59' E 120°50'663170467.5
2014-Sep-02 16:33N 23°06' E 113°26'65525089.4
2014-Sep-02 16:32N 31°21' E 121°27'10197.2
2014-Sep-02 16:29N 31°31' E 121°23'6584255.3
2014-Sep-02 16:19N 23°04' E 113°30'4 5.3
2014-Sep-02 15:33N 23°06' E 113°26'6601188809.2
2014-Sep-02 15:33N 32°00' E 120°43'696167064.7
2014-Sep-02 15:33N 22°16' E 113°37'68810317.1
2014-Sep-02 15:29N 31°21' E 121°27'1073.8
2014-Sep-02 15:21N 31°30' E 121°23'352.9
2014-Sep-02 15:18N 31°28' E 121°25'3675302.1
2014-Sep-02 15:14N 37°34' E 122°00'9759263.1
2014-Sep-02 15:07N 23°04' E 113°30'9771722.5
2014-Sep-02 14:33N 37°35' E 122°03'342410994.3
2014-Sep-02 14:33N 31°60' E 120°37'41098473.9
2014-Sep-02 14:33N 38°47' E 121°39'445400884.2
2014-Sep-02 14:33N 31°21' E 121°27'6551179262.6
2014-Sep-02 14:33N 23°06' E 113°26'5611918.6
2014-Sep-02 14:33N 22°13' E 113°45'532499.2
2014-Sep-02 14:31N 23°04' E 113°30'65817940.0
2014-Sep-02 14:29N 31°28' E 121°25'659707.4
2014-Sep-02 13:33N 23°06' E 113°26'655336935.2
2014-Sep-02 13:33N 32°01' E 120°32'563244.3
2014-Sep-02 13:32N 31°28' E 121°25'65853820.4
2014-Sep-02 13:31N 23°04' E 113°30'65426762.6
2014-Sep-02 13:30N 31°21' E 121°27'5515122.1
2014-Sep-02 13:30N 32°00' E 120°42'34058251.4
2014-Sep-02 13:29N 37°34' E 122°01'76782.8
2014-Sep-02 13:23N 38°48' E 121°38'1 3.1
2014-Sep-02 13:11N 38°47' E 121°37'409658.4
2014-Sep-02 12:34N 32°02' E 120°27'81202.4
2014-Sep-02 12:33N 31°60' E 120°36'5811635.9
2014-Sep-02 12:33N 31°21' E 121°27'65567386.4
2014-Sep-02 12:32N 23°06' E 113°26'97654061.1
2014-Sep-02 12:31N 37°34' E 122°02'756740.1
2014-Sep-02 12:30N 38°44' E 121°28'1080.9
2014-Sep-02 12:23N 38°49' E 121°40'10536929.1
2014-Sep-02 12:14N 22°48' E 113°19'28342501.7
2014-Sep-02 12:13N 23°51' E 118°20'2702696.4
2014-Sep-02 12:07N 23°04' E 113°30'6501152.5
2014-Sep-02 11:33N 31°58' E 120°26'650212753.4
2014-Sep-02 11:33N 23°06' E 113°26'65584232.4
2014-Sep-02 11:33N 31°21' E 121°27'37313035.4
2014-Sep-02 11:31N 37°33' E 122°00'34683159.4
2014-Sep-02 11:31N 31°57' E 120°18'6453343.8
2014-Sep-02 11:19N 23°04' E 113°30'647845.5
2014-Sep-02 10:33N 31°58' E 120°21'64793207.9
2014-Sep-02 10:33N 23°06' E 113°26'655235846.2
2014-Sep-02 10:33N 31°21' E 121°27'726209.0
2014-Sep-02 10:33N 31°28' E 121°25'6582923.5
2014-Sep-02 10:19N 23°04' E 113°30'10281.5
2014-Sep-02 10:17N 22°55' E 113°25'2722374.8
2014-Sep-02 10:10N 23°50' E 118°15'846608998.0
2014-Sep-02 10:10N 37°34' E 121°57'367600.6
2014-Sep-02 09:33N 31°28' E 121°25'6526031.0
2014-Sep-02 09:33N 31°56' E 120°16'65165127.5
2014-Sep-02 09:33N 22°54' E 113°30'132031.4
2014-Sep-02 09:32N 23°06' E 113°26'6557103.2
2014-Sep-02 09:27N 31°21' E 121°27'62833.2
2014-Sep-02 09:22N 32°01' E 120°32'3414866.7
2014-Sep-02 09:18N 37°35' E 121°56'9744219.5
2014-Sep-02 09:04N 23°04' E 113°30'4 8.0
2014-Sep-02 08:33N 23°06' E 113°26'63962213.6
2014-Sep-02 08:33N 31°56' E 120°09'704361.0
2014-Sep-02 08:32N 31°28' E 121°25'565276.9
2014-Sep-02 08:31N 32°01' E 120°32'134.8
2014-Sep-02 08:30N 32°01' E 120°31'6543738.8
2014-Sep-02 08:19N 23°04' E 113°30'6543726.2
2014-Sep-02 08:09N 31°21' E 121°27'712.4
2014-Sep-02 07:33N 31°28' E 121°25'58209769.7
2014-Sep-02 07:33N 32°02' E 120°29'36150.9
2014-Sep-02 07:33N 32°01' E 120°25'6511172611.4
2014-Sep-02 07:33N 23°06' E 113°26'65565507.1
2014-Sep-02 07:33N 31°21' E 121°27'644239.6
2014-Sep-02 07:32N 31°56' E 120°25'41714437.4
2014-Sep-02 07:30N 38°49' E 121°41'41925986.3
2014-Sep-02 07:29N 31°58' E 120°01'63719116.1
2014-Sep-02 07:27N 23°04' E 113°29'13238.7
2014-Sep-02 07:24N 22°52' E 113°33'653777.6
2014-Sep-02 06:33N 31°57' E 120°18'41765265.3
2014-Sep-02 06:33N 38°49' E 121°41'41413440.6
2014-Sep-02 06:31N 31°59' E 120°22'6213883.8
2014-Sep-02 06:31N 31°28' E 121°25'7410.9
2014-Sep-02 06:30N 31°21' E 121°27'37418177.4
2014-Sep-02 06:29N 37°34' E 121°56'4856037.1
2014-Sep-02 06:24N 29°30' E 122°23'1822194.7
2014-Sep-02 06:19N 31°57' E 120°19'6454510.6
2014-Sep-02 06:10N 23°04' E 113°29'13179.3
2014-Sep-02 06:06N 22°52' E 113°33'6511204.3
2014-Sep-02 05:33N 31°56' E 120°15'6431157120.9
2014-Sep-02 05:33N 23°06' E 113°26'42538.9
2014-Sep-02 05:33N 23°04' E 113°29'64126219.9
2014-Sep-02 05:32N 31°56' E 120°13'17510496.5
2014-Sep-02 05:31N 29°44' E 122°27'1779953.4
2014-Sep-02 05:30N 31°56' E 120°09'227319.2
2014-Sep-02 05:30N 31°60' E 120°35'34214310.8
2014-Sep-02 05:28N 37°35' E 121°59'37416843.2
2014-Sep-02 05:27N 31°21' E 121°27'115535.0
2014-Sep-02 05:14N 29°39' E 122°27'175259.3
2014-Sep-02 04:33N 32°02' E 120°30'341153470.8
2014-Sep-02 04:33N 37°34' E 122°01'97641336.0
2014-Sep-02 04:32N 23°06' E 113°26'65519817.3
2014-Sep-02 04:30N 31°21' E 121°27'111556.7
2014-Sep-02 04:18N 29°46' E 122°31'1181332.5
2014-Sep-02 04:13N 31°28' E 121°25'6193.5
2014-Sep-02 03:33N 31°60' E 120°23'65032937.3
2014-Sep-02 03:32N 23°06' E 113°26'12320.2
2014-Sep-02 03:30N 22°54' E 113°28'66612053.1
2014-Sep-02 03:27N 31°28' E 121°25'36745543.7
2014-Sep-02 03:26N 37°34' E 122°02'98125040.4
2014-Sep-02 03:24N 23°02' E 113°21'6114613.3
2014-Sep-02 03:23N 22°19' E 114°07'6702731.5
2014-Sep-02 03:09N 31°21' E 121°27'68119149.8
2014-Sep-02 03:07N 22°19' E 113°46'6741213.0
2014-Sep-02 02:33N 31°57' E 120°17'689247992.4
2014-Sep-02 02:33N 22°15' E 113°22'519182.5
2014-Sep-02 02:33N 23°06' E 113°26'52004.9
2014-Sep-02 02:33N 23°02' E 113°22'523923.0
2014-Sep-02 02:32N 22°16' E 113°48'532889.0
2014-Sep-02 02:31N 23°05' E 113°26'65934388.7
2014-Sep-02 02:30N 31°28' E 121°25'793.2
2014-Sep-02 02:25N 31°21' E 121°27'3722939.0
2014-Sep-02 02:17N 37°33' E 121°60'3483211.4
2014-Sep-02 02:11N 31°58' E 120°05'792166.3
2014-Sep-02 02:09N 31°25' E 121°31'6601127.5
2014-Sep-02 01:33N 23°06' E 113°26'618741676.2
2014-Sep-02 01:33N 29°36' E 122°21'618130866.0
2014-Sep-02 01:33N 23°05' E 113°27'65769578.3
2014-Sep-02 01:33N 31°22' E 121°30'776163.0
2014-Sep-02 01:32N 31°57' E 120°09'688275158.7
2014-Sep-02 01:32N 22°10' E 113°27'5413934.8
2014-Sep-02 01:31N 23°04' E 113°29'0 4.0
2014-Sep-02 01:30N 23°04' E 113°29'65814899.3
2014-Sep-02 01:28N 31°28' E 121°25'6892280.5
2014-Sep-02 01:09N 22°08' E 113°56'68416000.5
2014-Sep-02 01:07N 31°21' E 121°27'66316678.8
2014-Sep-02 01:04N 22°50' E 113°34'1733.6
2014-Sep-02 00:33N 23°06' E 113°26'60217159.9
2014-Sep-02 00:33N 22°10' E 113°50'5741245.8
2014-Sep-02 00:33N 23°04' E 113°30'643330488.0
2014-Sep-02 00:33N 31°57' E 120°15'6908970.6
2014-Sep-02 00:29N 22°09' E 113°27'554094.6
2014-Sep-02 00:28N 23°04' E 113°29'65621674.8
2014-Sep-02 00:26N 31°22' E 121°30'65681458.9
2014-Sep-02 00:26N 23°04' E 113°29'62612108.9
2014-Sep-02 00:22N 29°43' E 122°27'1182459.2
2014-Sep-02 00:20N 31°28' E 121°25'7611.5
2014-Sep-02 00:19N 31°21' E 121°27'6623758.8
2014-Sep-02 00:08N 22°53' E 113°31'6561123.6
2014-Sep-01 23:33N 31°60' E 120°21'64897255.2
2014-Sep-01 23:33N 23°06' E 113°26'65730323.0
2014-Sep-01 23:32N 31°22' E 121°30'6881239240.0
2014-Sep-01 23:31N 22°14' E 113°43'515001.5
2014-Sep-01 23:31N 23°04' E 113°29'65465441.0
2014-Sep-01 23:30N 31°21' E 121°27'71142.4
2014-Sep-01 23:30N 31°28' E 121°25'66663056.0
2014-Sep-01 23:29N 22°53' E 113°31'111087.0
2014-Sep-01 23:29N 23°04' E 113°30'547419.2
2014-Sep-01 23:28N 22°11' E 113°32'53181.5
2014-Sep-01 23:11N 23°04' E 113°29'12337.4
2014-Sep-01 23:08N 22°53' E 113°32'1779376.2
2014-Sep-01 23:07N 23°05' E 116°44'557989.0
2014-Sep-01 22:34N 31°22' E 121°28'659593273.4
2014-Sep-01 22:33N 22°58' E 113°30'658215197.3
2014-Sep-01 22:33N 32°02' E 120°26'653130603.3
2014-Sep-01 22:33N 23°06' E 113°26'65918528.1
2014-Sep-01 22:31N 31°28' E 121°25'6581184480.9
2014-Sep-01 22:31N 23°04' E 113°29'971874080.5
2014-Sep-01 22:31N 37°31' E 121°57'37018475.8
2014-Sep-01 22:30N 31°22' E 121°30'69730249.8
2014-Sep-01 22:28N 22°11' E 113°32'531209.8
2014-Sep-01 22:26N 23°04' E 113°29'0 2.3
2014-Sep-01 22:20N 23°04' E 113°30'6414062.8
2014-Sep-01 22:10N 31°56' E 120°13'6411048.3
2014-Sep-01 21:33N 23°04' E 113°29'633162671.0
2014-Sep-01 21:33N 29°52' E 122°29'63467117.6
2014-Sep-01 21:33N 23°06' E 113°26'656787505.5
2014-Sep-01 21:33N 32°02' E 120°33'5549692.4
2014-Sep-01 21:33N 31°28' E 121°25'681282.8
2014-Sep-01 21:29N 31°56' E 120°12'68534739.1
2014-Sep-01 21:28N 22°11' E 113°32'19778607.1
2014-Sep-01 21:28N 23°13' E 116°53'54765618.6
2014-Sep-01 21:28N 31°22' E 121°30'1044284.2
2014-Sep-01 21:26N 29°51' E 122°28'63168871.8
2014-Sep-01 21:26N 23°04' E 113°29'0 0.6
2014-Sep-01 21:05N 23°04' E 113°30'6581269.7
2014-Sep-01 20:34N 31°28' E 121°25'658592209.8
2014-Sep-01 20:33N 23°04' E 113°29'31478.0
2014-Sep-01 20:33N 23°06' E 113°26'65823690.8
2014-Sep-01 20:32N 32°00' E 120°39'5834925.3
2014-Sep-01 20:32N 31°22' E 121°30'65654941.9
2014-Sep-01 20:31N 23°04' E 113°29'63863824.9
2014-Sep-01 20:30N 31°57' E 120°05'6384951.5
2014-Sep-01 20:23N 23°04' E 113°29'538750.5
2014-Sep-01 20:22N 22°11' E 113°32'541269.1
2014-Sep-01 20:20N 23°04' E 113°30'97541278.3
2014-Sep-01 20:18N 37°34' E 121°59'367492.4
2014-Sep-01 19:34N 31°28' E 121°25'658394803.7
2014-Sep-01 19:33N 23°04' E 113°29'31969.2
2014-Sep-01 19:33N 23°06' E 113°26'662476364.5
2014-Sep-01 19:33N 32°01' E 120°44'339610751.9
2014-Sep-01 19:33N 37°34' E 122°02'97624408.6
2014-Sep-01 19:31N 23°04' E 113°29'65621874.9
2014-Sep-01 19:29N 31°22' E 121°30'697114121.4
2014-Sep-01 19:29N 22°11' E 113°32'53212.7
2014-Sep-01 19:14N 23°04' E 113°29'6574853.1
2014-Sep-01 19:05N 31°60' E 120°38'65647255.3
2014-Sep-01 19:05N 23°04' E 113°30'6561264.9
2014-Sep-01 18:34N 31°22' E 121°30'656787437.1
2014-Sep-01 18:33N 23°04' E 113°29'31970.7
2014-Sep-01 18:33N 23°06' E 113°26'656294993.6
2014-Sep-01 18:33N 32°01' E 120°33'34122338.0
2014-Sep-01 18:32N 37°34' E 122°01'97685680.4
2014-Sep-01 18:32N 23°04' E 113°30'029.0
2014-Sep-01 18:31N 23°04' E 113°29'658139353.9
2014-Sep-01 18:31N 31°28' E 121°25'6587869.6
2014-Sep-01 18:26N 23°04' E 113°29'658754.6
2014-Sep-01 17:33N 31°28' E 121°25'658473761.2
2014-Sep-01 17:33N 23°04' E 113°29'974500901.4
2014-Sep-01 17:33N 37°33' E 121°60'97458439.6
2014-Sep-01 17:32N 23°06' E 113°26'4635.8
2014-Sep-01 17:32N 23°04' E 113°30'656472327.4
2014-Sep-01 17:32N 31°22' E 121°30'69989921.8
2014-Sep-01 17:31N 22°07' E 113°33'5720491.6
2014-Sep-01 17:31N 23°04' E 113°29'3782844.7
2014-Sep-01 17:23N 22°33' E 120°18'3771821.7
2014-Sep-01 17:11N 23°04' E 113°29'6317191.9
2014-Sep-01 17:05N 29°51' E 122°28'6311191.9
2014-Sep-01 16:33N 23°04' E 113°29'11276.2
2014-Sep-01 16:33N 23°04' E 113°30'370332859.1
2014-Sep-01 16:33N 22°33' E 120°09'3684725.1
2014-Sep-01 16:29N 22°07' E 113°33'573855.5
2014-Sep-01 16:28N 23°04' E 113°29'65622287.9
2014-Sep-01 16:26N 31°22' E 121°30'65673823.4
2014-Sep-01 16:26N 23°04' E 113°29'63116834.1
2014-Sep-01 16:23N 29°51' E 122°28'631757.3
2014-Sep-01 15:33N 23°04' E 113°30'1347.0
2014-Sep-01 15:33N 23°04' E 113°29'3446.6
2014-Sep-01 15:33N 23°06' E 113°26'413850.5
2014-Sep-01 15:33N 23°04' E 113°29'65684374.3
2014-Sep-01 15:32N 31°22' E 121°30'3731127.5
2014-Sep-01 15:12N 37°34' E 121°60'97634098.7
2014-Sep-01 15:11N 23°04' E 113°29'58758.5
2014-Sep-01 15:06N 22°06' E 113°34'59108.6
2014-Sep-01 14:33N 23°05' E 113°26'977502454.4
2014-Sep-01 14:33N 37°34' E 122°02'9763514856.5
2014-Sep-01 14:33N 23°06' E 113°25'464.8
2014-Sep-01 14:30N 23°04' E 113°29'65610738.6
2014-Sep-01 14:26N 31°22' E 121°30'65678744.7
2014-Sep-01 14:26N 23°04' E 113°29'583160.2
2014-Sep-01 14:24N 22°06' E 113°34'11366.9
2014-Sep-01 14:23N 22°17' E 113°36'482067.7
2014-Sep-01 14:21N 23°04' E 113°30'22532407.3
2014-Sep-01 14:21N 23°37' E 117°32'5334879.2
2014-Sep-01 14:14N 32°01' E 120°45'4474665.2
2014-Sep-01 14:09N 24°46' E 118°49'309525.4
2014-Sep-01 13:33N 23°04' E 113°30'4988.7
2014-Sep-01 13:33N 23°06' E 113°26'23376286.8
2014-Sep-01 13:33N 23°40' E 117°37'23442079.4
2014-Sep-01 13:32N 22°12' E 113°42'69127943.1
2014-Sep-01 13:31N 31°22' E 121°30'37322759.3
2014-Sep-01 13:30N 37°34' E 122°00'46437939.5
2014-Sep-01 13:29N 29°51' E 122°28'63110010.9
2014-Sep-01 13:26N 23°04' E 113°29'583113.4
2014-Sep-01 13:24N 22°06' E 113°34'581029.4
2014-Sep-01 13:21N 23°04' E 113°29'6075.5
2014-Sep-01 12:33N 22°07' E 113°48'6337548.3
2014-Sep-01 12:33N 23°06' E 113°26'42964.3
2014-Sep-01 12:33N 23°04' E 113°30'033.6
2014-Sep-01 12:33N 23°04' E 113°29'6565876.8
2014-Sep-01 12:26N 31°22' E 121°30'70044196.7
2014-Sep-01 12:25N 22°06' E 113°34'6683798.4
2014-Sep-01 12:14N 29°50' E 122°29'44318536.3
2014-Sep-01 12:13N 23°46' E 117°46'5013745.0
2014-Sep-01 12:05N 31°28' E 121°25'815.1
2014-Sep-01 11:34N 31°22' E 121°30'65778844.7
2014-Sep-01 11:33N 23°06' E 113°26'65925501.1
2014-Sep-01 11:31N 31°28' E 121°25'6585481.5
2014-Sep-01 11:24N 23°04' E 113°30'2445935.6
2014-Sep-01 11:22N 23°51' E 117°51'2443547.0
2014-Sep-01 11:18N 23°04' E 113°29'6304454.3
2014-Sep-01 11:09N 29°48' E 122°29'6311047.6
2014-Sep-01 10:33N 23°06' E 113°25'63111306.6
2014-Sep-01 10:30N 29°48' E 122°29'10742684.6
2014-Sep-01 10:30N 31°22' E 121°30'851.8
2014-Sep-01 10:20N 31°28' E 121°25'6584882.5
2014-Sep-01 10:12N 23°04' E 113°30'25110248.5
2014-Sep-01 10:11N 23°58' E 117°56'2512932.6
2014-Sep-01 10:06N 23°04' E 113°29'4 7.6
2014-Sep-01 09:33N 23°06' E 113°25'65717142.8
2014-Sep-01 09:31N 31°22' E 121°30'65630286.7
2014-Sep-01 09:30N 23°04' E 113°29'65898705.3
2014-Sep-01 09:29N 31°28' E 121°25'3676081.4
2014-Sep-01 09:26N 37°34' E 121°56'836273514.4
2014-Sep-01 09:26N 24°03' E 118°00'25524827.0
2014-Sep-01 09:25N 23°04' E 113°30'6293386.6
2014-Sep-01 09:14N 29°48' E 122°28'59712496.2
2014-Sep-01 09:11N 38°58' E 117°44'9771534.2
2014-Sep-01 08:33N 23°06' E 113°25'4145.9
2014-Sep-01 08:31N 23°04' E 113°29'65454779.6
2014-Sep-01 08:30N 32°01' E 120°30'574998.3
2014-Sep-01 08:30N 31°28' E 121°25'7698.4
2014-Sep-01 08:29N 31°22' E 121°30'1051911.1
2014-Sep-01 08:26N 29°51' E 122°29'4144872.5
2014-Sep-01 08:21N 24°09' E 118°07'2625277.9
2014-Sep-01 08:18N 23°04' E 113°29'64322934.0
2014-Sep-01 08:16N 31°57' E 120°16'17120501.4
2014-Sep-01 08:15N 29°51' E 122°31'4205361.1
2014-Sep-01 08:11N 36°51' E 122°23'310498.6
2014-Sep-01 07:33N 31°59' E 120°19'647291212.9
2014-Sep-01 07:33N 23°06' E 113°25'6592372064.6
2014-Sep-01 07:33N 31°28' E 121°25'5869419.9
2014-Sep-01 07:33N 31°59' E 120°27'65161647.5
2014-Sep-01 07:33N 23°04' E 113°29'950569715.1
2014-Sep-01 07:33N 36°49' E 122°32'99940884.6
2014-Sep-01 07:31N 22°06' E 113°34'58104772.5
2014-Sep-01 07:31N 23°04' E 113°29'26829236.8
2014-Sep-01 07:31N 24°13' E 118°12'46327754.1
2014-Sep-01 07:30N 31°22' E 121°28'1041669.9
2014-Sep-01 07:26N 29°51' E 122°28'6372630.4
2014-Sep-01 07:11N 22°51' E 113°34'9788345.3
2014-Sep-01 07:04N 37°33' E 121°45'9681884.2
2014-Sep-01 06:33N 23°06' E 113°25'659338873.5
2014-Sep-01 06:33N 31°28' E 121°25'36438541.2
2014-Sep-01 06:33N 37°32' E 121°43'97257346.1
2014-Sep-01 06:32N 23°02' E 113°21'7744.0
2014-Sep-01 06:31N 23°04' E 113°29'27554992.7
2014-Sep-01 06:31N 24°18' E 118°18'27514994.1
2014-Sep-01 06:30N 23°04' E 113°29'650106347.8
2014-Sep-01 06:29N 32°00' E 120°23'6581185108.5
2014-Sep-01 06:29N 22°51' E 113°34'6538738.5
2014-Sep-01 06:25N 31°57' E 120°18'1645570.6
2014-Sep-01 06:23N 29°52' E 122°22'6654022.7
2014-Sep-01 06:13N 22°06' E 113°34'7044762.1
2014-Sep-01 06:04N 31°31' E 121°24'6601287.5
2014-Sep-01 05:33N 23°04' E 113°28'118.8
2014-Sep-01 05:31N 23°04' E 113°29'015.6
2014-Sep-01 05:31N 23°04' E 113°29'583553.7
2014-Sep-01 05:30N 22°06' E 113°34'1018140926.3
2014-Sep-01 05:30N 37°32' E 121°42'36362294.2
2014-Sep-01 05:29N 31°29' E 121°27'49293151.8
2014-Sep-01 05:29N 39°05' E 117°44'98530820.1
2014-Sep-01 05:27N 23°06' E 113°25'654784566.0
2014-Sep-01 05:27N 32°02' E 120°27'601269.3
2014-Sep-01 05:24N 31°28' E 121°25'1141493.2
2014-Sep-01 05:20N 29°48' E 122°29'177991.7
2014-Sep-01 05:09N 31°56' E 120°07'6391077.6
2014-Sep-01 04:33N 23°06' E 113°25'101623.0
2014-Sep-01 04:33N 22°58' E 113°32'66370197.7
2014-Sep-01 04:32N 31°25' E 121°32'660339236.0
2014-Sep-01 04:32N 23°04' E 113°29'9531.4
2014-Sep-01 04:31N 22°56' E 113°30'29027515.2
2014-Sep-01 04:31N 24°25' E 118°32'88130502.0
2014-Sep-01 04:29N 39°05' E 117°44'4451602179.5
2014-Sep-01 04:29N 32°02' E 120°32'69853486.1
2014-Sep-01 04:28N 22°10' E 113°35'65235033.9
2014-Sep-01 04:27N 29°37' E 122°23'17110.7
2014-Sep-01 04:18N 29°54' E 122°20'15302.0
2014-Sep-01 04:15N 29°48' E 122°36'46654149.5
2014-Sep-01 04:14N 37°33' E 121°47'4667232.5
2014-Sep-01 04:10N 29°48' E 122°29'6367477.9
2014-Sep-01 04:05N 22°51' E 113°34'9971794.8
2014-Sep-01 03:32N 39°05' E 117°44'103986978.3
2014-Sep-01 03:31N 22°09' E 113°30'70312844.3
2014-Sep-01 03:28N 32°01' E 120°37'1654310.1
2014-Sep-01 03:26N 29°46' E 122°29'3224.2
2014-Sep-01 03:25N 29°47' E 122°32'141255.3
2014-Sep-01 03:24N 29°37' E 122°22'1741151.2
2014-Sep-01 03:15N 31°58' E 120°24'6084.9
2014-Sep-01 02:33N 31°28' E 121°25'65912961.7
2014-Sep-01 02:30N 23°06' E 113°25'420.4
2014-Sep-01 02:19N 23°04' E 113°29'735.4
2014-Sep-01 02:07N 23°02' E 113°22'6641128.6
2014-Sep-01 01:32N 31°28' E 121°25'659474422.9
2014-Sep-01 01:32N 23°06' E 113°25'62931001.1
2014-Sep-01 01:30N 29°50' E 122°23'1042394.9
2014-Sep-01 01:28N 31°25' E 121°32'66014396.0
2014-Sep-01 01:25N 23°04' E 113°29'5923475.6
2014-Sep-01 01:25N 22°09' E 113°52'10137065.1
2014-Sep-01 01:16N 37°31' E 121°57'971151987.0
2014-Sep-01 01:16N 23°04' E 113°29'13185.8
2014-Sep-01 01:12N 22°52' E 113°33'1625.3
2014-Sep-01 00:33N 23°06' E 113°25'579690.0
2014-Sep-01 00:33N 22°12' E 113°45'691355369.1
2014-Sep-01 00:33N 31°24' E 121°31'664217360.2
2014-Sep-01 00:33N 23°02' E 113°22'66443437.6
2014-Sep-01 00:32N 31°28' E 121°25'12811255.5
2014-Sep-01 00:31N 29°31' E 122°26'61811892.6
2014-Sep-01 00:28N 23°04' E 113°29'655196527.9
2014-Sep-01 00:28N 32°01' E 120°33'66421916.4
2014-Sep-01 00:26N 22°52' E 113°33'6612753.0
2014-Sep-01 00:12N 31°21' E 121°26'6541027.5
2014-Aug-31 23:33N 23°06' E 113°25'517907.1
2014-Aug-31 23:33N 22°17' E 113°37'691191234.1
2014-Aug-31 23:33N 32°02' E 120°29'585776.0
2014-Aug-31 23:32N 31°28' E 121°25'65833363.6
2014-Aug-31 23:31N 23°04' E 113°29'655589051.2
2014-Aug-31 23:31N 31°21' E 121°28'1197.0
2014-Aug-31 23:31N 31°21' E 121°26'69815407.8
2014-Aug-31 23:28N 22°11' E 113°25'699770.8
2014-Aug-31 22:33N 31°21' E 121°28'646044.3
2014-Aug-31 22:33N 32°02' E 120°29'633118.9
2014-Aug-31 22:32N 31°21' E 121°26'81293.0
2014-Aug-31 22:31N 31°28' E 121°25'65812337.6
2014-Aug-31 22:28N 23°04' E 113°29'5316010.0
2014-Aug-31 22:28N 22°11' E 113°25'41133.6
2014-Aug-31 22:09N 22°52' E 113°33'6667153.8
2014-Aug-31 22:04N 32°00' E 120°38'51101.1
2014-Aug-31 21:34N 31°28' E 121°25'74354.1
2014-Aug-31 21:33N 31°21' E 121°28'655112365.6
2014-Aug-31 21:33N 23°06' E 113°25'65473596.0
2014-Aug-31 21:33N 31°21' E 121°26'65325561.2
2014-Aug-31 21:31N 23°04' E 113°29'66025275.3
2014-Aug-31 21:29N 32°01' E 120°42'115053.4
2014-Aug-31 21:29N 32°02' E 120°29'67415071.8
2014-Aug-31 21:27N 22°27' E 113°53'6337080.1
2014-Aug-31 21:21N 29°42' E 122°25'118148.5
2014-Aug-31 20:34N 31°28' E 121°25'65987849.8
2014-Aug-31 20:33N 23°06' E 113°25'1611543.3
2014-Aug-31 20:33N 22°52' E 113°33'662140292.2
2014-Aug-31 20:33N 32°02' E 120°29'6548318.6
2014-Aug-31 20:28N 23°04' E 113°29'65467319.1
2014-Aug-31 20:27N 31°21' E 121°28'118.7
2014-Aug-31 20:23N 31°21' E 121°26'6985747.1
2014-Aug-31 20:16N 22°11' E 113°25'5476.0
2014-Aug-31 19:33N 23°05' E 113°28'6552356872.2
2014-Aug-31 19:33N 31°21' E 121°28'7767.8
2014-Aug-31 19:33N 31°28' E 121°25'61222003724.3
2014-Aug-31 19:33N 33°27' W 117°40'6126118562.7
2014-Aug-31 19:30N 31°21' E 121°26'639485.5
2014-Aug-31 19:29N 32°02' E 120°29'65432696.5
2014-Aug-31 19:28N 23°04' E 113°29'5313725.9
2014-Aug-31 19:28N 22°11' E 113°25'2483478.6
2014-Aug-31 19:23N 23°36' E 117°39'230276.0
2014-Aug-31 18:33N 22°59' E 113°31'6572365068.9
2014-Aug-31 18:33N 31°21' E 121°28'505908808.3
2014-Aug-31 18:33N 23°41' E 117°35'510459113.0
2014-Aug-31 18:33N 31°28' E 121°25'581377.1
2014-Aug-31 18:31N 32°02' E 120°29'6542645.1
2014-Aug-31 18:16N 23°04' E 113°29'5313711.4
2014-Aug-31 18:16N 22°11' E 113°25'66411014.5
2014-Aug-31 18:12N 29°42' E 122°27'1124189.5
2014-Aug-31 18:11N 31°21' E 121°26'1 2.2
2014-Aug-31 17:33N 31°21' E 121°28'643328.7
2014-Aug-31 17:32N 32°02' E 120°29'5810944.6
2014-Aug-31 17:32N 31°28' E 121°25'66549853.1
2014-Aug-31 17:31N 22°52' E 113°34'6514602.4
2014-Aug-31 17:23N 31°57' E 120°15'40115845.7
2014-Aug-31 17:21N 25°18' E 119°32'3774947.5
2014-Aug-31 17:17N 31°21' E 121°26'65363554.8
2014-Aug-31 17:16N 23°04' E 113°29'6253806.5
2014-Aug-31 17:06N 29°42' E 122°27'112204.8
2014-Aug-31 16:33N 31°21' E 121°28'6922568.1
2014-Aug-31 16:33N 31°59' E 120°20'658789624.5
2014-Aug-31 16:33N 22°46' E 113°39'78568941.4
2014-Aug-31 16:32N 34°50' E 119°24'22681204.2
2014-Aug-31 16:32N 31°28' E 121°25'8352.4
2014-Aug-31 16:31N 31°21' E 121°26'1128043.0
2014-Aug-31 16:30N 29°42' E 122°27'17210871.9
2014-Aug-31 16:29N 32°02' E 120°29'6549160.0
2014-Aug-31 16:25N 23°04' E 113°29'6583738.7
2014-Aug-31 16:14N 31°24' E 121°31'4 5.8
2014-Aug-31 15:33N 31°21' E 121°28'4981.3
2014-Aug-31 15:33N 31°24' E 121°31'7754.1
2014-Aug-31 15:33N 31°28' E 121°25'6116795.5
2014-Aug-31 15:32N 32°01' E 120°25'41232.5
2014-Aug-31 15:32N 32°02' E 120°29'1724803.7
2014-Aug-31 15:30N 29°42' E 122°27'62517854.8
2014-Aug-31 15:28N 23°04' E 113°29'9713562.2
2014-Aug-31 15:12N 37°34' E 121°49'338527.2
2014-Aug-31 14:33N 32°02' E 120°29'17657553.6
2014-Aug-31 14:33N 34°49' E 119°23'1779348.8
2014-Aug-31 14:32N 32°02' E 120°29'641026.8
2014-Aug-31 14:28N 31°24' E 121°31'4323.2
2014-Aug-31 14:27N 31°22' E 121°28'65516138.5
2014-Aug-31 14:25N 23°04' E 113°29'53344.2
2014-Aug-31 14:16N 22°11' E 113°25'52255.7
2014-Aug-31 14:03N 23°03' E 113°19'6611323.3
2014-Aug-31 13:33N 31°21' E 121°28'6411483.5
2014-Aug-31 13:33N 32°02' E 120°29'587997.0
2014-Aug-31 13:33N 31°28' E 121°25'545862.1
2014-Aug-31 13:32N 32°01' E 120°35'59213954.0
2014-Aug-31 13:32N 31°21' E 121°26'6539757.7
2014-Aug-31 13:28N 23°04' E 113°29'3737226.5
2014-Aug-31 13:25N 25°45' E 119°39'3531272.9
2014-Aug-31 13:08N 31°24' E 121°31'6591133.0
2014-Aug-31 12:33N 23°05' E 113°27'6551179401.6
2014-Aug-31 12:33N 31°21' E 121°28'71305.2
2014-Aug-31 12:33N 31°28' E 121°25'69441612.4
2014-Aug-31 12:32N 22°09' E 113°45'68813767.7
2014-Aug-31 12:29N 31°21' E 121°26'65336176.5
2014-Aug-31 12:28N 23°04' E 113°29'539607.7
2014-Aug-31 12:28N 22°11' E 113°25'7036340.0
2014-Aug-31 12:21N 31°24' E 121°31'7 8.5
2014-Aug-31 11:34N 31°28' E 121°25'72893.9
2014-Aug-31 11:33N 31°21' E 121°27'654130851.4
2014-Aug-31 11:33N 23°04' E 113°30'654784576.0
2014-Aug-31 11:33N 32°02' E 120°29'6952500942.4
2014-Aug-31 11:33N 22°04' E 113°51'68982703.5
2014-Aug-31 11:33N 31°21' E 121°26'6611189228.4
2014-Aug-31 11:32N 22°52' E 113°33'663103782.5
2014-Aug-31 11:32N 32°01' E 120°31'6325252.0
2014-Aug-31 11:32N 31°23' E 121°30'6572547.1
2014-Aug-31 11:16N 23°04' E 113°29'53249.2
2014-Aug-31 11:04N 22°11' E 113°25'53105.6
2014-Aug-31 10:33N 23°04' E 113°30'64392569.0
2014-Aug-31 10:33N 31°57' E 120°15'7115906.1
2014-Aug-31 10:33N 31°21' E 121°27'6629666.1
2014-Aug-31 10:33N 32°01' E 120°26'6054167.0
2014-Aug-31 10:33N 31°28' E 121°25'583783.8
2014-Aug-31 10:32N 32°02' E 120°29'70110470.2
2014-Aug-31 10:28N 22°11' E 113°25'699193529.5
2014-Aug-31 10:27N 31°21' E 121°27'65419797.9
2014-Aug-31 10:25N 23°04' E 113°29'658760.9
2014-Aug-31 09:34N 31°28' E 121°25'73726.6
2014-Aug-31 09:33N 31°21' E 121°27'654294413.5
2014-Aug-31 09:33N 23°04' E 113°30'64733738.3
2014-Aug-31 09:32N 31°58' E 120°20'8322.1
2014-Aug-31 09:31N 32°02' E 120°29'643166.7
2014-Aug-31 09:29N 31°21' E 121°27'65437985.0
2014-Aug-31 09:28N 23°04' E 113°29'53469.7
2014-Aug-31 09:22N 22°11' E 113°25'411851.9
2014-Aug-31 09:20N 22°52' E 113°33'38151.2
2014-Aug-31 09:05N 22°13' E 113°35'6921312.9
2014-Aug-31 08:33N 31°21' E 121°27'679226.1
2014-Aug-31 08:33N 32°00' E 120°24'6501169278.7
2014-Aug-31 08:33N 23°04' E 113°30'4919710.8
2014-Aug-31 08:33N 22°15' E 113°36'689310167.3
2014-Aug-31 08:33N 31°21' E 121°27'7398.2
2014-Aug-31 08:32N 31°28' E 121°25'65812599.8
2014-Aug-31 08:28N 23°04' E 113°29'3743553.4
2014-Aug-31 08:22N 26°03' E 119°30'40647145.0
2014-Aug-31 08:22N 22°11' E 113°25'699870.2
2014-Aug-31 07:33N 31°21' E 121°27'654294411.3
2014-Aug-31 07:33N 23°04' E 113°30'368110464.0
2014-Aug-31 07:33N 25°59' E 119°26'34031355.8
2014-Aug-31 07:32N 31°21' E 121°27'7416.9
2014-Aug-31 07:31N 31°28' E 121°25'8382.4
2014-Aug-31 07:30N 31°21' E 121°26'6613776.9
2014-Aug-31 07:20N 22°54' E 113°30'11199.9
2014-Aug-31 07:16N 23°04' E 113°29'533768.7
2014-Aug-31 07:16N 22°11' E 113°25'699994.4
2014-Aug-31 06:33N 31°21' E 121°27'654294415.4
2014-Aug-31 06:33N 23°04' E 113°30'65446163.4
2014-Aug-31 06:32N 31°21' E 121°27'7410.0
2014-Aug-31 06:31N 31°28' E 121°25'666217903.0
2014-Aug-31 06:31N 22°54' E 113°30'4107.3
2014-Aug-31 06:29N 22°51' E 113°34'141450.4
2014-Aug-31 06:28N 23°04' E 113°29'65520876.4
2014-Aug-31 06:27N 31°22' E 121°28'1121367.3
2014-Aug-31 06:22N 29°42' E 122°27'664478043.3
2014-Aug-31 06:22N 22°11' E 113°25'103816320.6
2014-Aug-31 06:18N 39°05' E 117°44'0 0.2
2014-Aug-31 05:33N 39°05' E 117°44'498448362.3
2014-Aug-31 05:33N 31°21' E 121°27'654392551.3
2014-Aug-31 05:33N 23°04' E 113°30'985107502.0
2014-Aug-31 05:33N 39°05' E 117°44'60917394.2
2014-Aug-31 05:31N 29°42' E 122°25'1181941.5
2014-Aug-31 05:27N 31°28' E 121°25'6779.7
2014-Aug-31 05:27N 31°24' E 121°31'6583011.7
2014-Aug-31 05:13N 23°04' E 113°29'352125.0
2014-Aug-31 05:12N 22°34' E 113°47'6367199.2
2014-Aug-31 05:07N 29°55' E 122°18'5921055.0
2014-Aug-31 04:33N 39°04' E 117°49'496357056.9
2014-Aug-31 04:33N 31°21' E 121°27'654392551.3
2014-Aug-31 04:33N 23°04' E 113°30'65911990.3
2014-Aug-31 04:30N 31°31' E 121°25'1045273.0
2014-Aug-31 04:29N 29°57' E 122°16'59317070.3
2014-Aug-31 04:27N 39°05' E 117°44'4918708.7
2014-Aug-31 04:23N 31°28' E 121°25'6585694.2
2014-Aug-31 04:16N 23°04' E 113°29'43752.7
2014-Aug-31 04:13N 22°28' E 113°53'10171545.7
2014-Aug-31 03:33N 39°05' E 117°44'1017228898.0
2014-Aug-31 03:33N 22°27' E 113°53'1018732664.5
2014-Aug-31 03:33N 39°04' E 117°51'43044.0
2014-Aug-31 03:33N 39°05' E 117°46'985591175.4
2014-Aug-31 03:33N 23°04' E 113°30'628753706.6
2014-Aug-31 03:33N 29°53' E 122°22'1001951.8
2014-Aug-31 03:30N 31°21' E 121°27'4798.9
2014-Aug-31 03:30N 31°25' E 121°30'4119.5
2014-Aug-31 03:27N 31°21' E 121°27'69873917.1
2014-Aug-31 03:27N 22°13' E 113°24'103711484.0
2014-Aug-31 03:21N 39°04' E 117°48'98514716.1
2014-Aug-31 03:17N 23°04' E 113°29'66012498.7
2014-Aug-31 03:14N 31°27' E 121°29'36525743.3
2014-Aug-31 03:13N 37°31' E 121°57'214321.2
2014-Aug-31 02:33N 39°04' E 117°51'072.0
2014-Aug-31 02:33N 39°04' E 117°51'9861774626.4
2014-Aug-31 02:33N 23°04' E 113°29'33789.1
2014-Aug-31 02:33N 23°04' E 113°26'987355207.8
2014-Aug-31 02:33N 39°04' E 117°51'496137236.6
2014-Aug-31 02:33N 31°21' E 121°27'670172356.5
2014-Aug-31 02:33N 22°27' E 113°53'331960.1
2014-Aug-31 02:32N 22°18' E 113°19'70226308.3
2014-Aug-31 02:30N 31°25' E 121°31'5115.0
2014-Aug-31 02:27N 31°21' E 121°27'101427.4
2014-Aug-31 02:13N 29°52' E 122°22'46310037.4
2014-Aug-31 02:10N 37°35' E 121°55'3667792.9
2014-Aug-31 02:08N 31°30' E 121°24'490859.6
2014-Aug-31 01:33N 39°05' E 117°44'498448469.5
2014-Aug-31 01:33N 31°21' E 121°27'4971790695.6
2014-Aug-31 01:33N 39°05' E 117°46'985506802.5
2014-Aug-31 01:33N 23°04' E 113°29'986507254.1
2014-Aug-31 01:33N 39°05' E 117°50'101871862.1
2014-Aug-31 01:32N 22°27' E 113°53'67247461.9
2014-Aug-31 01:31N 31°21' E 121°32'1005017.9
2014-Aug-31 01:30N 29°50' E 122°23'114.2
2014-Aug-31 01:28N 29°50' E 122°23'1031513.5
2014-Aug-31 01:24N 31°21' E 121°27'68421805.3
2014-Aug-31 01:22N 22°09' E 113°54'65449076.4
2014-Aug-31 01:21N 29°48' E 122°34'603759.1
2014-Aug-31 00:33N 39°04' E 117°50'9453401597.9
2014-Aug-31 00:33N 23°21' E 116°35'15995356.6
2014-Aug-31 00:33N 22°27' E 113°53'4351500.4
2014-Aug-31 00:33N 23°04' E 113°29'986506838.9
2014-Aug-31 00:33N 39°05' E 117°44'49889706.5
2014-Aug-31 00:33N 31°21' E 121°27'7171.7
2014-Aug-31 00:30N 31°15' E 121°32'9314626.9
2014-Aug-31 00:30N 29°52' E 122°22'65320808.0
2014-Aug-31 00:28N 22°11' E 113°47'683117074.0
2014-Aug-31 00:28N 31°15' E 121°30'5029364.7
2014-Aug-31 00:24N 39°04' E 117°51'49523450.4
2014-Aug-31 00:23N 31°21' E 121°27'6624025.3
2014-Aug-31 00:13N 22°52' E 113°33'647973.1
2014-Aug-30 23:33N 30°01' E 122°34'5922130972.7
2014-Aug-30 23:33N 39°04' E 117°50'986709707.5
2014-Aug-30 23:33N 23°04' E 113°29'986443664.2
2014-Aug-30 23:33N 39°04' E 117°51'9453402519.5
2014-Aug-30 23:33N 23°21' E 116°41'16498406.4
2014-Aug-30 23:33N 22°27' E 113°53'638191290.0
2014-Aug-30 23:33N 29°52' E 122°22'65546223.2
2014-Aug-30 23:32N 22°15' E 113°40'371586.4
2014-Aug-30 23:31N 22°52' E 113°33'66227389.2
2014-Aug-30 23:29N 31°21' E 121°27'739.5
2014-Aug-30 23:18N 31°28' E 121°25'1832444.4
2014-Aug-30 23:18N 31°10' E 121°28'534718.4
2014-Aug-30 22:33N 23°18' E 116°47'168151253.0
2014-Aug-30 22:33N 22°27' E 113°53'6702413091.2
2014-Aug-30 22:33N 31°21' E 121°27'654471094.5
2014-Aug-30 22:33N 23°04' E 113°29'6549424.7
2014-Aug-30 22:29N 31°21' E 121°27'66246725.6
2014-Aug-30 22:28N 22°52' E 113°33'6662695.3
2014-Aug-30 22:13N 31°28' E 121°25'6741010.4
2014-Aug-30 21:33N 22°27' E 113°54'4319420.5
2014-Aug-30 21:33N 23°04' E 113°29'658215360.6
2014-Aug-30 21:33N 31°28' E 121°25'8279.8
2014-Aug-30 21:31N 31°20' E 121°26'137.0
2014-Aug-30 21:29N 31°21' E 121°27'6623173.1
2014-Aug-30 21:17N 22°52' E 113°33'1318.2
2014-Aug-30 20:33N 23°04' E 113°29'6562361085.5
2014-Aug-30 20:33N 31°22' E 121°29'7290.3
2014-Aug-30 20:32N 31°28' E 121°25'7164.1
2014-Aug-30 20:29N 31°21' E 121°27'6624173.4
2014-Aug-30 20:20N 22°52' E 113°33'9843701.1
2014-Aug-30 20:04N 37°34' E 121°56'9991972.1
2014-Aug-30 19:33N 22°27' E 113°54'4311112.7
2014-Aug-30 19:33N 23°04' E 113°29'65598311.6
2014-Aug-30 19:33N 31°22' E 121°28'72349.2
2014-Aug-30 19:32N 31°28' E 121°25'3671098.8
2014-Aug-30 19:12N 37°34' E 121°53'8041238.4
2014-Aug-30 18:33N 24°33' E 118°11'4491615802.5
2014-Aug-30 18:33N 31°28' E 121°25'6742427071.4
2014-Aug-30 18:33N 22°27' E 113°54'4338903.8
2014-Aug-30 18:33N 23°04' E 113°29'658197527.9
2014-Aug-30 18:33N 31°24' E 121°31'6642419.3
2014-Aug-30 18:17N 23°02' E 113°22'7 9.3
2014-Aug-30 17:33N 23°04' E 113°29'436483.2
2014-Aug-30 17:33N 22°27' E 113°54'67447589.3
2014-Aug-30 17:32N 31°28' E 121°25'695.4
2014-Aug-30 17:28N 31°24' E 121°30'66015536.0
2014-Aug-30 17:26N 23°04' E 113°26'27610032.7
2014-Aug-30 17:24N 24°34' E 118°11'2691134.6
2014-Aug-30 17:10N 22°27' E 113°53'4370.2
2014-Aug-30 16:33N 23°04' E 113°29'4317311.1
2014-Aug-30 16:33N 22°27' E 113°54'425375.3
2014-Aug-30 16:33N 23°03' E 113°30'2726326.6
2014-Aug-30 16:30N 24°34' E 118°11'44715036.9
2014-Aug-30 16:28N 31°24' E 121°30'3703632.6
2014-Aug-30 16:22N 37°34' E 121°58'3676701.0
2014-Aug-30 16:19N 31°28' E 121°25'658871.6
2014-Aug-30 15:33N 23°04' E 113°29'42338.9
2014-Aug-30 15:26N 22°28' E 113°52'10003525.3
2014-Aug-30 15:09N 37°34' E 121°59'3678418.8
2014-Aug-30 15:06N 31°28' E 121°25'771850.6
2014-Aug-30 15:04N 31°58' E 120°02'5161004.1
2014-Aug-30 14:33N 23°39' E 117°36'5111840033.2
2014-Aug-30 14:33N 31°28' E 121°25'66064175.6
2014-Aug-30 14:32N 23°01' E 113°31'64169881.8
2014-Aug-30 14:32N 31°58' E 120°05'65953946.9
2014-Aug-30 14:31N 22°28' E 113°52'675404973.5
2014-Aug-30 14:31N 31°25' E 121°30'504523.7
2014-Aug-30 13:33N 23°43' E 117°42'24223584.2
2014-Aug-30 13:33N 22°17' E 113°35'67823229.8
2014-Aug-30 13:31N 31°57' E 120°10'649233555.2
2014-Aug-30 13:31N 22°53' E 113°31'6663980.6
2014-Aug-30 13:21N 31°28' E 121°25'319.5
2014-Aug-30 13:12N 31°30' E 121°22'6931065.3
2014-Aug-30 12:33N 22°12' E 113°43'68154470.9
2014-Aug-30 12:32N 31°57' E 120°15'135696.3
2014-Aug-30 12:20N 30°35' E 122°21'47317186.9
2014-Aug-30 12:19N 23°49' E 117°48'508673.6
2014-Aug-30 11:33N 31°59' E 120°20'13147148.8
2014-Aug-30 11:33N 30°42' E 122°24'69224902.9
2014-Aug-30 11:32N 22°06' E 113°50'281657.6
2014-Aug-30 11:06N 24°34' E 118°11'464856.4
2014-Aug-30 10:33N 32°02' E 120°26'4433669.4
2014-Aug-30 10:26N 39°05' E 117°44'5 6.1
2014-Aug-30 09:33N 39°04' E 117°51'44354957.7
2014-Aug-30 09:33N 32°02' E 120°33'49913115.0
2014-Aug-30 09:31N 23°58' E 118°12'264698.3
2014-Aug-30 09:08N 22°52' E 113°33'9971735.5
2014-Aug-30 08:33N 39°05' E 117°44'51283.5
2014-Aug-30 08:33N 39°04' E 117°51'9973748.0
2014-Aug-30 08:17N 22°52' E 113°33'9971353.4
2014-Aug-30 07:33N 39°05' E 117°44'53224.1
2014-Aug-30 07:33N 39°05' E 117°51'99814722.4
2014-Aug-30 07:29N 22°52' E 113°33'9971077.5
2014-Aug-30 06:33N 39°05' E 117°44'5565.7
2014-Aug-30 06:33N 39°04' E 117°51'790406084.8
2014-Aug-30 06:33N 25°59' E 119°26'7911423747.0
2014-Aug-30 06:33N 39°05' E 117°44'10302998.3
2014-Aug-30 06:12N 22°17' E 113°35'10301603.3
2014-Aug-30 05:33N 39°05' E 117°45'31741.9
2014-Aug-30 05:33N 39°04' E 117°48'4272.4
2014-Aug-30 05:33N 39°05' E 117°44'491196430.4
2014-Aug-30 05:32N 31°28' E 121°25'3479109.7
2014-Aug-30 05:30N 25°58' E 119°26'389155773.8
2014-Aug-30 05:30N 22°15' E 113°36'36326.1
2014-Aug-30 05:23N 22°51' E 113°34'15123.3
2014-Aug-30 05:16N 23°02' E 113°23'9891389.8
2014-Aug-30 04:33N 39°04' E 117°51'599.9
2014-Aug-30 04:30N 39°05' E 117°44'98684472.0
2014-Aug-30 04:30N 23°04' E 113°29'98620389.8
2014-Aug-30 04:27N 39°05' E 117°44'79219270.4
2014-Aug-30 04:24N 25°58' E 119°26'37127271.8
2014-Aug-30 04:23N 22°51' E 113°34'9986057.4
2014-Aug-30 04:13N 39°04' E 117°51'1 1.0
2014-Aug-30 03:33N 39°04' E 117°52'62548.1
2014-Aug-30 03:33N 39°05' E 117°44'2279.6
2014-Aug-30 03:33N 39°04' E 117°47'2113.4
2014-Aug-30 03:32N 39°05' E 117°44'98593357.0
2014-Aug-30 03:31N 23°04' E 113°30'2645284.6
2014-Aug-30 03:28N 23°58' E 118°12'2691432.6
2014-Aug-30 03:17N 22°44' E 113°29'10051396.8
2014-Aug-30 02:33N 39°04' E 117°51'310397.1
2014-Aug-30 02:33N 39°04' E 117°47'2758.1
2014-Aug-30 02:33N 39°04' E 117°49'1772.0
2014-Aug-30 02:33N 39°04' E 117°50'5467920.3
2014-Aug-30 02:29N 30°47' E 122°23'6643916.1
2014-Aug-30 02:19N 23°04' E 113°30'2642760.2
2014-Aug-30 02:13N 23°59' E 118°11'9051367.1
2014-Aug-30 01:33N 39°04' E 117°50'11519.9
2014-Aug-30 01:33N 39°04' E 117°51'11600.6
2014-Aug-30 01:33N 39°04' E 117°49'1559.0
2014-Aug-30 01:33N 39°04' E 117°48'9854133.9
2014-Aug-30 01:19N 23°04' E 113°30'2621249.8
2014-Aug-30 01:06N 23°57' E 118°10'483133795.3
2014-Aug-30 01:06N 31°28' E 121°25'68932210.4
2014-Aug-30 01:05N 22°09' E 113°54'10351975.6
2014-Aug-30 00:33N 39°04' E 117°49'2423.2
2014-Aug-30 00:33N 39°05' E 117°46'1034155126.5
2014-Aug-30 00:33N 22°11' E 113°50'362181.6
2014-Aug-30 00:32N 22°25' E 113°14'423424.8
2014-Aug-30 00:31N 23°04' E 113°30'6585775.8
2014-Aug-30 00:24N 31°28' E 121°25'48493.5
2014-Aug-30 00:18N 32°00' E 120°43'5 6.4
2014-Aug-29 23:33N 31°60' E 120°37'70071966.3
2014-Aug-29 23:33N 22°19' E 113°19'22605.6
2014-Aug-29 23:31N 22°14' E 113°42'6923678.7
2014-Aug-29 23:19N 31°30' E 121°24'659103071.8
2014-Aug-29 23:19N 23°04' E 113°30'0 0.0
2014-Aug-29 22:33N 23°04' E 113°30'655785635.4
2014-Aug-29 22:33N 32°01' E 120°32'7011261226.9
2014-Aug-29 22:33N 22°13' E 113°24'40487.8
2014-Aug-29 22:28N 22°52' E 113°33'6663370.1
2014-Aug-29 22:16N 31°28' E 121°25'212.6
2014-Aug-29 22:09N 31°30' E 121°24'0 0.0
2014-Aug-29 21:32N 31°30' E 121°24'561686.2
2014-Aug-29 21:30N 32°02' E 120°30'57156.2
2014-Aug-29 21:08N 31°28' E 121°25'65815579.4
2014-Aug-29 21:06N 23°04' E 113°30'6581167.1
2014-Aug-29 20:32N 31°28' E 121°25'9157.1
2014-Aug-29 20:29N 31°23' E 121°33'663006.6
2014-Aug-29 20:27N 32°02' E 120°30'25631.0
2014-Aug-29 20:25N 31°59' E 120°01'6389408.2
2014-Aug-29 20:21N 23°04' E 113°30'0 0.0
2014-Aug-29 19:33N 23°04' E 113°30'65437369.9
2014-Aug-29 19:32N 32°02' E 120°30'5823051.1
2014-Aug-29 19:32N 31°28' E 121°25'74989.8
2014-Aug-29 19:27N 31°58' E 120°05'3104.5
2014-Aug-29 19:26N 31°59' E 120°02'761929.1
2014-Aug-29 19:23N 31°30' E 121°24'13298.1
2014-Aug-29 19:21N 31°19' E 121°34'656827.4
2014-Aug-29 18:33N 23°04' E 113°30'65842286.9
2014-Aug-29 18:32N 31°28' E 121°25'616261.2
2014-Aug-29 18:32N 32°00' E 120°24'15261.0
2014-Aug-29 18:28N 31°57' E 120°07'323.9
2014-Aug-29 18:21N 31°57' E 120°10'177223.2
2014-Aug-29 17:33N 34°50' E 119°25'225405196.0
2014-Aug-29 17:33N 31°28' E 121°25'671565.1
2014-Aug-29 17:31N 31°57' E 120°13'2843.7
2014-Aug-29 17:31N 31°57' E 120°11'41594.7
2014-Aug-29 17:31N 31°57' E 120°17'667149967.7
2014-Aug-29 17:30N 22°24' E 113°54'678101651.5
2014-Aug-29 17:30N 31°30' E 121°24'6581185238.4
2014-Aug-29 17:30N 23°04' E 113°30'658682.8
2014-Aug-29 16:32N 31°28' E 121°25'642030.5
2014-Aug-29 16:30N 31°58' E 120°18'12632.6
2014-Aug-29 16:30N 31°57' E 120°16'1751133.7
2014-Aug-29 16:21N 29°42' E 122°25'62312971.8
2014-Aug-29 16:18N 23°04' E 113°30'12147.0
2014-Aug-29 16:13N 22°54' E 113°22'4 5.7
2014-Aug-29 15:33N 22°55' E 113°26'65910727.6
2014-Aug-29 15:30N 32°00' E 120°22'11682.3
2014-Aug-29 15:30N 31°60' E 120°21'1715698.6
2014-Aug-29 15:28N 29°47' E 122°26'6273788.9
2014-Aug-29 15:18N 23°04' E 113°29'912.4
2014-Aug-29 14:33N 22°55' E 113°30'66011101.2
2014-Aug-29 14:30N 32°02' E 120°26'141.3
2014-Aug-29 14:28N 32°01' E 120°25'59373.8
2014-Aug-29 14:19N 31°30' E 121°24'65910879.0
2014-Aug-29 14:15N 23°04' E 113°29'2 3.2
2014-Aug-29 13:33N 23°02' E 113°31'6568172.0
2014-Aug-29 13:29N 32°02' E 120°31'5528410.7
2014-Aug-29 13:29N 31°30' E 121°24'564111.6
2014-Aug-29 13:28N 32°02' E 120°30'57298.4
2014-Aug-29 13:16N 31°28' E 121°25'69311760.6
2014-Aug-29 13:13N 22°17' E 113°35'6931062.2
2014-Aug-29 12:34N 32°01' E 120°36'656590624.2
2014-Aug-29 12:33N 23°04' E 113°30'521119.6
2014-Aug-29 12:31N 22°13' E 113°39'69513523.3
2014-Aug-29 12:28N 32°01' E 120°35'65765687.9
2014-Aug-29 12:27N 23°04' E 113°29'0 0.5
2014-Aug-29 11:34N 23°04' E 113°30'594509.4
2014-Aug-29 11:33N 22°07' E 113°46'6988465.2
2014-Aug-29 11:28N 32°00' E 120°40'153.4
2014-Aug-29 11:27N 32°01' E 120°41'3938.8
2014-Aug-29 11:27N 31°60' E 120°38'3677823.4
2014-Aug-29 11:24N 25°58' E 119°26'281330.4
2014-Aug-29 10:33N 29°56' E 122°14'153549104.1
2014-Aug-29 10:33N 32°01' E 120°32'655124041.5
2014-Aug-29 10:32N 23°04' E 113°30'3688229.3
2014-Aug-29 10:30N 25°58' E 119°26'3471571.8
2014-Aug-29 10:17N 31°28' E 121°25'219.2
2014-Aug-29 10:12N 31°30' E 121°24'6581028.4
2014-Aug-29 09:33N 23°04' E 113°30'3686558.9
2014-Aug-29 09:30N 25°58' E 119°26'3687318.7
2014-Aug-29 09:27N 32°02' E 120°27'60429.4
2014-Aug-29 09:18N 31°28' E 121°25'66616639.0
2014-Aug-29 09:16N 22°52' E 113°33'1318.2
2014-Aug-29 08:33N 23°04' E 113°30'65815682.6
2014-Aug-29 08:31N 31°28' E 121°25'34724000.6
2014-Aug-29 08:30N 25°58' E 119°26'36117811.5
2014-Aug-29 08:29N 31°56' E 120°16'6518029.6
2014-Aug-29 08:24N 22°52' E 113°33'42161.6
2014-Aug-29 08:08N 22°10' E 113°27'69521763.1
2014-Aug-29 08:06N 31°59' E 120°21'6481181.8
2014-Aug-29 07:33N 23°04' E 113°30'13527.1
2014-Aug-29 07:32N 22°52' E 113°33'653335914.3
2014-Aug-29 07:32N 31°57' E 120°18'28637.9
2014-Aug-29 07:32N 31°57' E 120°15'64348214.2
2014-Aug-29 07:31N 23°04' E 113°29'65815284.8
2014-Aug-29 07:28N 31°28' E 121°25'3472000.1
2014-Aug-29 07:18N 25°58' E 119°26'3993791.8
2014-Aug-29 07:11N 22°09' E 113°28'5 8.0
2014-Aug-29 06:33N 22°11' E 113°33'1037933317.4
2014-Aug-29 06:33N 39°05' E 117°44'1001211912.0
2014-Aug-29 06:33N 22°32' E 120°06'5671021060.1
2014-Aug-29 06:33N 31°59' E 120°19'64762937.1
2014-Aug-29 06:32N 23°04' E 113°29'658118450.1
2014-Aug-29 06:32N 31°28' E 121°25'65827872.5
2014-Aug-29 06:31N 23°04' E 113°29'63815211.1
2014-Aug-29 06:28N 31°59' E 120°01'49610955.4
2014-Aug-29 06:25N 23°52' E 118°17'1414685.8
2014-Aug-29 06:24N 25°58' E 119°26'210250.6
2014-Aug-29 05:33N 22°33' E 120°15'3751350764.1
2014-Aug-29 05:33N 23°04' E 113°29'649233808.3
2014-Aug-29 05:33N 31°60' E 120°23'442530434.2
2014-Aug-29 05:33N 39°04' E 117°51'103828093.0
2014-Aug-29 05:31N 22°10' E 113°34'68344703.4
2014-Aug-29 05:30N 31°58' E 120°05'63915973.0
2014-Aug-29 05:28N 23°04' E 113°29'3685436.0
2014-Aug-29 05:24N 25°58' E 119°26'368440.2
2014-Aug-29 04:33N 23°04' E 113°29'57206223.9
2014-Aug-29 04:33N 22°10' E 113°51'10343722490.4
2014-Aug-29 04:33N 39°04' E 117°47'44293579.9
2014-Aug-29 04:33N 32°02' E 120°27'6010746.2
2014-Aug-29 04:33N 31°28' E 121°25'34712602.4
2014-Aug-29 04:31N 25°58' E 119°26'36119697.5
2014-Aug-29 04:30N 31°57' E 120°10'68421423.5
2014-Aug-29 04:28N 22°10' E 113°34'411028.7
2014-Aug-29 04:26N 22°51' E 113°34'13115.1
2014-Aug-29 04:19N 23°04' E 113°29'6603154.3
2014-Aug-29 04:06N 31°31' E 121°24'65118.5
2014-Aug-29 03:33N 31°57' E 120°15'6982630.3
2014-Aug-29 03:33N 31°28' E 121°28'660263906.3
2014-Aug-29 03:33N 23°04' E 113°29'523568.0
2014-Aug-29 03:32N 22°14' E 113°43'382925.2
2014-Aug-29 03:32N 22°51' E 113°34'66764921.3
2014-Aug-29 03:31N 31°29' E 121°27'660148455.8
2014-Aug-29 03:31N 23°04' E 113°29'27420968.8
2014-Aug-29 03:30N 24°38' E 118°10'46115663.0
2014-Aug-29 03:28N 32°02' E 120°31'70129339.1
2014-Aug-29 03:27N 22°10' E 113°30'701788.7
2014-Aug-29 02:33N 31°24' E 121°31'7184659.2
2014-Aug-29 02:33N 31°59' E 120°19'647388123.6
2014-Aug-29 02:33N 23°04' E 113°29'656472162.5
2014-Aug-29 02:33N 32°01' E 120°33'69212277.7
2014-Aug-29 02:30N 22°17' E 113°36'69326551.2
2014-Aug-29 02:28N 31°25' E 121°32'6606453.8
2014-Aug-29 02:22N 23°04' E 113°29'65840847.6
2014-Aug-29 02:21N 31°28' E 121°25'658824.9
2014-Aug-29 01:33N 23°04' E 113°29'6581184499.6
2014-Aug-29 01:33N 31°28' E 121°25'5223530.5
2014-Aug-29 01:33N 32°01' E 120°36'11830.4
2014-Aug-29 01:32N 32°00' E 120°24'66311.9
2014-Aug-29 01:20N 31°21' E 121°27'47310206.6
2014-Aug-29 01:17N 23°57' E 118°20'272375.2
2014-Aug-29 00:33N 23°04' E 113°29'26621287.0
2014-Aug-29 00:33N 23°55' E 118°14'50238443.5
2014-Aug-29 00:32N 32°02' E 120°28'652178.3
2014-Aug-29 00:30N 31°21' E 121°27'8630.1
2014-Aug-29 00:29N 31°28' E 121°25'6665482.9
2014-Aug-29 00:22N 22°52' E 113°33'6642971.4
2014-Aug-29 00:09N 32°00' E 120°34'502858.9
2014-Aug-28 23:34N 23°54' E 118°14'26626632.9
2014-Aug-28 23:33N 23°04' E 113°29'6581184491.1
2014-Aug-28 23:33N 31°28' E 121°25'5515289.3
2014-Aug-28 23:33N 32°02' E 120°33'3333.4
2014-Aug-28 23:32N 32°02' E 120°30'63970.9
2014-Aug-28 23:28N 31°21' E 121°27'654712.4
2014-Aug-28 22:33N 23°04' E 113°29'65429784.8
2014-Aug-28 22:32N 31°21' E 121°27'663170.0
2014-Aug-28 22:31N 32°01' E 120°24'659474662.4
2014-Aug-28 22:31N 22°52' E 113°33'13142.7
2014-Aug-28 22:25N 23°04' E 113°29'53183.4
2014-Aug-28 22:08N 22°11' E 113°25'5392.2
2014-Aug-28 21:33N 23°04' E 113°29'13860.0
2014-Aug-28 21:32N 22°52' E 113°33'293217.5
2014-Aug-28 21:32N 22°28' E 113°52'6673361.2
2014-Aug-28 21:20N 31°58' E 120°20'6380.7
2014-Aug-28 20:33N 31°28' E 121°25'6582369122.6
2014-Aug-28 20:33N 23°04' E 113°29'0 0.4
2014-Aug-28 20:25N 23°04' E 113°29'6435422.0
2014-Aug-28 20:18N 31°56' E 120°16'6523916.2
2014-Aug-28 20:08N 22°52' E 113°33'1322.7
2014-Aug-28 19:33N 23°04' E 113°29'6541176602.9
2014-Aug-28 19:33N 31°21' E 121°27'7729.4
2014-Aug-28 19:33N 31°28' E 121°25'66615262.3
2014-Aug-28 19:30N 22°52' E 113°33'13100.1
2014-Aug-28 19:22N 23°04' E 113°29'0 0.1
2014-Aug-28 18:33N 23°04' E 113°29'65830766.5
2014-Aug-28 18:32N 31°28' E 121°25'7171.9
2014-Aug-28 18:29N 31°21' E 121°27'6549489.1
2014-Aug-28 18:25N 23°04' E 113°29'0 0.1
2014-Aug-28 17:33N 23°04' E 113°29'65840152.3
2014-Aug-28 17:32N 31°28' E 121°25'71419.4
2014-Aug-28 17:32N 31°21' E 121°27'6545711.5
2014-Aug-28 17:25N 23°04' E 113°29'6562397.9
2014-Aug-28 17:09N 31°21' E 121°30'232395.2
2014-Aug-28 16:33N 34°49' E 119°29'773252850.2
2014-Aug-28 16:33N 23°04' E 113°29'65852644.5
2014-Aug-28 16:33N 31°28' E 121°25'8628.2
2014-Aug-28 16:32N 31°21' E 121°27'863.1
2014-Aug-28 16:24N 31°23' E 121°35'66016979.2
2014-Aug-28 16:22N 23°04' E 113°29'6596612.9
2014-Aug-28 16:16N 31°31' E 121°23'659919.7
2014-Aug-28 15:33N 23°04' E 113°29'660474896.6
2014-Aug-28 15:33N 31°28' E 121°27'2249828.4
2014-Aug-28 15:32N 34°49' E 119°29'28917623.7
2014-Aug-28 15:31N 30°45' E 122°33'679320.8
2014-Aug-28 15:30N 31°21' E 121°27'6547817.8
2014-Aug-28 15:25N 23°04' E 113°29'660765.4
2014-Aug-28 14:33N 31°25' E 121°32'660103252.2
2014-Aug-28 14:33N 23°04' E 113°29'7722778989.1
2014-Aug-28 14:33N 34°49' E 119°28'79021233.7
2014-Aug-28 14:31N 22°48' E 113°19'6843908.7
2014-Aug-28 14:20N 30°38' E 122°36'50113064.5
2014-Aug-28 14:18N 22°57' E 118°57'3021298.3
2014-Aug-28 14:04N 23°04' E 113°29'0 0.1
2014-Aug-28 13:33N 23°04' E 113°29'77253436.4
2014-Aug-28 13:33N 34°49' E 119°29'23012747.3
2014-Aug-28 13:31N 31°21' E 121°27'65494126.2
2014-Aug-28 13:31N 23°04' E 113°29'66629604.1
2014-Aug-28 13:30N 30°38' E 122°36'731257.6
2014-Aug-28 13:26N 31°25' E 121°32'726.5
2014-Aug-28 13:11N 31°28' E 121°25'223357.5
2014-Aug-28 12:33N 34°49' E 119°28'772555758.6
2014-Aug-28 12:33N 23°04' E 113°29'665798008.1
2014-Aug-28 12:33N 30°36' E 122°36'66518001.0
2014-Aug-28 12:31N 23°04' E 113°29'65445253.0
2014-Aug-28 12:30N 31°21' E 121°27'6228.5
2014-Aug-28 12:29N 31°25' E 121°32'7783.1
2014-Aug-28 11:33N 30°31' E 122°35'66140345.8
2014-Aug-28 11:32N 23°04' E 113°29'65410142.6
2014-Aug-28 11:28N 31°21' E 121°27'2337416.7
2014-Aug-28 11:26N 34°50' E 119°24'2318664.9
2014-Aug-28 11:25N 31°25' E 121°32'73274.6
2014-Aug-28 11:09N 31°57' E 120°15'6431059.1
2014-Aug-28 10:32N 23°04' E 113°29'368331532.8
2014-Aug-28 10:32N 25°58' E 119°26'31830903.8
2014-Aug-28 10:32N 30°28' E 122°35'856955.1
2014-Aug-28 10:31N 31°28' E 121°25'849.6
2014-Aug-28 10:22N 31°21' E 121°27'6236.1
2014-Aug-28 10:20N 31°25' E 121°32'711479.7
2014-Aug-28 10:17N 31°58' E 120°18'6463715.4
2014-Aug-28 10:07N 23°04' E 113°29'6491157.6
2014-Aug-28 09:33N 31°60' E 120°23'6491168541.6
2014-Aug-28 09:33N 23°04' E 113°29'659296728.6
2014-Aug-28 09:33N 30°28' E 122°35'31820792.3
2014-Aug-28 09:32N 25°58' E 119°26'340136070.6
2014-Aug-28 09:32N 31°21' E 121°27'8241.2
2014-Aug-28 09:30N 31°28' E 121°25'658689.6
2014-Aug-28 08:33N 23°04' E 113°29'6589669.0
2014-Aug-28 08:29N 31°28' E 121°25'6446161.0
2014-Aug-28 08:29N 31°58' E 120°18'3632540.1
2014-Aug-28 08:20N 25°58' E 119°26'3407117.5
2014-Aug-28 08:17N 31°21' E 121°27'62386.0
2014-Aug-28 08:08N 32°02' E 120°31'5798.8
2014-Aug-28 07:33N 31°28' E 121°25'658131608.5
2014-Aug-28 07:33N 23°04' E 113°29'131131.6
2014-Aug-28 07:32N 22°52' E 113°33'65949456.9
2014-Aug-28 07:32N 32°01' E 120°24'44439951.2
2014-Aug-28 07:31N 39°05' E 117°44'79215251.5
2014-Aug-28 07:28N 25°58' E 119°26'369406.8
2014-Aug-28 06:33N 32°02' E 120°31'655112348.2
2014-Aug-28 06:33N 23°04' E 113°29'65490502.1
2014-Aug-28 06:33N 31°21' E 121°27'49813911.4
2014-Aug-28 06:30N 39°05' E 117°44'4917720.0
2014-Aug-28 06:27N 31°28' E 121°25'65811786.0
2014-Aug-28 06:23N 23°04' E 113°29'9851187.1
2014-Aug-28 05:33N 39°05' E 117°46'4971790410.7
2014-Aug-28 05:33N 31°21' E 121°27'72998.8
2014-Aug-28 05:33N 31°28' E 121°25'5212477.5
2014-Aug-28 05:33N 32°01' E 120°37'6572365011.5
2014-Aug-28 05:33N 23°04' E 113°29'2811225.9
2014-Aug-28 05:33N 22°38' E 113°41'251389.7
2014-Aug-28 05:32N 22°13' E 113°36'51195.7
2014-Aug-28 05:16N 23°04' E 113°29'36863160.6
2014-Aug-28 05:16N 25°58' E 119°26'368521.5
2014-Aug-28 04:33N 23°04' E 113°29'986709599.3
2014-Aug-28 04:33N 39°04' E 117°51'44545756.4
2014-Aug-28 04:33N 32°00' E 120°39'67371300.5
2014-Aug-28 04:32N 22°38' E 113°41'66817186.5
2014-Aug-28 04:30N 31°22' E 121°28'3419980.5
2014-Aug-28 04:28N 25°58' E 119°26'3904634.2
2014-Aug-28 04:23N 22°14' E 113°36'51499.8
2014-Aug-28 04:17N 23°04' E 113°29'0 0.1
2014-Aug-28 03:33N 23°04' E 113°29'9851773693.8
2014-Aug-28 03:33N 39°05' E 117°45'985295617.6
2014-Aug-28 03:33N 23°04' E 113°29'65584174.9
2014-Aug-28 03:33N 31°22' E 121°28'7767.8
2014-Aug-28 03:32N 31°28' E 121°25'69827628.4
2014-Aug-28 03:30N 22°21' E 113°18'4008670.0
2014-Aug-28 03:28N 25°58' E 119°26'36869743.5
2014-Aug-28 03:27N 32°00' E 120°39'69716179.9
2014-Aug-28 03:25N 22°14' E 113°36'531821.4
2014-Aug-28 03:23N 23°03' E 113°16'34312.9
2014-Aug-28 03:17N 22°38' E 113°41'668932.2
2014-Aug-28 02:34N 31°22' E 121°28'655214261.9
2014-Aug-28 02:33N 23°04' E 113°29'507141.0
2014-Aug-28 02:33N 22°15' E 113°36'371180.7
2014-Aug-28 02:31N 22°52' E 113°33'666114086.9
2014-Aug-28 02:31N 31°28' E 121°25'65891117.0
2014-Aug-28 02:30N 23°04' E 113°29'512496.7
2014-Aug-28 02:29N 22°14' E 113°23'40017989.3
2014-Aug-28 02:28N 25°58' E 119°26'37395795.8
2014-Aug-28 02:27N 22°53' E 113°31'6676078.1
2014-Aug-28 02:21N 31°26' E 121°30'3 3.2
2014-Aug-28 01:33N 31°24' E 121°31'44666.5
2014-Aug-28 01:33N 31°22' E 121°28'655181312.0
2014-Aug-28 01:33N 23°04' E 113°29'0 6.1
2014-Aug-28 01:33N 23°04' E 113°29'11681.2
2014-Aug-28 01:32N 22°53' E 113°30'66619814.5
2014-Aug-28 01:30N 31°28' E 121°25'70312220.6
2014-Aug-28 01:26N 22°10' E 113°27'3995226.7
2014-Aug-28 01:22N 25°58' E 119°26'373463.4
2014-Aug-28 00:33N 22°53' E 113°30'6661198779.7
2014-Aug-28 00:33N 31°28' E 121°25'6582368999.3
2014-Aug-28 00:33N 23°04' E 113°29'040.7
2014-Aug-28 00:33N 23°04' E 113°29'655107135.6
2014-Aug-28 00:33N 31°22' E 121°28'3411818.7
2014-Aug-28 00:22N 25°58' E 119°26'341425.1
2014-Aug-27 23:33N 31°22' E 121°28'663298148.0
2014-Aug-27 23:33N 22°53' E 113°30'11939.2
2014-Aug-27 23:33N 23°04' E 113°29'0 1.4
2014-Aug-27 23:30N 23°04' E 113°29'65825202.9
2014-Aug-27 23:29N 31°28' E 121°25'3472943.5
2014-Aug-27 23:22N 25°58' E 119°26'373463.7
2014-Aug-27 22:33N 22°53' E 113°30'111792.1
2014-Aug-27 22:33N 23°04' E 113°29'65526482.1
2014-Aug-27 22:31N 31°22' E 121°28'790.3
2014-Aug-27 22:27N 31°28' E 121°25'3474065.2
2014-Aug-27 22:22N 25°58' E 119°26'3682526.3
2014-Aug-27 22:13N 23°04' E 113°29'5 8.4
2014-Aug-27 21:33N 23°02' E 113°24'111377.4
2014-Aug-27 21:33N 22°53' E 113°30'663183470.1
2014-Aug-27 21:33N 31°22' E 121°28'784.8
2014-Aug-27 21:28N 31°28' E 121°25'65814019.1
2014-Aug-27 21:25N 23°04' E 113°29'54334.3
2014-Aug-27 21:15N 22°11' E 113°32'5476.9
2014-Aug-27 20:33N 23°04' E 113°29'114923.0
2014-Aug-27 20:33N 22°53' E 113°30'666114166.1
2014-Aug-27 20:33N 31°28' E 121°25'7352.8
2014-Aug-27 20:32N 31°22' E 121°28'6559945.7
2014-Aug-27 20:28N 23°04' E 113°29'77017443.1
2014-Aug-27 20:25N 34°50' E 119°22'226261.8
2014-Aug-27 19:33N 31°28' E 121°25'66661474.1
2014-Aug-27 19:33N 22°53' E 113°30'66376938.6
2014-Aug-27 19:32N 31°22' E 121°28'23220408.1
2014-Aug-27 19:31N 34°50' E 119°25'7729614.4
2014-Aug-27 19:27N 23°04' E 113°29'0 3.9
2014-Aug-27 19:22N 23°04' E 113°29'656810.6
2014-Aug-27 18:33N 31°22' E 121°30'76561.8
2014-Aug-27 18:33N 31°28' E 121°25'22340068.0
2014-Aug-27 18:33N 34°49' E 119°29'7827071.7
2014-Aug-27 18:26N 22°53' E 113°30'9700.3
2014-Aug-27 18:26N 22°44' E 113°29'201815.6
2014-Aug-27 18:25N 23°04' E 113°29'0 1.8
2014-Aug-27 18:15N 23°04' E 113°29'7721119.1
2014-Aug-27 17:33N 34°49' E 119°30'78278184.0
2014-Aug-27 17:33N 22°53' E 113°30'666342685.7
2014-Aug-27 17:33N 31°24' E 121°31'6593721.9
2014-Aug-27 17:22N 23°04' E 113°29'191640.7
2014-Aug-27 17:21N 22°46' E 113°22'19314.9
2014-Aug-27 17:18N 23°04' E 113°29'7721049.3
2014-Aug-27 16:34N 34°49' E 119°28'229103075.1
2014-Aug-27 16:33N 31°24' E 121°31'536964683.2
2014-Aug-27 16:33N 22°33' E 120°16'53992440.8
2014-Aug-27 16:33N 31°28' E 121°25'666399581.5
2014-Aug-27 16:33N 22°53' E 113°30'12734.9
2014-Aug-27 16:32N 23°02' E 113°22'778.9
2014-Aug-27 16:27N 23°04' E 113°29'17700.4
2014-Aug-27 16:25N 22°50' E 113°18'173575.9
2014-Aug-27 16:25N 23°04' E 113°29'53951.9
2014-Aug-27 16:22N 22°11' E 113°33'4252.2
2014-Aug-27 15:33N 22°53' E 113°30'121076.4
2014-Aug-27 15:32N 23°05' E 113°27'168238.7
2014-Aug-27 15:32N 22°54' E 113°14'515231.1
2014-Aug-27 15:32N 22°07' E 113°36'70022920.8
2014-Aug-27 15:30N 31°24' E 121°31'6999.8
2014-Aug-27 15:29N 31°28' E 121°25'53928957.7
2014-Aug-27 15:28N 22°34' E 120°06'3675436.5
2014-Aug-27 15:24N 23°04' E 113°29'66053959.6
2014-Aug-27 15:23N 31°28' E 121°27'6602931.3
2014-Aug-27 15:10N 23°04' E 113°29'1117.7
2014-Aug-27 14:33N 22°53' E 113°30'6671200455.9
2014-Aug-27 14:33N 31°25' E 121°31'61228.0
2014-Aug-27 14:33N 31°28' E 121°25'6794.8
2014-Aug-27 14:33N 31°24' E 121°31'65931208.5
2014-Aug-27 14:31N 23°02' E 113°31'554906.7
2014-Aug-27 14:31N 22°07' E 113°33'3966484.9
2014-Aug-27 14:27N 25°58' E 119°26'3691881.7
2014-Aug-27 14:15N 23°04' E 113°29'183552.9
2014-Aug-27 14:15N 22°54' E 113°13'18599.7
2014-Aug-27 14:13N 23°04' E 113°29'77222060.5
2014-Aug-27 14:11N 34°48' E 119°31'530846.4
2014-Aug-27 13:33N 25°58' E 119°27'3881395100.1
2014-Aug-27 13:33N 22°54' E 113°13'78785871.9
2014-Aug-27 13:33N 34°49' E 119°28'78239083.0
2014-Aug-27 13:32N 22°53' E 113°30'11147.8
2014-Aug-27 13:27N 23°04' E 113°29'65846452.7
2014-Aug-27 13:26N 31°28' E 121°25'65828203.5
2014-Aug-27 13:25N 23°04' E 113°29'3091405.2
2014-Aug-27 13:12N 24°46' E 118°48'3303833.2
2014-Aug-27 13:07N 22°06' E 113°34'561690.1
2014-Aug-27 13:05N 23°02' E 113°31'7731493.2
2014-Aug-27 12:34N 34°50' E 119°27'782234482.7
2014-Aug-27 12:33N 22°53' E 113°30'66661473.7
2014-Aug-27 12:33N 31°28' E 121°25'6587135.8
2014-Aug-27 12:27N 23°04' E 113°29'3206.9
2014-Aug-27 12:26N 23°02' E 113°31'37712338.0
2014-Aug-27 12:24N 26°07' E 119°33'3775499.9
2014-Aug-27 12:20N 23°04' E 113°30'658789460.0
2014-Aug-27 12:20N 31°31' E 121°22'7023113.7
2014-Aug-27 12:07N 22°06' E 113°34'4784.8
2014-Aug-27 11:33N 22°53' E 113°30'11633.7
2014-Aug-27 11:32N 23°04' E 113°30'3217.5
2014-Aug-27 11:32N 23°02' E 113°32'56621.4
2014-Aug-27 11:26N 22°06' E 113°35'70226869.0
2014-Aug-27 11:25N 31°28' E 121°25'658772.1
2014-Aug-27 10:34N 23°04' E 113°29'114399.7
2014-Aug-27 10:33N 22°53' E 113°30'161351.8
2014-Aug-27 10:33N 22°54' E 113°13'481471.9
2014-Aug-27 10:31N 22°10' E 113°35'54436.4
2014-Aug-27 10:23N 23°04' E 113°30'315.0
2014-Aug-27 10:13N 23°02' E 113°31'3 4.6
2014-Aug-27 09:33N 23°04' E 113°29'658263320.0
2014-Aug-27 09:33N 31°24' E 121°31'65855090.1
2014-Aug-27 09:32N 23°04' E 113°30'32398.2
2014-Aug-27 09:32N 23°02' E 113°31'92114.5
2014-Aug-27 09:32N 22°53' E 113°30'1628288.0
2014-Aug-27 09:32N 22°54' E 113°13'2724366.4
2014-Aug-27 09:28N 23°45' E 118°04'4966976.0
2014-Aug-27 09:24N 31°28' E 121°25'659780.0
2014-Aug-27 08:33N 23°02' E 113°31'81909.5
2014-Aug-27 08:33N 22°53' E 113°30'111413.4
2014-Aug-27 08:33N 23°04' E 113°29'0132.9
2014-Aug-27 08:32N 23°04' E 113°30'25227530.2
2014-Aug-27 08:32N 23°45' E 118°01'50527117.1
2014-Aug-27 08:31N 31°58' E 120°03'75737.9
2014-Aug-27 08:25N 31°28' E 121°25'7016452.2
2014-Aug-27 08:18N 22°16' E 113°21'3850.7
2014-Aug-27 07:33N 22°53' E 113°30'1140533.2
2014-Aug-27 07:33N 23°04' E 113°29'64157697.9
2014-Aug-27 07:32N 31°57' E 120°11'6584891.1
2014-Aug-27 07:24N 22°54' E 113°13'99912977.8
2014-Aug-27 07:20N 39°05' E 117°44'446577.1
2014-Aug-27 06:33N 31°58' E 120°18'65032043.7
2014-Aug-27 06:32N 23°02' E 113°23'7553.6
2014-Aug-27 06:31N 23°02' E 113°31'65987880.8
2014-Aug-27 06:31N 31°28' E 121°25'666140964.6
2014-Aug-27 06:31N 22°51' E 113°33'99731213.9
2014-Aug-27 06:29N 39°05' E 117°44'98510849.1
2014-Aug-27 06:23N 23°04' E 113°30'9858738.1
2014-Aug-27 06:17N 39°05' E 117°44'603840.7
2014-Aug-27 05:33N 29°46' E 122°18'622186612.4
2014-Aug-27 05:33N 23°02' E 113°31'988222211.2
2014-Aug-27 05:33N 39°05' E 117°44'98582504.0
2014-Aug-27 05:32N 23°04' E 113°30'658338297.3
2014-Aug-27 05:32N 31°28' E 121°25'49165476.8
2014-Aug-27 05:32N 39°05' E 117°44'997239299.6
2014-Aug-27 05:31N 22°51' E 113°33'2023712.8
2014-Aug-27 05:31N 23°02' E 113°15'9902220.3
2014-Aug-27 05:05N 39°05' E 117°46'3 4.9
2014-Aug-27 04:33N 39°04' E 117°49'989444830.9
2014-Aug-27 04:33N 23°03' E 113°20'9569.0
2014-Aug-27 04:32N 23°04' E 113°30'376.6
2014-Aug-27 04:30N 23°02' E 113°31'6594485.3
2014-Aug-27 04:21N 31°28' E 121°25'49116522.4
2014-Aug-27 04:20N 39°05' E 117°44'60260158.2
2014-Aug-27 04:19N 29°47' E 122°16'6029799.4
2014-Aug-27 04:15N 39°05' E 117°44'5 7.2
2014-Aug-27 03:33N 39°03' E 117°50'11225.9
2014-Aug-27 03:33N 39°04' E 117°51'986591445.6
2014-Aug-27 03:33N 23°05' E 113°28'47221.3
2014-Aug-27 03:33N 23°02' E 113°31'659395454.9
2014-Aug-27 03:33N 31°28' E 121°25'48992651.5
2014-Aug-27 03:33N 39°04' E 117°48'6015694.3
2014-Aug-27 03:26N 29°46' E 122°18'62826278.8
2014-Aug-27 03:25N 23°02' E 113°22'8258.0
2014-Aug-27 03:23N 23°04' E 113°30'9851187.7
2014-Aug-27 02:34N 39°05' E 117°44'81859.4
2014-Aug-27 02:33N 38°60' E 117°52'981196208.4
2014-Aug-27 02:33N 23°05' E 113°29'1154.6
2014-Aug-27 02:33N 23°04' E 113°29'3605.1
2014-Aug-27 02:32N 23°02' E 113°31'9873554541.4
2014-Aug-27 02:32N 39°03' E 117°52'98910752.4
2014-Aug-27 02:27N 23°03' E 113°16'6636438.3
2014-Aug-27 02:21N 31°60' E 120°37'656181628.0
2014-Aug-27 02:20N 23°04' E 113°30'3071881.4
2014-Aug-27 02:11N 24°47' E 118°46'444718.8
2014-Aug-27 01:33N 32°01' E 120°31'65416014.4
2014-Aug-27 01:31N 23°05' E 113°29'62242274.6
2014-Aug-27 01:30N 29°45' E 122°22'60580644.2
2014-Aug-27 01:30N 39°05' E 117°45'9871184994.4
2014-Aug-27 01:30N 23°02' E 113°31'314.9
2014-Aug-27 01:19N 23°04' E 113°29'984221333.9
2014-Aug-27 01:18N 39°02' E 117°52'4937920.2
2014-Aug-27 01:15N 31°21' E 121°27'497723.0
2014-Aug-27 00:33N 39°05' E 117°46'98480531.4
2014-Aug-27 00:33N 23°05' E 113°29'655131042.4
2014-Aug-27 00:32N 31°22' E 121°29'6714220.8
2014-Aug-27 00:32N 32°01' E 120°24'1698452.3
2014-Aug-27 00:31N 29°45' E 122°22'1304810.5
2014-Aug-27 00:29N 31°40' E 121°13'2223.5
2014-Aug-26 23:33N 31°24' E 121°31'7028063.2
2014-Aug-26 23:32N 31°57' E 120°19'6441159959.8
2014-Aug-26 23:32N 23°05' E 113°29'1191.7
2014-Aug-26 23:32N 23°04' E 113°29'6585396.2
2014-Aug-26 23:25N 31°28' E 121°25'6582637.8
2014-Aug-26 23:10N 23°04' E 113°29'1 2.2
2014-Aug-26 22:32N 23°05' E 113°29'64016683.9
2014-Aug-26 22:30N 31°56' E 120°12'6491720.6
2014-Aug-26 22:07N 22°51' E 113°33'1425.5
2014-Aug-26 21:33N 23°05' E 113°29'1 7.3
2014-Aug-26 21:23N 23°04' E 113°29'6246239.4
2014-Aug-26 21:17N 29°44' E 122°23'623832.7
2014-Aug-26 20:32N 23°05' E 113°29'63784893.9
2014-Aug-26 20:32N 31°58' E 120°03'76390.4
2014-Aug-26 20:20N 31°28' E 121°25'0 0.0
2014-Aug-26 19:32N 31°28' E 121°25'6578103.6
2014-Aug-26 19:27N 23°05' E 113°29'124.3
2014-Aug-26 19:23N 23°04' E 113°30'13236.3
2014-Aug-26 19:20N 22°51' E 113°33'78223074.9
2014-Aug-26 19:18N 34°50' E 119°24'7726826.1
2014-Aug-26 19:11N 23°04' E 113°29'1 1.9
2014-Aug-26 18:33N 23°05' E 113°29'77119683.7
2014-Aug-26 18:31N 34°50' E 119°27'77418818.8
2014-Aug-26 18:29N 23°02' E 113°31'3 9.7
2014-Aug-26 18:11N 23°04' E 113°29'65819417.8
2014-Aug-26 18:09N 31°28' E 121°25'6571089.9
2014-Aug-26 17:33N 23°05' E 113°29'7719773.7
2014-Aug-26 17:28N 34°49' E 119°30'7725754.1
2014-Aug-26 17:20N 23°04' E 113°29'334.1
2014-Aug-26 17:15N 23°02' E 113°31'552065.0
2014-Aug-26 17:13N 22°18' E 114°07'8021192.2
2014-Aug-26 16:33N 34°49' E 119°29'77121024.8
2014-Aug-26 16:31N 23°05' E 113°29'41315.2
2014-Aug-26 16:31N 23°02' E 113°31'6597345.9
2014-Aug-26 16:25N 31°28' E 121°25'657747.2
2014-Aug-26 15:32N 23°05' E 113°29'77259111.1
2014-Aug-26 15:32N 34°49' E 119°31'77411520.1
2014-Aug-26 15:28N 23°02' E 113°31'3133897.0
2014-Aug-26 15:23N 19°43' E 109°11'9675067.6
2014-Aug-26 15:11N 31°28' E 121°25'657981.1
2014-Aug-26 14:31N 23°05' E 113°29'77189536.8
2014-Aug-26 14:31N 34°49' E 119°29'77434385.8
2014-Aug-26 14:29N 23°02' E 113°31'6591954.5
2014-Aug-26 14:09N 31°28' E 121°25'223376.7
2014-Aug-26 13:34N 34°49' E 119°28'771925102.3
2014-Aug-26 13:33N 23°05' E 113°29'62311626.9
2014-Aug-26 13:30N 29°45' E 122°23'62437467.8
2014-Aug-26 13:29N 23°02' E 113°31'3147.7
2014-Aug-26 13:28N 23°04' E 113°30'0 5.1
2014-Aug-26 13:23N 23°04' E 113°29'63817536.9
2014-Aug-26 13:21N 31°58' E 120°03'637803.0
2014-Aug-26 12:33N 23°05' E 113°29'62313199.3
2014-Aug-26 12:30N 29°45' E 122°23'3369768.9
2014-Aug-26 12:28N 34°48' E 119°31'77217258.2
2014-Aug-26 12:26N 23°04' E 113°29'0 4.9
2014-Aug-26 12:23N 23°04' E 113°29'2701539.2
2014-Aug-26 12:12N 24°14' E 118°14'639977.3
2014-Aug-26 11:33N 34°49' E 119°28'26846014.8
2014-Aug-26 11:33N 39°05' E 117°45'98486423.7
2014-Aug-26 11:32N 23°05' E 113°29'265317501.6
2014-Aug-26 11:32N 24°11' E 118°09'265190500.2
2014-Aug-26 11:32N 23°04' E 113°29'396.4
2014-Aug-26 11:30N 23°02' E 113°31'64257822.7
2014-Aug-26 11:30N 31°56' E 120°13'6415456.3
2014-Aug-26 11:23N 23°04' E 113°29'9851205.9
2014-Aug-26 10:34N 39°04' E 117°52'443159354.5
2014-Aug-26 10:33N 31°56' E 120°13'64085377.1
2014-Aug-26 10:33N 23°05' E 113°29'175.5
2014-Aug-26 10:32N 23°04' E 113°29'330.3
2014-Aug-26 10:26N 23°02' E 113°31'25651161.7
2014-Aug-26 10:26N 24°05' E 118°01'4791925.1
2014-Aug-26 10:11N 31°28' E 121°25'65881686.0
2014-Aug-26 10:11N 23°04' E 113°29'9861569.1
2014-Aug-26 09:33N 39°04' E 117°50'98663360.7
2014-Aug-26 09:32N 23°04' E 113°29'11493.8
2014-Aug-26 09:32N 23°05' E 113°29'62419188.7
2014-Aug-26 09:30N 29°45' E 122°23'6248544.5
2014-Aug-26 09:26N 23°04' E 113°29'2506760.9
2014-Aug-26 09:23N 23°60' E 117°55'249990.2
2014-Aug-26 09:08N 23°02' E 113°31'9881706.1
2014-Aug-26 08:34N 39°05' E 117°44'984208460.2
2014-Aug-26 08:33N 23°05' E 113°29'161.4
2014-Aug-26 08:32N 23°04' E 113°29'24413128.9
2014-Aug-26 08:31N 23°56' E 117°50'2462033.0
2014-Aug-26 08:24N 23°05' E 113°27'2115.4
2014-Aug-26 08:23N 23°04' E 113°29'43142.6
2014-Aug-26 08:04N 22°25' E 113°10'10281999.6
2014-Aug-26 07:34N 39°04' E 117°51'985208503.8
2014-Aug-26 07:33N 23°05' E 113°29'158.7
2014-Aug-26 07:32N 23°04' E 113°29'23813810.4
2014-Aug-26 07:31N 23°52' E 117°43'5014833.5
2014-Aug-26 07:25N 31°56' E 120°07'721019.0
2014-Aug-26 07:20N 31°28' E 121°25'66611921.7
2014-Aug-26 07:17N 22°51' E 113°33'13123.0
2014-Aug-26 07:11N 23°04' E 113°29'12176.9
2014-Aug-26 07:07N 23°03' E 113°16'9891795.7
2014-Aug-26 06:34N 39°05' E 117°46'98446016.9
2014-Aug-26 06:32N 23°05' E 113°29'65734797.7
2014-Aug-26 06:31N 31°28' E 121°25'502164438.7
2014-Aug-26 06:31N 23°47' E 117°39'50812979.2
2014-Aug-26 06:29N 32°01' E 119°58'63813117.2
2014-Aug-26 06:26N 23°04' E 113°29'012.7
2014-Aug-26 06:25N 23°04' E 113°29'44287.2
2014-Aug-26 06:16N 22°22' E 113°18'10291470.7
2014-Aug-26 05:34N 39°05' E 117°46'987222165.5
2014-Aug-26 05:33N 23°02' E 113°31'987710951.0
2014-Aug-26 05:33N 39°05' E 117°45'49173586.5
2014-Aug-26 05:33N 31°28' E 121°25'657262954.0
2014-Aug-26 05:33N 23°05' E 113°29'2307450.8
2014-Aug-26 05:31N 23°43' E 117°36'23016207.3
2014-Aug-26 05:30N 23°04' E 113°29'488233.3
2014-Aug-26 05:30N 22°17' E 113°20'48817.5
2014-Aug-26 05:26N 23°04' E 113°29'1339.1
2014-Aug-26 05:05N 22°51' E 113°33'1425.8
2014-Aug-26 04:33N 23°05' E 113°29'9861182645.4
2014-Aug-26 04:33N 39°04' E 117°51'12181.6
2014-Aug-26 04:33N 39°04' E 117°52'98821426.3
2014-Aug-26 04:31N 23°02' E 113°31'3264.6
2014-Aug-26 04:30N 23°04' E 113°29'47650.7
2014-Aug-26 04:26N 22°17' E 113°35'48171049.3
2014-Aug-26 04:26N 23°04' E 113°29'230632.2
2014-Aug-26 04:04N 23°46' E 117°35'9181821.5
2014-Aug-26 03:34N 39°04' E 117°49'14201.9
2014-Aug-26 03:34N 39°04' E 117°50'988222244.0
2014-Aug-26 03:33N 23°02' E 113°31'4376.7
2014-Aug-26 03:33N 23°05' E 113°29'3150.5
2014-Aug-26 03:31N 23°04' E 113°25'51391.5
2014-Aug-26 03:23N 22°14' E 113°35'69520343.5
2014-Aug-26 03:21N 31°28' E 121°25'6582368898.1
2014-Aug-26 03:21N 23°04' E 113°29'2302423.0
2014-Aug-26 03:16N 23°46' E 117°35'228320.1
2014-Aug-26 02:33N 23°02' E 113°31'4714.7
2014-Aug-26 02:33N 23°05' E 113°29'65784521.5
2014-Aug-26 02:32N 31°28' E 121°25'66438567.4
2014-Aug-26 02:31N 23°03' E 113°20'66516277.1
2014-Aug-26 02:29N 31°24' E 121°31'6589443.2
2014-Aug-26 02:24N 23°04' E 113°29'2304977.4
2014-Aug-26 02:22N 23°46' E 117°35'4363040.6
2014-Aug-26 02:13N 29°38' E 122°23'4 5.9
2014-Aug-26 01:34N 29°42' E 122°23'622149217.2
2014-Aug-26 01:33N 23°05' E 113°29'414332.6
2014-Aug-26 01:33N 23°02' E 113°31'6597107.5
2014-Aug-26 01:28N 31°24' E 121°31'503453040.5
2014-Aug-26 01:28N 23°46' E 117°35'2414215.6
2014-Aug-26 01:24N 23°04' E 113°16'41515905.8
2014-Aug-26 01:23N 26°45' E 119°43'40519980.9
2014-Aug-26 01:21N 23°04' E 113°29'64926852.4
2014-Aug-26 01:20N 31°60' E 120°22'6962484.2
2014-Aug-26 01:03N 22°10' E 113°27'52104.8
2014-Aug-26 00:33N 23°02' E 113°31'4247.1
2014-Aug-26 00:32N 23°05' E 113°29'6589666.1
2014-Aug-26 00:28N 31°24' E 121°31'65810396.9
2014-Aug-26 00:24N 23°04' E 113°29'65832002.6
2014-Aug-26 00:23N 32°07' E 120°29'584.8
2014-Aug-26 00:19N 32°02' E 120°26'70023995.6
2014-Aug-26 00:18N 22°10' E 113°27'6574295.5
2014-Aug-26 00:08N 29°37' E 122°23'6191055.9
2014-Aug-25 23:33N 23°05' E 113°29'1 6.3
2014-Aug-25 23:24N 23°04' E 113°29'54762.3
2014-Aug-25 23:20N 22°11' E 113°32'70232809.8
2014-Aug-25 23:19N 32°06' E 120°29'74454.6
2014-Aug-25 23:09N 31°15' E 121°32'6531100.3
2014-Aug-25 22:34N 23°04' E 113°29'1354.8
2014-Aug-25 22:33N 23°03' E 113°30'65622694.0
2014-Aug-25 22:32N 32°04' E 120°28'1804243.5
2014-Aug-25 22:29N 29°34' E 122°25'125481.1
2014-Aug-25 22:13N 31°28' E 121°25'666998.0
2014-Aug-25 21:33N 22°51' E 113°33'1214892.1
2014-Aug-25 21:33N 23°03' E 113°30'65865829.0
2014-Aug-25 21:33N 31°28' E 121°25'7006311.9
2014-Aug-25 21:26N 22°11' E 113°32'69365687.2
2014-Aug-25 21:25N 31°60' E 120°22'649747.5
2014-Aug-25 20:33N 23°04' E 113°29'13902.3
2014-Aug-25 20:33N 23°03' E 113°30'6587669.4
2014-Aug-25 20:28N 31°28' E 121°25'7005313.2
2014-Aug-25 20:20N 22°11' E 113°32'4110534.5
2014-Aug-25 20:20N 22°51' E 113°33'1317.2
2014-Aug-25 19:33N 23°04' E 113°29'1195.1
2014-Aug-25 19:33N 23°03' E 113°30'534231.5
2014-Aug-25 19:32N 22°11' E 113°32'700839473.3
2014-Aug-25 19:32N 31°28' E 121°25'22658044.6
2014-Aug-25 19:32N 34°50' E 119°24'78178144.1
2014-Aug-25 19:31N 22°51' E 113°33'782810.1
2014-Aug-25 18:33N 34°49' E 119°28'772555754.2
2014-Aug-25 18:33N 23°04' E 113°29'1108.2
2014-Aug-25 18:33N 23°03' E 113°30'536566.1
2014-Aug-25 18:32N 22°11' E 113°32'700109498.0
2014-Aug-25 18:32N 31°28' E 121°25'658674.7
2014-Aug-25 17:33N 23°04' E 113°29'1114.2
2014-Aug-25 17:33N 23°03' E 113°30'2299477.6
2014-Aug-25 17:31N 23°46' E 117°35'2441320.2
2014-Aug-25 17:20N 22°11' E 113°32'82168725.4
2014-Aug-25 17:20N 34°49' E 119°29'2233367.4
2014-Aug-25 17:16N 31°28' E 121°25'6662396140.9
2014-Aug-25 17:16N 22°51' E 113°33'1217.6
2014-Aug-25 16:33N 23°03' E 113°30'1822.1
2014-Aug-25 16:33N 23°04' E 113°29'772252561.7
2014-Aug-25 16:33N 34°50' E 119°27'78178143.9
2014-Aug-25 16:33N 22°55' E 113°27'449413.7
2014-Aug-25 16:32N 22°11' E 113°34'2412078.5
2014-Aug-25 16:25N 23°46' E 117°35'5053942.8
2014-Aug-25 16:18N 31°28' E 121°25'124635.7
2014-Aug-25 16:06N 29°36' E 122°24'6191142.8
2014-Aug-25 15:34N 23°03' E 113°30'5729389.0
2014-Aug-25 15:33N 22°06' E 113°33'46572.5
2014-Aug-25 15:29N 22°53' E 113°32'12173.6
2014-Aug-25 15:24N 23°04' E 113°29'2301248.4
2014-Aug-25 15:13N 23°46' E 117°35'229345.0
2014-Aug-25 14:34N 23°03' E 113°30'1513.8
2014-Aug-25 14:33N 23°04' E 113°29'230978.0
2014-Aug-25 14:19N 23°46' E 117°35'230300.0
2014-Aug-25 13:33N 23°04' E 113°29'5312.6
2014-Aug-25 13:32N 22°60' E 113°31'546218.9
2014-Aug-25 13:32N 22°06' E 113°34'5657.1
2014-Aug-25 12:33N 23°02' E 113°24'101166.2
2014-Aug-25 12:32N 22°53' E 113°30'7822643.4
2014-Aug-25 12:14N 34°51' E 119°24'82520478.6
2014-Aug-25 12:12N 22°06' E 113°34'4974.6
2014-Aug-25 11:32N 22°54' E 113°21'4947.2
2014-Aug-25 10:30N 22°06' E 113°34'68621853.2
2014-Aug-25 10:28N 31°60' E 120°00'51013694.3
2014-Aug-25 10:26N 23°46' E 117°35'2481498.5
2014-Aug-25 10:16N 22°54' E 113°11'657914.0
2014-Aug-25 09:33N 31°58' E 120°05'51032187.9
2014-Aug-25 09:32N 23°45' E 117°38'2467759.3
2014-Aug-25 09:30N 22°06' E 113°34'4381486.7
2014-Aug-25 09:12N 26°47' E 119°43'317476.0
2014-Aug-25 08:32N 32°01' E 120°33'2010253.2
2014-Aug-25 08:32N 31°56' E 120°10'221078.5
2014-Aug-25 08:31N 31°60' E 120°36'66428139.4
2014-Aug-25 08:29N 22°51' E 113°33'2375145.5
2014-Aug-25 08:27N 23°52' E 117°43'4968197.0
2014-Aug-25 08:23N 31°28' E 121°25'81356.9
2014-Aug-25 08:23N 31°20' E 121°25'66221.5
2014-Aug-25 08:05N 31°59' E 120°22'815.8
2014-Aug-25 07:33N 31°57' E 120°12'49674459.4
2014-Aug-25 07:33N 23°56' E 117°50'4857698.0
2014-Aug-25 07:29N 31°22' E 121°28'66311866.7
2014-Aug-25 07:26N 22°51' E 113°33'99711654.4
2014-Aug-25 07:20N 39°05' E 117°44'0 0.0
2014-Aug-25 07:08N 39°05' E 117°44'3 6.0
2014-Aug-25 06:33N 39°04' E 117°48'32481.8
2014-Aug-25 06:33N 39°05' E 117°44'44569674.7
2014-Aug-25 06:33N 31°57' E 120°12'563184280.1
2014-Aug-25 06:33N 22°34' E 120°04'147265426.2
2014-Aug-25 06:33N 24°03' E 117°56'901104615.3
2014-Aug-25 06:32N 39°04' E 117°47'99732329.8
2014-Aug-25 06:30N 22°51' E 113°33'62511840.2
2014-Aug-25 06:27N 29°41' E 122°20'118419.1
2014-Aug-25 06:10N 31°28' E 121°25'6647836.5
2014-Aug-25 06:05N 23°02' E 113°21'9891864.0
2014-Aug-25 05:33N 39°04' E 117°52'1460.3
2014-Aug-25 05:33N 39°03' E 117°52'987111051.1
2014-Aug-25 05:33N 23°03' E 113°25'376135414.9
2014-Aug-25 05:33N 22°36' E 120°12'996224034.1
2014-Aug-25 05:32N 39°04' E 117°48'4896852.3
2014-Aug-25 05:28N 31°28' E 121°25'683346.2
2014-Aug-25 05:27N 31°57' E 120°12'17557251.1
2014-Aug-25 05:27N 29°43' E 122°24'62919860.4
2014-Aug-25 05:25N 22°52' E 113°33'26114674.8
2014-Aug-25 05:24N 24°12' E 118°04'8931066.9
2014-Aug-25 04:33N 39°05' E 117°51'11257.6
2014-Aug-25 04:33N 39°04' E 117°50'14976.0
2014-Aug-25 04:33N 39°03' E 117°51'22152.8
2014-Aug-25 04:33N 39°05' E 117°51'987177586.2
2014-Aug-25 04:33N 23°04' E 113°29'6586616.7
2014-Aug-25 04:27N 31°28' E 121°25'683489.6
2014-Aug-25 04:26N 31°57' E 120°12'6614028.7
2014-Aug-25 04:16N 22°28' E 113°52'10171432.4
2014-Aug-25 03:33N 39°05' E 117°44'1767.9
2014-Aug-25 03:33N 39°05' E 117°45'43549.1
2014-Aug-25 03:33N 39°04' E 117°50'1017203437.3
2014-Aug-25 03:33N 22°28' E 113°54'10173661649.2
2014-Aug-25 03:33N 39°04' E 117°51'44211061.8
2014-Aug-25 03:31N 31°57' E 120°12'6414016.1
2014-Aug-25 03:21N 23°04' E 113°29'9851244.7
2014-Aug-25 02:33N 39°05' E 117°46'3946.1
2014-Aug-25 02:33N 39°04' E 117°50'416111.6
2014-Aug-25 02:33N 39°05' E 117°44'985221722.0
2014-Aug-25 02:33N 23°04' E 113°29'6414510.2
2014-Aug-25 02:24N 31°57' E 120°12'6489932.4
2014-Aug-25 02:21N 23°04' E 113°16'2675436.4
2014-Aug-25 02:18N 24°24' E 117°54'8801195.5
2014-Aug-25 01:33N 39°04' E 117°51'187.2
2014-Aug-25 01:33N 39°04' E 117°50'44313292.3
2014-Aug-25 01:31N 31°57' E 120°12'6413018.6
2014-Aug-25 01:18N 23°04' E 113°29'1093.7
2014-Aug-25 01:12N 23°03' E 113°19'5 7.1
2014-Aug-25 00:33N 23°02' E 113°23'9891779490.0
2014-Aug-25 00:33N 39°03' E 117°52'44110885.2
2014-Aug-25 00:31N 31°57' E 120°12'64110084.0
2014-Aug-25 00:27N 23°04' E 113°29'0 0.3
2014-Aug-24 23:33N 23°04' E 113°29'9851182127.8
2014-Aug-24 23:33N 39°04' E 117°47'102060182.0
2014-Aug-24 23:32N 22°24' E 113°54'66439842.0
2014-Aug-24 23:31N 31°57' E 120°12'6415564.4
2014-Aug-24 23:24N 23°04' E 113°29'6313779.9
2014-Aug-24 23:14N 29°47' E 122°32'631922.8
2014-Aug-24 22:33N 23°04' E 113°29'64141235.9
2014-Aug-24 22:32N 31°57' E 120°12'6417671.8
2014-Aug-24 22:27N 23°04' E 113°29'6226863.7
2014-Aug-24 22:22N 29°39' E 122°25'6616113.6
2014-Aug-24 22:15N 22°11' E 113°25'44283.2
2014-Aug-24 22:06N 22°54' E 113°13'1833.1
2014-Aug-24 21:33N 23°04' E 113°29'616722200123.6
2014-Aug-24 21:33N 49°20' W 123°23'5414140223.6
2014-Aug-24 21:31N 29°45' E 122°24'64212569.4
2014-Aug-24 21:28N 22°54' E 113°13'443255.5
2014-Aug-24 21:27N 22°11' E 113°25'69214084.3
2014-Aug-24 21:24N 31°58' E 120°18'645290366.1
2014-Aug-24 21:24N 23°04' E 113°29'1821.6
2014-Aug-24 20:33N 22°54' E 113°13'185028.1
2014-Aug-24 20:33N 23°04' E 113°29'64961443.2
2014-Aug-24 20:32N 31°60' E 120°22'1717984.8
2014-Aug-24 20:31N 29°45' E 122°24'6259291.2
2014-Aug-24 20:27N 23°04' E 113°29'615746083.7
2014-Aug-24 20:19N 49°20' W 123°34'61798156.7
2014-Aug-24 19:33N 22°54' E 113°13'181895.3
2014-Aug-24 19:33N 23°04' E 113°29'654784243.1
2014-Aug-24 19:33N 32°02' E 120°27'591288.5
2014-Aug-24 19:30N 31°28' E 121°25'6586419.3
2014-Aug-24 19:24N 23°04' E 113°29'531081.5
2014-Aug-24 19:21N 22°11' E 113°25'66419274.9
2014-Aug-24 19:19N 29°45' E 122°24'115152.0
2014-Aug-24 18:33N 31°28' E 121°25'658338404.7
2014-Aug-24 18:33N 23°04' E 113°29'65676151.7
2014-Aug-24 18:33N 32°01' E 120°34'672142406.2
2014-Aug-24 18:32N 22°54' E 113°13'64328207.9
2014-Aug-24 18:31N 29°45' E 122°24'6259030.8
2014-Aug-24 18:27N 23°04' E 113°29'1036.3
2014-Aug-24 18:11N 22°55' E 113°26'1219.1
2014-Aug-24 17:33N 22°54' E 113°13'181368.6
2014-Aug-24 17:33N 23°04' E 113°29'11423.3
2014-Aug-24 17:31N 22°54' E 113°30'10207.8
2014-Aug-24 17:28N 23°04' E 113°30'65819734.1
2014-Aug-24 17:26N 31°28' E 121°25'7034209.1
2014-Aug-24 17:16N 22°11' E 113°25'5374.1
2014-Aug-24 16:33N 23°04' E 113°29'65878961.8
2014-Aug-24 16:32N 31°28' E 121°25'1155004.6
2014-Aug-24 16:31N 29°45' E 122°24'64211609.6
2014-Aug-24 16:28N 22°54' E 113°14'1718.7
2014-Aug-24 15:33N 23°04' E 113°29'13868.8
2014-Aug-24 15:32N 22°54' E 113°20'67189507.7
2014-Aug-24 15:32N 31°28' E 121°25'6586103.3
2014-Aug-24 15:25N 23°04' E 113°30'624562022.4
2014-Aug-24 15:25N 29°45' E 122°24'625723.7
2014-Aug-24 14:33N 23°04' E 113°29'102710.5
2014-Aug-24 14:33N 22°55' E 113°28'63217922.4
2014-Aug-24 14:31N 29°45' E 122°24'1742604.7
2014-Aug-24 14:27N 31°57' E 120°12'64121180.5
2014-Aug-24 14:25N 23°04' E 113°30'53212.1
2014-Aug-24 14:10N 22°11' E 113°25'4573.7
2014-Aug-24 13:33N 22°56' E 113°30'648145835.6
2014-Aug-24 13:33N 31°57' E 120°12'64139139.1
2014-Aug-24 13:32N 23°04' E 113°29'6252262.6
2014-Aug-24 13:16N 29°45' E 122°24'1621418.4
2014-Aug-24 13:09N 31°60' E 120°40'6588645.3
2014-Aug-24 13:04N 23°04' E 113°30'6561263.0
2014-Aug-24 12:33N 32°00' E 120°37'657236375.8
2014-Aug-24 12:33N 23°04' E 113°29'624249798.1
2014-Aug-24 12:33N 29°45' E 122°24'11325405.9
2014-Aug-24 12:32N 31°27' E 121°29'660118837.6
2014-Aug-24 12:32N 23°02' E 113°31'235.0
2014-Aug-24 12:28N 23°04' E 113°30'64137236.6
2014-Aug-24 12:27N 31°57' E 120°12'444496.3
2014-Aug-24 11:33N 39°04' E 117°47'986236735.2
2014-Aug-24 11:33N 23°03' E 113°31'657262959.1
2014-Aug-24 11:33N 32°04' E 120°32'657394234.8
2014-Aug-24 11:33N 23°04' E 113°29'641577347.5
2014-Aug-24 11:33N 31°57' E 120°12'7512847.8
2014-Aug-24 11:32N 31°25' E 121°32'6595357.5
2014-Aug-24 11:25N 23°04' E 113°30'2 2.1
2014-Aug-24 10:33N 23°03' E 113°31'986887817.9
2014-Aug-24 10:33N 39°04' E 117°47'9893558634.1
2014-Aug-24 10:33N 23°03' E 113°21'82823.0
2014-Aug-24 10:33N 23°04' E 113°29'654138445.5
2014-Aug-24 10:33N 32°02' E 120°28'698885.8
2014-Aug-24 10:32N 31°20' E 121°33'782575.8
2014-Aug-24 10:31N 31°57' E 120°12'6411448.4
2014-Aug-24 10:04N 23°04' E 113°30'2 3.6
2014-Aug-24 09:33N 23°03' E 113°31'986710252.8
2014-Aug-24 09:33N 39°03' E 117°52'919367560.8
2014-Aug-24 09:33N 23°45' E 117°31'22937544.6
2014-Aug-24 09:33N 23°04' E 113°25'651781586.6
2014-Aug-24 09:33N 32°00' E 120°22'64929971.6
2014-Aug-24 09:32N 23°04' E 113°29'65260229.0
2014-Aug-24 09:31N 32°02' E 120°26'652156552.0
2014-Aug-24 09:31N 23°04' E 113°30'65137180.6
2014-Aug-24 09:30N 31°15' E 121°30'78330.6
2014-Aug-24 09:15N 31°57' E 120°12'25140.5
2014-Aug-24 09:05N 31°60' E 120°41'446853.3
2014-Aug-24 08:33N 39°04' E 117°51'9873552641.3
2014-Aug-24 08:33N 23°03' E 113°30'9863551056.2
2014-Aug-24 08:33N 39°04' E 117°49'444228120.7
2014-Aug-24 08:33N 31°57' E 120°18'6451160889.9
2014-Aug-24 08:33N 23°04' E 113°30'2285.7
2014-Aug-24 08:33N 23°03' E 113°31'648101411.4
2014-Aug-24 08:32N 31°59' E 120°21'142674.9
2014-Aug-24 08:32N 31°60' E 120°38'22759.2
2014-Aug-24 08:30N 31°57' E 120°12'64117104.9
2014-Aug-24 08:28N 23°04' E 113°29'531745.1
2014-Aug-24 08:26N 22°11' E 113°25'66811624.9
2014-Aug-24 08:23N 29°49' E 122°27'277032.4
2014-Aug-24 08:23N 30°16' E 122°32'58012137.8
2014-Aug-24 08:20N 39°05' E 117°44'57714314.7
2014-Aug-24 08:17N 30°18' E 122°29'143194.7
2014-Aug-24 07:33N 32°01' E 120°33'446803117.1
2014-Aug-24 07:33N 39°05' E 117°44'610356.6
2014-Aug-24 07:33N 39°05' E 117°51'574295072.4
2014-Aug-24 07:33N 30°18' E 122°30'575258648.7
2014-Aug-24 07:33N 39°04' E 117°48'9921190593.5
2014-Aug-24 07:33N 22°57' E 113°30'66698.2
2014-Aug-24 07:33N 23°03' E 113°31'643289530.7
2014-Aug-24 07:33N 31°56' E 120°16'446100395.5
2014-Aug-24 07:33N 39°05' E 117°44'44650146.0
2014-Aug-24 07:32N 31°56' E 120°12'64182462.4
2014-Aug-24 07:32N 23°03' E 113°31'247.4
2014-Aug-24 07:29N 23°04' E 113°29'65077949.6
2014-Aug-24 07:29N 30°19' E 122°29'1512497.5
2014-Aug-24 07:25N 31°57' E 120°14'110.7
2014-Aug-24 07:20N 31°56' E 120°13'642822.8
2014-Aug-24 06:33N 23°03' E 113°31'9863550680.5
2014-Aug-24 06:33N 39°04' E 117°47'1462.1
2014-Aug-24 06:33N 39°04' E 117°48'15049.7
2014-Aug-24 06:33N 39°05' E 117°46'  
Track history (hours):
 
Tides and Currents Weather Stations Pressure Air Temp Water Temp Dewpoint Dewpoint Depression Visibility Wind Speed Wind Dir Waves Ship Positions

Callsign 000000 (name unknown)

Last reported at 2014-Sep-03 06:33 UTC. Time now 2014-Sep-03 07:26 UTC.
Position N 39°04' E 117°51'.

Type: Fishing. MMSI: 200007452.

Date/timePositionNaut miles runAvg speedWind from/ knotsBaromVisibWave heightAir tempDewpointWater temp
2014-Sep-03 06:33N 39°04' E 117°51'1462.3
2014-Sep-03 06:33N 39°04' E 117°51'985322404.1
2014-Sep-03 06:33N 23°06' E 113°26'65536850.2
2014-Sep-03 06:32N 31°21' E 121°27'2100.1
2014-Sep-03 06:31N 31°22' E 121°30'70160066.9
2014-Sep-03 06:30N 22°11' E 113°25'70119867.3
2014-Sep-03 06:28N 31°20' E 121°33'372963.6
2014-Sep-03 06:05N 37°32' E 121°42'9671856.7
2014-Sep-03 05:34N 23°06' E 113°26'659791039.7
2014-Sep-03 05:33N 31°24' E 121°31'494444495.2
2014-Sep-03 05:33N 39°04' E 117°51'21362.3
2014-Sep-03 05:33N 39°03' E 117°52'494889497.4
2014-Sep-03 05:33N 31°22' E 121°30'2104.3
2014-Sep-03 05:32N 31°21' E 121°27'3719274.6
2014-Sep-03 05:30N 37°32' E 121°42'101710895.6
2014-Sep-03 05:24N 22°11' E 113°25'6712841.9
2014-Sep-03 05:10N 29°51' E 122°29'6331045.3
2014-Sep-03 04:34N 23°06' E 113°26'9841771751.8
2014-Sep-03 04:33N 39°04' E 117°48'74563864.3
2014-Sep-03 04:33N 26°45' E 119°43'65738144.5
2014-Sep-03 04:32N 37°34' E 121°45'102034631.5
2014-Sep-03 04:30N 22°11' E 113°25'69910395.3
2014-Sep-03 04:26N 31°21' E 121°27'109562.4
2014-Sep-03 04:14N 29°47' E 122°31'1224067.1
2014-Sep-03 04:13N 31°32' E 121°19'429.4
2014-Sep-03 04:05N 31°30' E 121°23'3179.3
2014-Sep-03 04:04N 31°28' E 121°25'4485.1
2014-Sep-03 03:33N 31°60' E 120°49'6632386896.9
2014-Sep-03 03:33N 23°06' E 113°26'984110742.2
2014-Sep-03 03:33N 39°05' E 117°45'49674355.6
2014-Sep-03 03:32N 31°25' E 121°31'4706.8
2014-Sep-03 03:32N 31°21' E 121°27'69947465.4
2014-Sep-03 03:31N 22°11' E 113°25'66658484.9
2014-Sep-03 03:30N 29°43' E 122°29'1241768.4
2014-Sep-03 03:26N 31°32' E 121°20'54900.6
2014-Sep-03 03:23N 32°02' E 120°27'6584113.8
2014-Sep-03 03:13N 23°02' E 113°22'98934895.1
2014-Sep-03 03:11N 39°05' E 117°44'48917241.8
2014-Sep-03 03:10N 31°31' E 121°23'486808.5
2014-Sep-03 02:33N 39°04' E 117°51'985154157.7
2014-Sep-03 02:33N 23°06' E 113°26'467869.5
2014-Sep-03 02:33N 22°27' E 113°52'671345028.6
2014-Sep-03 02:33N 31°21' E 121°27'7731391287.7
2014-Sep-03 02:33N 20°25' E 113°54'778107721.8
2014-Sep-03 02:32N 31°29' E 121°25'4919987.2
2014-Sep-03 02:29N 39°05' E 117°44'10185423.8
2014-Sep-03 02:18N 22°26' E 113°53'462836.0
2014-Sep-03 02:17N 23°04' E 113°25'6593961.0
2014-Sep-03 02:07N 31°60' E 120°38'6571167.3
2014-Sep-03 01:33N 23°06' E 113°26'985709127.1
2014-Sep-03 01:33N 39°04' E 117°52'1035232934.6
2014-Sep-03 01:33N 22°09' E 113°53'685154198.9
2014-Sep-03 01:33N 31°21' E 121°27'606762.2
2014-Sep-03 01:32N 32°00' E 120°34'4474567.6
2014-Sep-03 01:26N 39°05' E 117°44'2193210.1
2014-Sep-03 01:22N 37°31' E 121°57'219269.8
2014-Sep-03 00:33N 39°05' E 117°45'4451600886.8
2014-Sep-03 00:33N 32°01' E 120°31'655214307.1
2014-Sep-03 00:33N 23°06' E 113°26'40620905.6
2014-Sep-03 00:32N 26°44' E 119°44'425117668.1
2014-Sep-03 00:32N 22°13' E 113°44'687224725.8
2014-Sep-03 00:32N 31°21' E 121°27'7190.4
2014-Sep-03 00:29N 31°28' E 121°25'7 7.8
2014-Sep-02 23:33N 31°21' E 121°27'670104900.6
2014-Sep-02 23:33N 22°20' E 114°05'597566.4
2014-Sep-02 23:33N 23°06' E 113°26'9714288.6
2014-Sep-02 23:19N 37°31' E 121°57'370486.8
2014-Sep-02 22:33N 31°21' E 121°27'655294799.9
2014-Sep-02 22:33N 23°06' E 113°26'435.0
2014-Sep-02 22:27N 23°04' E 113°29'6586368.3
2014-Sep-02 22:21N 31°28' E 121°25'659827.4
2014-Sep-02 21:33N 23°06' E 113°26'176126431.5
2014-Sep-02 21:33N 23°21' E 116°36'551220310.1
2014-Sep-02 21:33N 31°28' E 121°25'3105.6
2014-Sep-02 21:32N 31°31' E 121°23'1011790.8
2014-Sep-02 21:32N 31°21' E 121°27'65431838.9
2014-Sep-02 21:30N 23°04' E 113°29'658694.1
2014-Sep-02 20:33N 31°28' E 121°25'659592803.1
2014-Sep-02 20:33N 23°06' E 113°26'65520687.7
2014-Sep-02 20:31N 31°21' E 121°27'10202.8
2014-Sep-02 20:29N 31°31' E 121°23'659712.9
2014-Sep-02 19:33N 23°06' E 113°26'65612166.0
2014-Sep-02 19:30N 32°00' E 120°34'65525357.6
2014-Sep-02 19:28N 23°04' E 113°30'65414719.6
2014-Sep-02 19:26N 31°21' E 121°27'783.2
2014-Sep-02 19:20N 31°28' E 121°25'28157.5
2014-Sep-02 19:10N 31°46' E 120°60'6591066.4
2014-Sep-02 18:33N 23°06' E 113°26'65528077.7
2014-Sep-02 18:31N 31°21' E 121°27'37412689.9
2014-Sep-02 18:30N 37°34' E 122°00'3505270.0
2014-Sep-02 18:26N 31°48' E 120°55'6576388.8
2014-Sep-02 18:19N 23°04' E 113°30'103511223.0
2014-Sep-02 18:14N 38°46' E 121°49'73107.3
2014-Sep-02 17:33N 37°34' E 122°03'9761757528.7
2014-Sep-02 17:33N 23°06' E 113°26'65521837.0
2014-Sep-02 17:31N 31°21' E 121°27'65413084.0
2014-Sep-02 17:28N 23°04' E 113°30'65824435.0
2014-Sep-02 17:27N 31°31' E 121°23'4045.4
2014-Sep-02 16:33N 31°59' E 120°50'663170467.5
2014-Sep-02 16:33N 23°06' E 113°26'65525089.4
2014-Sep-02 16:32N 31°21' E 121°27'10197.2
2014-Sep-02 16:29N 31°31' E 121°23'6584255.3
2014-Sep-02 16:19N 23°04' E 113°30'4 5.3
2014-Sep-02 15:33N 23°06' E 113°26'6601188809.2
2014-Sep-02 15:33N 32°00' E 120°43'696167064.7
2014-Sep-02 15:33N 22°16' E 113°37'68810317.1
2014-Sep-02 15:29N 31°21' E 121°27'1073.8
2014-Sep-02 15:21N 31°30' E 121°23'352.9
2014-Sep-02 15:18N 31°28' E 121°25'3675302.1
2014-Sep-02 15:14N 37°34' E 122°00'9759263.1
2014-Sep-02 15:07N 23°04' E 113°30'9771722.5
2014-Sep-02 14:33N 37°35' E 122°03'342410994.3
2014-Sep-02 14:33N 31°60' E 120°37'41098473.9
2014-Sep-02 14:33N 38°47' E 121°39'445400884.2
2014-Sep-02 14:33N 31°21' E 121°27'6551179262.6
2014-Sep-02 14:33N 23°06' E 113°26'5611918.6
2014-Sep-02 14:33N 22°13' E 113°45'532499.2
2014-Sep-02 14:31N 23°04' E 113°30'65817940.0
2014-Sep-02 14:29N 31°28' E 121°25'659707.4
2014-Sep-02 13:33N 23°06' E 113°26'655336935.2
2014-Sep-02 13:33N 32°01' E 120°32'563244.3
2014-Sep-02 13:32N 31°28' E 121°25'65853820.4
2014-Sep-02 13:31N 23°04' E 113°30'65426762.6
2014-Sep-02 13:30N 31°21' E 121°27'5515122.1
2014-Sep-02 13:30N 32°00' E 120°42'34058251.4
2014-Sep-02 13:29N 37°34' E 122°01'76782.8
2014-Sep-02 13:23N 38°48' E 121°38'1 3.1
2014-Sep-02 13:11N 38°47' E 121°37'409658.4
2014-Sep-02 12:34N 32°02' E 120°27'81202.4
2014-Sep-02 12:33N 31°60' E 120°36'5811635.9
2014-Sep-02 12:33N 31°21' E 121°27'65567386.4
2014-Sep-02 12:32N 23°06' E 113°26'97654061.1
2014-Sep-02 12:31N 37°34' E 122°02'756740.1
2014-Sep-02 12:30N 38°44' E 121°28'1080.9
2014-Sep-02 12:23N 38°49' E 121°40'10536929.1
2014-Sep-02 12:14N 22°48' E 113°19'28342501.7
2014-Sep-02 12:13N 23°51' E 118°20'2702696.4
2014-Sep-02 12:07N 23°04' E 113°30'6501152.5
2014-Sep-02 11:33N 31°58' E 120°26'650212753.4
2014-Sep-02 11:33N 23°06' E 113°26'65584232.4
2014-Sep-02 11:33N 31°21' E 121°27'37313035.4
2014-Sep-02 11:31N 37°33' E 122°00'34683159.4
2014-Sep-02 11:31N 31°57' E 120°18'6453343.8
2014-Sep-02 11:19N 23°04' E 113°30'647845.5
2014-Sep-02 10:33N 31°58' E 120°21'64793207.9
2014-Sep-02 10:33N 23°06' E 113°26'655235846.2
2014-Sep-02 10:33N 31°21' E 121°27'726209.0
2014-Sep-02 10:33N 31°28' E 121°25'6582923.5
2014-Sep-02 10:19N 23°04' E 113°30'10281.5
2014-Sep-02 10:17N 22°55' E 113°25'2722374.8
2014-Sep-02 10:10N 23°50' E 118°15'846608998.0
2014-Sep-02 10:10N 37°34' E 121°57'367600.6
2014-Sep-02 09:33N 31°28' E 121°25'6526031.0
2014-Sep-02 09:33N 31°56' E 120°16'65165127.5
2014-Sep-02 09:33N 22°54' E 113°30'132031.4
2014-Sep-02 09:32N 23°06' E 113°26'6557103.2
2014-Sep-02 09:27N 31°21' E 121°27'62833.2
2014-Sep-02 09:22N 32°01' E 120°32'3414866.7
2014-Sep-02 09:18N 37°35' E 121°56'9744219.5
2014-Sep-02 09:04N 23°04' E 113°30'4 8.0
2014-Sep-02 08:33N 23°06' E 113°26'63962213.6
2014-Sep-02 08:33N 31°56' E 120°09'704361.0
2014-Sep-02 08:32N 31°28' E 121°25'565276.9
2014-Sep-02 08:31N 32°01' E 120°32'134.8
2014-Sep-02 08:30N 32°01' E 120°31'6543738.8
2014-Sep-02 08:19N 23°04' E 113°30'6543726.2
2014-Sep-02 08:09N 31°21' E 121°27'712.4
2014-Sep-02 07:33N 31°28' E 121°25'58209769.7
2014-Sep-02 07:33N 32°02' E 120°29'36150.9
2014-Sep-02 07:33N 32°01' E 120°25'6511172611.4
2014-Sep-02 07:33N 23°06' E 113°26'65565507.1
2014-Sep-02 07:33N 31°21' E 121°27'644239.6
2014-Sep-02 07:32N 31°56' E 120°25'41714437.4
2014-Sep-02 07:30N 38°49' E 121°41'41925986.3
2014-Sep-02 07:29N 31°58' E 120°01'63719116.1
2014-Sep-02 07:27N 23°04' E 113°29'13238.7
2014-Sep-02 07:24N 22°52' E 113°33'653777.6
2014-Sep-02 06:33N 31°57' E 120°18'41765265.3
2014-Sep-02 06:33N 38°49' E 121°41'41413440.6
2014-Sep-02 06:31N 31°59' E 120°22'6213883.8
2014-Sep-02 06:31N 31°28' E 121°25'7410.9
2014-Sep-02 06:30N 31°21' E 121°27'37418177.4
2014-Sep-02 06:29N 37°34' E 121°56'4856037.1
2014-Sep-02 06:24N 29°30' E 122°23'1822194.7
2014-Sep-02 06:19N 31°57' E 120°19'6454510.6
2014-Sep-02 06:10N 23°04' E 113°29'13179.3
2014-Sep-02 06:06N 22°52' E 113°33'6511204.3
2014-Sep-02 05:33N 31°56' E 120°15'6431157120.9
2014-Sep-02 05:33N 23°06' E 113°26'42538.9
2014-Sep-02 05:33N 23°04' E 113°29'64126219.9
2014-Sep-02 05:32N 31°56' E 120°13'17510496.5
2014-Sep-02 05:31N 29°44' E 122°27'1779953.4
2014-Sep-02 05:30N 31°56' E 120°09'227319.2
2014-Sep-02 05:30N 31°60' E 120°35'34214310.8
2014-Sep-02 05:28N 37°35' E 121°59'37416843.2
2014-Sep-02 05:27N 31°21' E 121°27'115535.0
2014-Sep-02 05:14N 29°39' E 122°27'175259.3
2014-Sep-02 04:33N 32°02' E 120°30'341153470.8
2014-Sep-02 04:33N 37°34' E 122°01'97641336.0
2014-Sep-02 04:32N 23°06' E 113°26'65519817.3
2014-Sep-02 04:30N 31°21' E 121°27'111556.7
2014-Sep-02 04:18N 29°46' E 122°31'1181332.5
2014-Sep-02 04:13N 31°28' E 121°25'6193.5
2014-Sep-02 03:33N 31°60' E 120°23'65032937.3
2014-Sep-02 03:32N 23°06' E 113°26'12320.2
2014-Sep-02 03:30N 22°54' E 113°28'66612053.1
2014-Sep-02 03:27N 31°28' E 121°25'36745543.7
2014-Sep-02 03:26N 37°34' E 122°02'98125040.4
2014-Sep-02 03:24N 23°02' E 113°21'6114613.3
2014-Sep-02 03:23N 22°19' E 114°07'6702731.5
2014-Sep-02 03:09N 31°21' E 121°27'68119149.8
2014-Sep-02 03:07N 22°19' E 113°46'6741213.0
2014-Sep-02 02:33N 31°57' E 120°17'689247992.4
2014-Sep-02 02:33N 22°15' E 113°22'519182.5
2014-Sep-02 02:33N 23°06' E 113°26'52004.9
2014-Sep-02 02:33N 23°02' E 113°22'523923.0
2014-Sep-02 02:32N 22°16' E 113°48'532889.0
2014-Sep-02 02:31N 23°05' E 113°26'65934388.7
2014-Sep-02 02:30N 31°28' E 121°25'793.2
2014-Sep-02 02:25N 31°21' E 121°27'3722939.0
2014-Sep-02 02:17N 37°33' E 121°60'3483211.4
2014-Sep-02 02:11N 31°58' E 120°05'792166.3
2014-Sep-02 02:09N 31°25' E 121°31'6601127.5
2014-Sep-02 01:33N 23°06' E 113°26'618741676.2
2014-Sep-02 01:33N 29°36' E 122°21'618130866.0
2014-Sep-02 01:33N 23°05' E 113°27'65769578.3
2014-Sep-02 01:33N 31°22' E 121°30'776163.0
2014-Sep-02 01:32N 31°57' E 120°09'688275158.7
2014-Sep-02 01:32N 22°10' E 113°27'5413934.8
2014-Sep-02 01:31N 23°04' E 113°29'0 4.0
2014-Sep-02 01:30N 23°04' E 113°29'65814899.3
2014-Sep-02 01:28N 31°28' E 121°25'6892280.5
2014-Sep-02 01:09N 22°08' E 113°56'68416000.5
2014-Sep-02 01:07N 31°21' E 121°27'66316678.8
2014-Sep-02 01:04N 22°50' E 113°34'1733.6
2014-Sep-02 00:33N 23°06' E 113°26'60217159.9
2014-Sep-02 00:33N 22°10' E 113°50'5741245.8
2014-Sep-02 00:33N 23°04' E 113°30'643330488.0
2014-Sep-02 00:33N 31°57' E 120°15'6908970.6
2014-Sep-02 00:29N 22°09' E 113°27'554094.6
2014-Sep-02 00:28N 23°04' E 113°29'65621674.8
2014-Sep-02 00:26N 31°22' E 121°30'65681458.9
2014-Sep-02 00:26N 23°04' E 113°29'62612108.9
2014-Sep-02 00:22N 29°43' E 122°27'1182459.2
2014-Sep-02 00:20N 31°28' E 121°25'7611.5
2014-Sep-02 00:19N 31°21' E 121°27'6623758.8
2014-Sep-02 00:08N 22°53' E 113°31'6561123.6
2014-Sep-01 23:33N 31°60' E 120°21'64897255.2
2014-Sep-01 23:33N 23°06' E 113°26'65730323.0
2014-Sep-01 23:32N 31°22' E 121°30'6881239240.0
2014-Sep-01 23:31N 22°14' E 113°43'515001.5
2014-Sep-01 23:31N 23°04' E 113°29'65465441.0
2014-Sep-01 23:30N 31°21' E 121°27'71142.4
2014-Sep-01 23:30N 31°28' E 121°25'66663056.0
2014-Sep-01 23:29N 22°53' E 113°31'111087.0
2014-Sep-01 23:29N 23°04' E 113°30'547419.2
2014-Sep-01 23:28N 22°11' E 113°32'53181.5
2014-Sep-01 23:11N 23°04' E 113°29'12337.4
2014-Sep-01 23:08N 22°53' E 113°32'1779376.2
2014-Sep-01 23:07N 23°05' E 116°44'557989.0
2014-Sep-01 22:34N 31°22' E 121°28'659593273.4
2014-Sep-01 22:33N 22°58' E 113°30'658215197.3
2014-Sep-01 22:33N 32°02' E 120°26'653130603.3
2014-Sep-01 22:33N 23°06' E 113°26'65918528.1
2014-Sep-01 22:31N 31°28' E 121°25'6581184480.9
2014-Sep-01 22:31N 23°04' E 113°29'971874080.5
2014-Sep-01 22:31N 37°31' E 121°57'37018475.8
2014-Sep-01 22:30N 31°22' E 121°30'69730249.8
2014-Sep-01 22:28N 22°11' E 113°32'531209.8
2014-Sep-01 22:26N 23°04' E 113°29'0 2.3
2014-Sep-01 22:20N 23°04' E 113°30'6414062.8
2014-Sep-01 22:10N 31°56' E 120°13'6411048.3
2014-Sep-01 21:33N 23°04' E 113°29'633162671.0
2014-Sep-01 21:33N 29°52' E 122°29'63467117.6
2014-Sep-01 21:33N 23°06' E 113°26'656787505.5
2014-Sep-01 21:33N 32°02' E 120°33'5549692.4
2014-Sep-01 21:33N 31°28' E 121°25'681282.8
2014-Sep-01 21:29N 31°56' E 120°12'68534739.1
2014-Sep-01 21:28N 22°11' E 113°32'19778607.1
2014-Sep-01 21:28N 23°13' E 116°53'54765618.6
2014-Sep-01 21:28N 31°22' E 121°30'1044284.2
2014-Sep-01 21:26N 29°51' E 122°28'63168871.8
2014-Sep-01 21:26N 23°04' E 113°29'0 0.6
2014-Sep-01 21:05N 23°04' E 113°30'6581269.7
2014-Sep-01 20:34N 31°28' E 121°25'658592209.8
2014-Sep-01 20:33N 23°04' E 113°29'31478.0
2014-Sep-01 20:33N 23°06' E 113°26'65823690.8
2014-Sep-01 20:32N 32°00' E 120°39'5834925.3
2014-Sep-01 20:32N 31°22' E 121°30'65654941.9
2014-Sep-01 20:31N 23°04' E 113°29'63863824.9
2014-Sep-01 20:30N 31°57' E 120°05'6384951.5
2014-Sep-01 20:23N 23°04' E 113°29'538750.5
2014-Sep-01 20:22N 22°11' E 113°32'541269.1
2014-Sep-01 20:20N 23°04' E 113°30'97541278.3
2014-Sep-01 20:18N 37°34' E 121°59'367492.4
2014-Sep-01 19:34N 31°28' E 121°25'658394803.7
2014-Sep-01 19:33N 23°04' E 113°29'31969.2
2014-Sep-01 19:33N 23°06' E 113°26'662476364.5
2014-Sep-01 19:33N 32°01' E 120°44'339610751.9
2014-Sep-01 19:33N 37°34' E 122°02'97624408.6
2014-Sep-01 19:31N 23°04' E 113°29'65621874.9
2014-Sep-01 19:29N 31°22' E 121°30'697114121.4
2014-Sep-01 19:29N 22°11' E 113°32'53212.7
2014-Sep-01 19:14N 23°04' E 113°29'6574853.1
2014-Sep-01 19:05N 31°60' E 120°38'65647255.3
2014-Sep-01 19:05N 23°04' E 113°30'6561264.9
2014-Sep-01 18:34N 31°22' E 121°30'656787437.1
2014-Sep-01 18:33N 23°04' E 113°29'31970.7
2014-Sep-01 18:33N 23°06' E 113°26'656294993.6
2014-Sep-01 18:33N 32°01' E 120°33'34122338.0
2014-Sep-01 18:32N 37°34' E 122°01'97685680.4
2014-Sep-01 18:32N 23°04' E 113°30'029.0
2014-Sep-01 18:31N 23°04' E 113°29'658139353.9
2014-Sep-01 18:31N 31°28' E 121°25'6587869.6
2014-Sep-01 18:26N 23°04' E 113°29'658754.6
2014-Sep-01 17:33N 31°28' E 121°25'658473761.2
2014-Sep-01 17:33N 23°04' E 113°29'974500901.4
2014-Sep-01 17:33N 37°33' E 121°60'97458439.6
2014-Sep-01 17:32N 23°06' E 113°26'4635.8
2014-Sep-01 17:32N 23°04' E 113°30'656472327.4
2014-Sep-01 17:32N 31°22' E 121°30'69989921.8
2014-Sep-01 17:31N 22°07' E 113°33'5720491.6
2014-Sep-01 17:31N 23°04' E 113°29'3782844.7
2014-Sep-01 17:23N 22°33' E 120°18'3771821.7
2014-Sep-01 17:11N 23°04' E 113°29'6317191.9
2014-Sep-01 17:05N 29°51' E 122°28'6311191.9
2014-Sep-01 16:33N 23°04' E 113°29'11276.2
2014-Sep-01 16:33N 23°04' E 113°30'370332859.1
2014-Sep-01 16:33N 22°33' E 120°09'3684725.1
2014-Sep-01 16:29N 22°07' E 113°33'573855.5
2014-Sep-01 16:28N 23°04' E 113°29'65622287.9
2014-Sep-01 16:26N 31°22' E 121°30'65673823.4
2014-Sep-01 16:26N 23°04' E 113°29'63116834.1
2014-Sep-01 16:23N 29°51' E 122°28'631757.3
2014-Sep-01 15:33N 23°04' E 113°30'1347.0
2014-Sep-01 15:33N 23°04' E 113°29'3446.6
2014-Sep-01 15:33N 23°06' E 113°26'413850.5
2014-Sep-01 15:33N 23°04' E 113°29'65684374.3
2014-Sep-01 15:32N 31°22' E 121°30'3731127.5
2014-Sep-01 15:12N 37°34' E 121°60'97634098.7
2014-Sep-01 15:11N 23°04' E 113°29'58758.5
2014-Sep-01 15:06N 22°06' E 113°34'59108.6
2014-Sep-01 14:33N 23°05' E 113°26'977502454.4
2014-Sep-01 14:33N 37°34' E 122°02'9763514856.5
2014-Sep-01 14:33N 23°06' E 113°25'464.8
2014-Sep-01 14:30N 23°04' E 113°29'65610738.6
2014-Sep-01 14:26N 31°22' E 121°30'65678744.7
2014-Sep-01 14:26N 23°04' E 113°29'583160.2
2014-Sep-01 14:24N 22°06' E 113°34'11366.9
2014-Sep-01 14:23N 22°17' E 113°36'482067.7
2014-Sep-01 14:21N 23°04' E 113°30'22532407.3
2014-Sep-01 14:21N 23°37' E 117°32'5334879.2
2014-Sep-01 14:14N 32°01' E 120°45'4474665.2
2014-Sep-01 14:09N 24°46' E 118°49'309525.4
2014-Sep-01 13:33N 23°04' E 113°30'4988.7
2014-Sep-01 13:33N 23°06' E 113°26'23376286.8
2014-Sep-01 13:33N 23°40' E 117°37'23442079.4
2014-Sep-01 13:32N 22°12' E 113°42'69127943.1
2014-Sep-01 13:31N 31°22' E 121°30'37322759.3
2014-Sep-01 13:30N 37°34' E 122°00'46437939.5
2014-Sep-01 13:29N 29°51' E 122°28'63110010.9
2014-Sep-01 13:26N 23°04' E 113°29'583113.4
2014-Sep-01 13:24N 22°06' E 113°34'581029.4
2014-Sep-01 13:21N 23°04' E 113°29'6075.5
2014-Sep-01 12:33N 22°07' E 113°48'6337548.3
2014-Sep-01 12:33N 23°06' E 113°26'42964.3
2014-Sep-01 12:33N 23°04' E 113°30'033.6
2014-Sep-01 12:33N 23°04' E 113°29'6565876.8
2014-Sep-01 12:26N 31°22' E 121°30'70044196.7
2014-Sep-01 12:25N 22°06' E 113°34'6683798.4
2014-Sep-01 12:14N 29°50' E 122°29'44318536.3
2014-Sep-01 12:13N 23°46' E 117°46'5013745.0
2014-Sep-01 12:05N 31°28' E 121°25'815.1
2014-Sep-01 11:34N 31°22' E 121°30'65778844.7
2014-Sep-01 11:33N 23°06' E 113°26'65925501.1
2014-Sep-01 11:31N 31°28' E 121°25'6585481.5
2014-Sep-01 11:24N 23°04' E 113°30'2445935.6
2014-Sep-01 11:22N 23°51' E 117°51'2443547.0
2014-Sep-01 11:18N 23°04' E 113°29'6304454.3
2014-Sep-01 11:09N 29°48' E 122°29'6311047.6
2014-Sep-01 10:33N 23°06' E 113°25'63111306.6
2014-Sep-01 10:30N 29°48' E 122°29'10742684.6
2014-Sep-01 10:30N 31°22' E 121°30'851.8
2014-Sep-01 10:20N 31°28' E 121°25'6584882.5
2014-Sep-01 10:12N 23°04' E 113°30'25110248.5
2014-Sep-01 10:11N 23°58' E 117°56'2512932.6
2014-Sep-01 10:06N 23°04' E 113°29'4 7.6
2014-Sep-01 09:33N 23°06' E 113°25'65717142.8
2014-Sep-01 09:31N 31°22' E 121°30'65630286.7
2014-Sep-01 09:30N 23°04' E 113°29'65898705.3
2014-Sep-01 09:29N 31°28' E 121°25'3676081.4
2014-Sep-01 09:26N 37°34' E 121°56'836273514.4
2014-Sep-01 09:26N 24°03' E 118°00'25524827.0
2014-Sep-01 09:25N 23°04' E 113°30'6293386.6
2014-Sep-01 09:14N 29°48' E 122°28'59712496.2
2014-Sep-01 09:11N 38°58' E 117°44'9771534.2
2014-Sep-01 08:33N 23°06' E 113°25'4145.9
2014-Sep-01 08:31N 23°04' E 113°29'65454779.6
2014-Sep-01 08:30N 32°01' E 120°30'574998.3
2014-Sep-01 08:30N 31°28' E 121°25'7698.4
2014-Sep-01 08:29N 31°22' E 121°30'1051911.1
2014-Sep-01 08:26N 29°51' E 122°29'4144872.5
2014-Sep-01 08:21N 24°09' E 118°07'2625277.9
2014-Sep-01 08:18N 23°04' E 113°29'64322934.0
2014-Sep-01 08:16N 31°57' E 120°16'17120501.4
2014-Sep-01 08:15N 29°51' E 122°31'4205361.1
2014-Sep-01 08:11N 36°51' E 122°23'310498.6
2014-Sep-01 07:33N 31°59' E 120°19'647291212.9
2014-Sep-01 07:33N 23°06' E 113°25'6592372064.6
2014-Sep-01 07:33N 31°28' E 121°25'5869419.9
2014-Sep-01 07:33N 31°59' E 120°27'65161647.5
2014-Sep-01 07:33N 23°04' E 113°29'950569715.1
2014-Sep-01 07:33N 36°49' E 122°32'99940884.6
2014-Sep-01 07:31N 22°06' E 113°34'58104772.5
2014-Sep-01 07:31N 23°04' E 113°29'26829236.8
2014-Sep-01 07:31N 24°13' E 118°12'46327754.1
2014-Sep-01 07:30N 31°22' E 121°28'1041669.9
2014-Sep-01 07:26N 29°51' E 122°28'6372630.4
2014-Sep-01 07:11N 22°51' E 113°34'9788345.3
2014-Sep-01 07:04N 37°33' E 121°45'9681884.2
2014-Sep-01 06:33N 23°06' E 113°25'659338873.5
2014-Sep-01 06:33N 31°28' E 121°25'36438541.2
2014-Sep-01 06:33N 37°32' E 121°43'97257346.1
2014-Sep-01 06:32N 23°02' E 113°21'7744.0
2014-Sep-01 06:31N 23°04' E 113°29'27554992.7
2014-Sep-01 06:31N 24°18' E 118°18'27514994.1
2014-Sep-01 06:30N 23°04' E 113°29'650106347.8
2014-Sep-01 06:29N 32°00' E 120°23'6581185108.5
2014-Sep-01 06:29N 22°51' E 113°34'6538738.5
2014-Sep-01 06:25N 31°57' E 120°18'1645570.6
2014-Sep-01 06:23N 29°52' E 122°22'6654022.7
2014-Sep-01 06:13N 22°06' E 113°34'7044762.1
2014-Sep-01 06:04N 31°31' E 121°24'6601287.5
2014-Sep-01 05:33N 23°04' E 113°28'118.8
2014-Sep-01 05:31N 23°04' E 113°29'015.6
2014-Sep-01 05:31N 23°04' E 113°29'583553.7
2014-Sep-01 05:30N 22°06' E 113°34'1018140926.3
2014-Sep-01 05:30N 37°32' E 121°42'36362294.2
2014-Sep-01 05:29N 31°29' E 121°27'49293151.8
2014-Sep-01 05:29N 39°05' E 117°44'98530820.1
2014-Sep-01 05:27N 23°06' E 113°25'654784566.0
2014-Sep-01 05:27N 32°02' E 120°27'601269.3
2014-Sep-01 05:24N 31°28' E 121°25'1141493.2
2014-Sep-01 05:20N 29°48' E 122°29'177991.7
2014-Sep-01 05:09N 31°56' E 120°07'6391077.6
2014-Sep-01 04:33N 23°06' E 113°25'101623.0
2014-Sep-01 04:33N 22°58' E 113°32'66370197.7
2014-Sep-01 04:32N 31°25' E 121°32'660339236.0
2014-Sep-01 04:32N 23°04' E 113°29'9531.4
2014-Sep-01 04:31N 22°56' E 113°30'29027515.2
2014-Sep-01 04:31N 24°25' E 118°32'88130502.0
2014-Sep-01 04:29N 39°05' E 117°44'4451602179.5
2014-Sep-01 04:29N 32°02' E 120°32'69853486.1
2014-Sep-01 04:28N 22°10' E 113°35'65235033.9
2014-Sep-01 04:27N 29°37' E 122°23'17110.7
2014-Sep-01 04:18N 29°54' E 122°20'15302.0
2014-Sep-01 04:15N 29°48' E 122°36'46654149.5
2014-Sep-01 04:14N 37°33' E 121°47'4667232.5
2014-Sep-01 04:10N 29°48' E 122°29'6367477.9
2014-Sep-01 04:05N 22°51' E 113°34'9971794.8
2014-Sep-01 03:32N 39°05' E 117°44'103986978.3
2014-Sep-01 03:31N 22°09' E 113°30'70312844.3
2014-Sep-01 03:28N 32°01' E 120°37'1654310.1
2014-Sep-01 03:26N 29°46' E 122°29'3224.2
2014-Sep-01 03:25N 29°47' E 122°32'141255.3
2014-Sep-01 03:24N 29°37' E 122°22'1741151.2
2014-Sep-01 03:15N 31°58' E 120°24'6084.9
2014-Sep-01 02:33N 31°28' E 121°25'65912961.7
2014-Sep-01 02:30N 23°06' E 113°25'420.4
2014-Sep-01 02:19N 23°04' E 113°29'735.4
2014-Sep-01 02:07N 23°02' E 113°22'6641128.6
2014-Sep-01 01:32N 31°28' E 121°25'659474422.9
2014-Sep-01 01:32N 23°06' E 113°25'62931001.1
2014-Sep-01 01:30N 29°50' E 122°23'1042394.9
2014-Sep-01 01:28N 31°25' E 121°32'66014396.0
2014-Sep-01 01:25N 23°04' E 113°29'5923475.6
2014-Sep-01 01:25N 22°09' E 113°52'10137065.1
2014-Sep-01 01:16N 37°31' E 121°57'971151987.0
2014-Sep-01 01:16N 23°04' E 113°29'13185.8
2014-Sep-01 01:12N 22°52' E 113°33'1625.3
2014-Sep-01 00:33N 23°06' E 113°25'579690.0
2014-Sep-01 00:33N 22°12' E 113°45'691355369.1
2014-Sep-01 00:33N 31°24' E 121°31'664217360.2
2014-Sep-01 00:33N 23°02' E 113°22'66443437.6
2014-Sep-01 00:32N 31°28' E 121°25'12811255.5
2014-Sep-01 00:31N 29°31' E 122°26'61811892.6
2014-Sep-01 00:28N 23°04' E 113°29'655196527.9
2014-Sep-01 00:28N 32°01' E 120°33'66421916.4
2014-Sep-01 00:26N 22°52' E 113°33'6612753.0
2014-Sep-01 00:12N 31°21' E 121°26'6541027.5
2014-Aug-31 23:33N 23°06' E 113°25'517907.1
2014-Aug-31 23:33N 22°17' E 113°37'691191234.1
2014-Aug-31 23:33N 32°02' E 120°29'585776.0
2014-Aug-31 23:32N 31°28' E 121°25'65833363.6
2014-Aug-31 23:31N 23°04' E 113°29'655589051.2
2014-Aug-31 23:31N 31°21' E 121°28'1197.0
2014-Aug-31 23:31N 31°21' E 121°26'69815407.8
2014-Aug-31 23:28N 22°11' E 113°25'699770.8
2014-Aug-31 22:33N 31°21' E 121°28'646044.3
2014-Aug-31 22:33N 32°02' E 120°29'633118.9
2014-Aug-31 22:32N 31°21' E 121°26'81293.0
2014-Aug-31 22:31N 31°28' E 121°25'65812337.6
2014-Aug-31 22:28N 23°04' E 113°29'5316010.0
2014-Aug-31 22:28N 22°11' E 113°25'41133.6
2014-Aug-31 22:09N 22°52' E 113°33'6667153.8
2014-Aug-31 22:04N 32°00' E 120°38'51101.1
2014-Aug-31 21:34N 31°28' E 121°25'74354.1
2014-Aug-31 21:33N 31°21' E 121°28'655112365.6
2014-Aug-31 21:33N 23°06' E 113°25'65473596.0
2014-Aug-31 21:33N 31°21' E 121°26'65325561.2
2014-Aug-31 21:31N 23°04' E 113°29'66025275.3
2014-Aug-31 21:29N 32°01' E 120°42'115053.4
2014-Aug-31 21:29N 32°02' E 120°29'67415071.8
2014-Aug-31 21:27N 22°27' E 113°53'6337080.1
2014-Aug-31 21:21N 29°42' E 122°25'118148.5
2014-Aug-31 20:34N 31°28' E 121°25'65987849.8
2014-Aug-31 20:33N 23°06' E 113°25'1611543.3
2014-Aug-31 20:33N 22°52' E 113°33'662140292.2
2014-Aug-31 20:33N 32°02' E 120°29'6548318.6
2014-Aug-31 20:28N 23°04' E 113°29'65467319.1
2014-Aug-31 20:27N 31°21' E 121°28'118.7
2014-Aug-31 20:23N 31°21' E 121°26'6985747.1
2014-Aug-31 20:16N 22°11' E 113°25'5476.0
2014-Aug-31 19:33N 23°05' E 113°28'6552356872.2
2014-Aug-31 19:33N 31°21' E 121°28'7767.8
2014-Aug-31 19:33N 31°28' E 121°25'61222003724.3
2014-Aug-31 19:33N 33°27' W 117°40'6126118562.7
2014-Aug-31 19:30N 31°21' E 121°26'639485.5
2014-Aug-31 19:29N 32°02' E 120°29'65432696.5
2014-Aug-31 19:28N 23°04' E 113°29'5313725.9
2014-Aug-31 19:28N 22°11' E 113°25'2483478.6
2014-Aug-31 19:23N 23°36' E 117°39'230276.0
2014-Aug-31 18:33N 22°59' E 113°31'6572365068.9
2014-Aug-31 18:33N 31°21' E 121°28'505908808.3
2014-Aug-31 18:33N 23°41' E 117°35'510459113.0
2014-Aug-31 18:33N 31°28' E 121°25'581377.1
2014-Aug-31 18:31N 32°02' E 120°29'6542645.1
2014-Aug-31 18:16N 23°04' E 113°29'5313711.4
2014-Aug-31 18:16N 22°11' E 113°25'66411014.5
2014-Aug-31 18:12N 29°42' E 122°27'1124189.5
2014-Aug-31 18:11N 31°21' E 121°26'1 2.2
2014-Aug-31 17:33N 31°21' E 121°28'643328.7
2014-Aug-31 17:32N 32°02' E 120°29'5810944.6
2014-Aug-31 17:32N 31°28' E 121°25'66549853.1
2014-Aug-31 17:31N 22°52' E 113°34'6514602.4
2014-Aug-31 17:23N 31°57' E 120°15'40115845.7
2014-Aug-31 17:21N 25°18' E 119°32'3774947.5
2014-Aug-31 17:17N 31°21' E 121°26'65363554.8
2014-Aug-31 17:16N 23°04' E 113°29'6253806.5
2014-Aug-31 17:06N 29°42' E 122°27'112204.8
2014-Aug-31 16:33N 31°21' E 121°28'6922568.1
2014-Aug-31 16:33N 31°59' E 120°20'658789624.5
2014-Aug-31 16:33N 22°46' E 113°39'78568941.4
2014-Aug-31 16:32N 34°50' E 119°24'22681204.2
2014-Aug-31 16:32N 31°28' E 121°25'8352.4
2014-Aug-31 16:31N 31°21' E 121°26'1128043.0
2014-Aug-31 16:30N 29°42' E 122°27'17210871.9
2014-Aug-31 16:29N 32°02' E 120°29'6549160.0
2014-Aug-31 16:25N 23°04' E 113°29'6583738.7
2014-Aug-31 16:14N 31°24' E 121°31'4 5.8
2014-Aug-31 15:33N 31°21' E 121°28'4981.3
2014-Aug-31 15:33N 31°24' E 121°31'7754.1
2014-Aug-31 15:33N 31°28' E 121°25'6116795.5
2014-Aug-31 15:32N 32°01' E 120°25'41232.5
2014-Aug-31 15:32N 32°02' E 120°29'1724803.7
2014-Aug-31 15:30N 29°42' E 122°27'62517854.8
2014-Aug-31 15:28N 23°04' E 113°29'9713562.2
2014-Aug-31 15:12N 37°34' E 121°49'338527.2
2014-Aug-31 14:33N 32°02' E 120°29'17657553.6
2014-Aug-31 14:33N 34°49' E 119°23'1779348.8
2014-Aug-31 14:32N 32°02' E 120°29'641026.8
2014-Aug-31 14:28N 31°24' E 121°31'4323.2
2014-Aug-31 14:27N 31°22' E 121°28'65516138.5
2014-Aug-31 14:25N 23°04' E 113°29'53344.2
2014-Aug-31 14:16N 22°11' E 113°25'52255.7
2014-Aug-31 14:03N 23°03' E 113°19'6611323.3
2014-Aug-31 13:33N 31°21' E 121°28'6411483.5
2014-Aug-31 13:33N 32°02' E 120°29'587997.0
2014-Aug-31 13:33N 31°28' E 121°25'545862.1
2014-Aug-31 13:32N 32°01' E 120°35'59213954.0
2014-Aug-31 13:32N 31°21' E 121°26'6539757.7
2014-Aug-31 13:28N 23°04' E 113°29'3737226.5
2014-Aug-31 13:25N 25°45' E 119°39'3531272.9
2014-Aug-31 13:08N 31°24' E 121°31'6591133.0
2014-Aug-31 12:33N 23°05' E 113°27'6551179401.6
2014-Aug-31 12:33N 31°21' E 121°28'71305.2
2014-Aug-31 12:33N 31°28' E 121°25'69441612.4
2014-Aug-31 12:32N 22°09' E 113°45'68813767.7
2014-Aug-31 12:29N 31°21' E 121°26'65336176.5
2014-Aug-31 12:28N 23°04' E 113°29'539607.7
2014-Aug-31 12:28N 22°11' E 113°25'7036340.0
2014-Aug-31 12:21N 31°24' E 121°31'7 8.5
2014-Aug-31 11:34N 31°28' E 121°25'72893.9
2014-Aug-31 11:33N 31°21' E 121°27'654130851.4
2014-Aug-31 11:33N 23°04' E 113°30'654784576.0
2014-Aug-31 11:33N 32°02' E 120°29'6952500942.4
2014-Aug-31 11:33N 22°04' E 113°51'68982703.5
2014-Aug-31 11:33N 31°21' E 121°26'6611189228.4
2014-Aug-31 11:32N 22°52' E 113°33'663103782.5
2014-Aug-31 11:32N 32°01' E 120°31'6325252.0
2014-Aug-31 11:32N 31°23' E 121°30'6572547.1
2014-Aug-31 11:16N 23°04' E 113°29'53249.2
2014-Aug-31 11:04N 22°11' E 113°25'53105.6
2014-Aug-31 10:33N 23°04' E 113°30'64392569.0
2014-Aug-31 10:33N 31°57' E 120°15'7115906.1
2014-Aug-31 10:33N 31°21' E 121°27'6629666.1
2014-Aug-31 10:33N 32°01' E 120°26'6054167.0
2014-Aug-31 10:33N 31°28' E 121°25'583783.8
2014-Aug-31 10:32N 32°02' E 120°29'70110470.2
2014-Aug-31 10:28N 22°11' E 113°25'699193529.5
2014-Aug-31 10:27N 31°21' E 121°27'65419797.9
2014-Aug-31 10:25N 23°04' E 113°29'658760.9
2014-Aug-31 09:34N 31°28' E 121°25'73726.6
2014-Aug-31 09:33N 31°21' E 121°27'654294413.5
2014-Aug-31 09:33N 23°04' E 113°30'64733738.3
2014-Aug-31 09:32N 31°58' E 120°20'8322.1
2014-Aug-31 09:31N 32°02' E 120°29'643166.7
2014-Aug-31 09:29N 31°21' E 121°27'65437985.0
2014-Aug-31 09:28N 23°04' E 113°29'53469.7
2014-Aug-31 09:22N 22°11' E 113°25'411851.9
2014-Aug-31 09:20N 22°52' E 113°33'38151.2
2014-Aug-31 09:05N 22°13' E 113°35'6921312.9
2014-Aug-31 08:33N 31°21' E 121°27'679226.1
2014-Aug-31 08:33N 32°00' E 120°24'6501169278.7
2014-Aug-31 08:33N 23°04' E 113°30'4919710.8
2014-Aug-31 08:33N 22°15' E 113°36'689310167.3
2014-Aug-31 08:33N 31°21' E 121°27'7398.2
2014-Aug-31 08:32N 31°28' E 121°25'65812599.8
2014-Aug-31 08:28N 23°04' E 113°29'3743553.4
2014-Aug-31 08:22N 26°03' E 119°30'40647145.0
2014-Aug-31 08:22N 22°11' E 113°25'699870.2
2014-Aug-31 07:33N 31°21' E 121°27'654294411.3
2014-Aug-31 07:33N 23°04' E 113°30'368110464.0
2014-Aug-31 07:33N 25°59' E 119°26'34031355.8
2014-Aug-31 07:32N 31°21' E 121°27'7416.9
2014-Aug-31 07:31N 31°28' E 121°25'8382.4
2014-Aug-31 07:30N 31°21' E 121°26'6613776.9
2014-Aug-31 07:20N 22°54' E 113°30'11199.9
2014-Aug-31 07:16N 23°04' E 113°29'533768.7
2014-Aug-31 07:16N 22°11' E 113°25'699994.4
2014-Aug-31 06:33N 31°21' E 121°27'654294415.4
2014-Aug-31 06:33N 23°04' E 113°30'65446163.4
2014-Aug-31 06:32N 31°21' E 121°27'7410.0
2014-Aug-31 06:31N 31°28' E 121°25'666217903.0
2014-Aug-31 06:31N 22°54' E 113°30'4107.3
2014-Aug-31 06:29N 22°51' E 113°34'141450.4
2014-Aug-31 06:28N 23°04' E 113°29'65520876.4
2014-Aug-31 06:27N 31°22' E 121°28'1121367.3
2014-Aug-31 06:22N 29°42' E 122°27'664478043.3
2014-Aug-31 06:22N 22°11' E 113°25'103816320.6
2014-Aug-31 06:18N 39°05' E 117°44'0 0.2
2014-Aug-31 05:33N 39°05' E 117°44'498448362.3
2014-Aug-31 05:33N 31°21' E 121°27'654392551.3
2014-Aug-31 05:33N 23°04' E 113°30'985107502.0
2014-Aug-31 05:33N 39°05' E 117°44'60917394.2
2014-Aug-31 05:31N 29°42' E 122°25'1181941.5
2014-Aug-31 05:27N 31°28' E 121°25'6779.7
2014-Aug-31 05:27N 31°24' E 121°31'6583011.7
2014-Aug-31 05:13N 23°04' E 113°29'352125.0
2014-Aug-31 05:12N 22°34' E 113°47'6367199.2
2014-Aug-31 05:07N 29°55' E 122°18'5921055.0
2014-Aug-31 04:33N 39°04' E 117°49'496357056.9
2014-Aug-31 04:33N 31°21' E 121°27'654392551.3
2014-Aug-31 04:33N 23°04' E 113°30'65911990.3
2014-Aug-31 04:30N 31°31' E 121°25'1045273.0
2014-Aug-31 04:29N 29°57' E 122°16'59317070.3
2014-Aug-31 04:27N 39°05' E 117°44'4918708.7
2014-Aug-31 04:23N 31°28' E 121°25'6585694.2
2014-Aug-31 04:16N 23°04' E 113°29'43752.7
2014-Aug-31 04:13N 22°28' E 113°53'10171545.7
2014-Aug-31 03:33N 39°05' E 117°44'1017228898.0
2014-Aug-31 03:33N 22°27' E 113°53'1018732664.5
2014-Aug-31 03:33N 39°04' E 117°51'43044.0
2014-Aug-31 03:33N 39°05' E 117°46'985591175.4
2014-Aug-31 03:33N 23°04' E 113°30'628753706.6
2014-Aug-31 03:33N 29°53' E 122°22'1001951.8
2014-Aug-31 03:30N 31°21' E 121°27'4798.9
2014-Aug-31 03:30N 31°25' E 121°30'4119.5
2014-Aug-31 03:27N 31°21' E 121°27'69873917.1
2014-Aug-31 03:27N 22°13' E 113°24'103711484.0
2014-Aug-31 03:21N 39°04' E 117°48'98514716.1
2014-Aug-31 03:17N 23°04' E 113°29'66012498.7
2014-Aug-31 03:14N 31°27' E 121°29'36525743.3
2014-Aug-31 03:13N 37°31' E 121°57'214321.2
2014-Aug-31 02:33N 39°04' E 117°51'072.0
2014-Aug-31 02:33N 39°04' E 117°51'9861774626.4
2014-Aug-31 02:33N 23°04' E 113°29'33789.1
2014-Aug-31 02:33N 23°04' E 113°26'987355207.8
2014-Aug-31 02:33N 39°04' E 117°51'496137236.6
2014-Aug-31 02:33N 31°21' E 121°27'670172356.5
2014-Aug-31 02:33N 22°27' E 113°53'331960.1
2014-Aug-31 02:32N 22°18' E 113°19'70226308.3
2014-Aug-31 02:30N 31°25' E 121°31'5115.0
2014-Aug-31 02:27N 31°21' E 121°27'101427.4
2014-Aug-31 02:13N 29°52' E 122°22'46310037.4
2014-Aug-31 02:10N 37°35' E 121°55'3667792.9
2014-Aug-31 02:08N 31°30' E 121°24'490859.6
2014-Aug-31 01:33N 39°05' E 117°44'498448469.5
2014-Aug-31 01:33N 31°21' E 121°27'4971790695.6
2014-Aug-31 01:33N 39°05' E 117°46'985506802.5
2014-Aug-31 01:33N 23°04' E 113°29'986507254.1
2014-Aug-31 01:33N 39°05' E 117°50'101871862.1
2014-Aug-31 01:32N 22°27' E 113°53'67247461.9
2014-Aug-31 01:31N 31°21' E 121°32'1005017.9
2014-Aug-31 01:30N 29°50' E 122°23'114.2
2014-Aug-31 01:28N 29°50' E 122°23'1031513.5
2014-Aug-31 01:24N 31°21' E 121°27'68421805.3
2014-Aug-31 01:22N 22°09' E 113°54'65449076.4
2014-Aug-31 01:21N 29°48' E 122°34'603759.1
2014-Aug-31 00:33N 39°04' E 117°50'9453401597.9
2014-Aug-31 00:33N 23°21' E 116°35'15995356.6
2014-Aug-31 00:33N 22°27' E 113°53'4351500.4
2014-Aug-31 00:33N 23°04' E 113°29'986506838.9
2014-Aug-31 00:33N 39°05' E 117°44'49889706.5
2014-Aug-31 00:33N 31°21' E 121°27'7171.7
2014-Aug-31 00:30N 31°15' E 121°32'9314626.9
2014-Aug-31 00:30N 29°52' E 122°22'65320808.0
2014-Aug-31 00:28N 22°11' E 113°47'683117074.0
2014-Aug-31 00:28N 31°15' E 121°30'5029364.7
2014-Aug-31 00:24N 39°04' E 117°51'49523450.4
2014-Aug-31 00:23N 31°21' E 121°27'6624025.3
2014-Aug-31 00:13N 22°52' E 113°33'647973.1
2014-Aug-30 23:33N 30°01' E 122°34'5922130972.7
2014-Aug-30 23:33N 39°04' E 117°50'986709707.5
2014-Aug-30 23:33N 23°04' E 113°29'986443664.2
2014-Aug-30 23:33N 39°04' E 117°51'9453402519.5
2014-Aug-30 23:33N 23°21' E 116°41'16498406.4
2014-Aug-30 23:33N 22°27' E 113°53'638191290.0
2014-Aug-30 23:33N 29°52' E 122°22'65546223.2
2014-Aug-30 23:32N 22°15' E 113°40'371586.4
2014-Aug-30 23:31N 22°52' E 113°33'66227389.2
2014-Aug-30 23:29N 31°21' E 121°27'739.5
2014-Aug-30 23:18N 31°28' E 121°25'1832444.4
2014-Aug-30 23:18N 31°10' E 121°28'534718.4
2014-Aug-30 22:33N 23°18' E 116°47'168151253.0
2014-Aug-30 22:33N 22°27' E 113°53'6702413091.2
2014-Aug-30 22:33N 31°21' E 121°27'654471094.5
2014-Aug-30 22:33N 23°04' E 113°29'6549424.7
2014-Aug-30 22:29N 31°21' E 121°27'66246725.6
2014-Aug-30 22:28N 22°52' E 113°33'6662695.3
2014-Aug-30 22:13N 31°28' E 121°25'6741010.4
2014-Aug-30 21:33N 22°27' E 113°54'4319420.5
2014-Aug-30 21:33N 23°04' E 113°29'658215360.6
2014-Aug-30 21:33N 31°28' E 121°25'8279.8
2014-Aug-30 21:31N 31°20' E 121°26'137.0
2014-Aug-30 21:29N 31°21' E 121°27'6623173.1
2014-Aug-30 21:17N 22°52' E 113°33'1318.2
2014-Aug-30 20:33N 23°04' E 113°29'6562361085.5
2014-Aug-30 20:33N 31°22' E 121°29'7290.3
2014-Aug-30 20:32N 31°28' E 121°25'7164.1
2014-Aug-30 20:29N 31°21' E 121°27'6624173.4
2014-Aug-30 20:20N 22°52' E 113°33'9843701.1
2014-Aug-30 20:04N 37°34' E 121°56'9991972.1
2014-Aug-30 19:33N 22°27' E 113°54'4311112.7
2014-Aug-30 19:33N 23°04' E 113°29'65598311.6
2014-Aug-30 19:33N 31°22' E 121°28'72349.2
2014-Aug-30 19:32N 31°28' E 121°25'3671098.8
2014-Aug-30 19:12N 37°34' E 121°53'8041238.4
2014-Aug-30 18:33N 24°33' E 118°11'4491615802.5
2014-Aug-30 18:33N 31°28' E 121°25'6742427071.4
2014-Aug-30 18:33N 22°27' E 113°54'4338903.8
2014-Aug-30 18:33N 23°04' E 113°29'658197527.9
2014-Aug-30 18:33N 31°24' E 121°31'6642419.3
2014-Aug-30 18:17N 23°02' E 113°22'7 9.3
2014-Aug-30 17:33N 23°04' E 113°29'436483.2
2014-Aug-30 17:33N 22°27' E 113°54'67447589.3
2014-Aug-30 17:32N 31°28' E 121°25'695.4
2014-Aug-30 17:28N 31°24' E 121°30'66015536.0
2014-Aug-30 17:26N 23°04' E 113°26'27610032.7
2014-Aug-30 17:24N 24°34' E 118°11'2691134.6
2014-Aug-30 17:10N 22°27' E 113°53'4370.2
2014-Aug-30 16:33N 23°04' E 113°29'4317311.1
2014-Aug-30 16:33N 22°27' E 113°54'425375.3
2014-Aug-30 16:33N 23°03' E 113°30'2726326.6
2014-Aug-30 16:30N 24°34' E 118°11'44715036.9
2014-Aug-30 16:28N 31°24' E 121°30'3703632.6
2014-Aug-30 16:22N 37°34' E 121°58'3676701.0
2014-Aug-30 16:19N 31°28' E 121°25'658871.6
2014-Aug-30 15:33N 23°04' E 113°29'42338.9
2014-Aug-30 15:26N 22°28' E 113°52'10003525.3
2014-Aug-30 15:09N 37°34' E 121°59'3678418.8
2014-Aug-30 15:06N 31°28' E 121°25'771850.6
2014-Aug-30 15:04N 31°58' E 120°02'5161004.1
2014-Aug-30 14:33N 23°39' E 117°36'5111840033.2
2014-Aug-30 14:33N 31°28' E 121°25'66064175.6
2014-Aug-30 14:32N 23°01' E 113°31'64169881.8
2014-Aug-30 14:32N 31°58' E 120°05'65953946.9
2014-Aug-30 14:31N 22°28' E 113°52'675404973.5
2014-Aug-30 14:31N 31°25' E 121°30'504523.7
2014-Aug-30 13:33N 23°43' E 117°42'24223584.2
2014-Aug-30 13:33N 22°17' E 113°35'67823229.8
2014-Aug-30 13:31N 31°57' E 120°10'649233555.2
2014-Aug-30 13:31N 22°53' E 113°31'6663980.6
2014-Aug-30 13:21N 31°28' E 121°25'319.5
2014-Aug-30 13:12N 31°30' E 121°22'6931065.3
2014-Aug-30 12:33N 22°12' E 113°43'68154470.9
2014-Aug-30 12:32N 31°57' E 120°15'135696.3
2014-Aug-30 12:20N 30°35' E 122°21'47317186.9
2014-Aug-30 12:19N 23°49' E 117°48'508673.6
2014-Aug-30 11:33N 31°59' E 120°20'13147148.8
2014-Aug-30 11:33N 30°42' E 122°24'69224902.9
2014-Aug-30 11:32N 22°06' E 113°50'281657.6
2014-Aug-30 11:06N 24°34' E 118°11'464856.4
2014-Aug-30 10:33N 32°02' E 120°26'4433669.4
2014-Aug-30 10:26N 39°05' E 117°44'5 6.1
2014-Aug-30 09:33N 39°04' E 117°51'44354957.7
2014-Aug-30 09:33N 32°02' E 120°33'49913115.0
2014-Aug-30 09:31N 23°58' E 118°12'264698.3
2014-Aug-30 09:08N 22°52' E 113°33'9971735.5
2014-Aug-30 08:33N 39°05' E 117°44'51283.5
2014-Aug-30 08:33N 39°04' E 117°51'9973748.0
2014-Aug-30 08:17N 22°52' E 113°33'9971353.4
2014-Aug-30 07:33N 39°05' E 117°44'53224.1
2014-Aug-30 07:33N 39°05' E 117°51'99814722.4
2014-Aug-30 07:29N 22°52' E 113°33'9971077.5
2014-Aug-30 06:33N 39°05' E 117°44'5565.7
2014-Aug-30 06:33N 39°04' E 117°51'790406084.8
2014-Aug-30 06:33N 25°59' E 119°26'7911423747.0
2014-Aug-30 06:33N 39°05' E 117°44'10302998.3
2014-Aug-30 06:12N 22°17' E 113°35'10301603.3
2014-Aug-30 05:33N 39°05' E 117°45'31741.9
2014-Aug-30 05:33N 39°04' E 117°48'4272.4
2014-Aug-30 05:33N 39°05' E 117°44'491196430.4
2014-Aug-30 05:32N 31°28' E 121°25'3479109.7
2014-Aug-30 05:30N 25°58' E 119°26'389155773.8
2014-Aug-30 05:30N 22°15' E 113°36'36326.1
2014-Aug-30 05:23N 22°51' E 113°34'15123.3
2014-Aug-30 05:16N 23°02' E 113°23'9891389.8
2014-Aug-30 04:33N 39°04' E 117°51'599.9
2014-Aug-30 04:30N 39°05' E 117°44'98684472.0
2014-Aug-30 04:30N 23°04' E 113°29'98620389.8
2014-Aug-30 04:27N 39°05' E 117°44'79219270.4
2014-Aug-30 04:24N 25°58' E 119°26'37127271.8
2014-Aug-30 04:23N 22°51' E 113°34'9986057.4
2014-Aug-30 04:13N 39°04' E 117°51'1 1.0
2014-Aug-30 03:33N 39°04' E 117°52'62548.1
2014-Aug-30 03:33N 39°05' E 117°44'2279.6
2014-Aug-30 03:33N 39°04' E 117°47'2113.4
2014-Aug-30 03:32N 39°05' E 117°44'98593357.0
2014-Aug-30 03:31N 23°04' E 113°30'2645284.6
2014-Aug-30 03:28N 23°58' E 118°12'2691432.6
2014-Aug-30 03:17N 22°44' E 113°29'10051396.8
2014-Aug-30 02:33N 39°04' E 117°51'310397.1
2014-Aug-30 02:33N 39°04' E 117°47'2758.1
2014-Aug-30 02:33N 39°04' E 117°49'1772.0
2014-Aug-30 02:33N 39°04' E 117°50'5467920.3
2014-Aug-30 02:29N 30°47' E 122°23'6643916.1
2014-Aug-30 02:19N 23°04' E 113°30'2642760.2
2014-Aug-30 02:13N 23°59' E 118°11'9051367.1
2014-Aug-30 01:33N 39°04' E 117°50'11519.9
2014-Aug-30 01:33N 39°04' E 117°51'11600.6
2014-Aug-30 01:33N 39°04' E 117°49'1559.0
2014-Aug-30 01:33N 39°04' E 117°48'9854133.9
2014-Aug-30 01:19N 23°04' E 113°30'2621249.8
2014-Aug-30 01:06N 23°57' E 118°10'483133795.3
2014-Aug-30 01:06N 31°28' E 121°25'68932210.4
2014-Aug-30 01:05N 22°09' E 113°54'10351975.6
2014-Aug-30 00:33N 39°04' E 117°49'2423.2
2014-Aug-30 00:33N 39°05' E 117°46'1034155126.5
2014-Aug-30 00:33N 22°11' E 113°50'362181.6
2014-Aug-30 00:32N 22°25' E 113°14'423424.8
2014-Aug-30 00:31N 23°04' E 113°30'6585775.8
2014-Aug-30 00:24N 31°28' E 121°25'48493.5
2014-Aug-30 00:18N 32°00' E 120°43'5 6.4
2014-Aug-29 23:33N 31°60' E 120°37'70071966.3
2014-Aug-29 23:33N 22°19' E 113°19'22605.6
2014-Aug-29 23:31N 22°14' E 113°42'6923678.7
2014-Aug-29 23:19N 31°30' E 121°24'659103071.8
2014-Aug-29 23:19N 23°04' E 113°30'0 0.0
2014-Aug-29 22:33N 23°04' E 113°30'655785635.4
2014-Aug-29 22:33N 32°01' E 120°32'7011261226.9
2014-Aug-29 22:33N 22°13' E 113°24'40487.8
2014-Aug-29 22:28N 22°52' E 113°33'6663370.1
2014-Aug-29 22:16N 31°28' E 121°25'212.6
2014-Aug-29 22:09N 31°30' E 121°24'0 0.0
2014-Aug-29 21:32N 31°30' E 121°24'561686.2
2014-Aug-29 21:30N 32°02' E 120°30'57156.2
2014-Aug-29 21:08N 31°28' E 121°25'65815579.4
2014-Aug-29 21:06N 23°04' E 113°30'6581167.1
2014-Aug-29 20:32N 31°28' E 121°25'9157.1
2014-Aug-29 20:29N 31°23' E 121°33'663006.6
2014-Aug-29 20:27N 32°02' E 120°30'25631.0
2014-Aug-29 20:25N 31°59' E 120°01'6389408.2
2014-Aug-29 20:21N 23°04' E 113°30'0 0.0
2014-Aug-29 19:33N 23°04' E 113°30'65437369.9
2014-Aug-29 19:32N 32°02' E 120°30'5823051.1
2014-Aug-29 19:32N 31°28' E 121°25'74989.8
2014-Aug-29 19:27N 31°58' E 120°05'3104.5
2014-Aug-29 19:26N 31°59' E 120°02'761929.1
2014-Aug-29 19:23N 31°30' E 121°24'13298.1
2014-Aug-29 19:21N 31°19' E 121°34'656827.4
2014-Aug-29 18:33N 23°04' E 113°30'65842286.9
2014-Aug-29 18:32N 31°28' E 121°25'616261.2
2014-Aug-29 18:32N 32°00' E 120°24'15261.0
2014-Aug-29 18:28N 31°57' E 120°07'323.9
2014-Aug-29 18:21N 31°57' E 120°10'177223.2
2014-Aug-29 17:33N 34°50' E 119°25'225405196.0
2014-Aug-29 17:33N 31°28' E 121°25'671565.1
2014-Aug-29 17:31N 31°57' E 120°13'2843.7
2014-Aug-29 17:31N 31°57' E 120°11'41594.7
2014-Aug-29 17:31N 31°57' E 120°17'667149967.7
2014-Aug-29 17:30N 22°24' E 113°54'678101651.5
2014-Aug-29 17:30N 31°30' E 121°24'6581185238.4
2014-Aug-29 17:30N 23°04' E 113°30'658682.8
2014-Aug-29 16:32N 31°28' E 121°25'642030.5
2014-Aug-29 16:30N 31°58' E 120°18'12632.6
2014-Aug-29 16:30N 31°57' E 120°16'1751133.7
2014-Aug-29 16:21N 29°42' E 122°25'62312971.8
2014-Aug-29 16:18N 23°04' E 113°30'12147.0
2014-Aug-29 16:13N 22°54' E 113°22'4 5.7
2014-Aug-29 15:33N 22°55' E 113°26'65910727.6
2014-Aug-29 15:30N 32°00' E 120°22'11682.3
2014-Aug-29 15:30N 31°60' E 120°21'1715698.6
2014-Aug-29 15:28N 29°47' E 122°26'6273788.9
2014-Aug-29 15:18N 23°04' E 113°29'912.4
2014-Aug-29 14:33N 22°55' E 113°30'66011101.2
2014-Aug-29 14:30N 32°02' E 120°26'141.3
2014-Aug-29 14:28N 32°01' E 120°25'59373.8
2014-Aug-29 14:19N 31°30' E 121°24'65910879.0
2014-Aug-29 14:15N 23°04' E 113°29'2 3.2
2014-Aug-29 13:33N 23°02' E 113°31'6568172.0
2014-Aug-29 13:29N 32°02' E 120°31'5528410.7
2014-Aug-29 13:29N 31°30' E 121°24'564111.6
2014-Aug-29 13:28N 32°02' E 120°30'57298.4
2014-Aug-29 13:16N 31°28' E 121°25'69311760.6
2014-Aug-29 13:13N 22°17' E 113°35'6931062.2
2014-Aug-29 12:34N 32°01' E 120°36'656590624.2
2014-Aug-29 12:33N 23°04' E 113°30'521119.6
2014-Aug-29 12:31N 22°13' E 113°39'69513523.3
2014-Aug-29 12:28N 32°01' E 120°35'65765687.9
2014-Aug-29 12:27N 23°04' E 113°29'0 0.5
2014-Aug-29 11:34N 23°04' E 113°30'594509.4
2014-Aug-29 11:33N 22°07' E 113°46'6988465.2
2014-Aug-29 11:28N 32°00' E 120°40'153.4
2014-Aug-29 11:27N 32°01' E 120°41'3938.8
2014-Aug-29 11:27N 31°60' E 120°38'3677823.4
2014-Aug-29 11:24N 25°58' E 119°26'281330.4
2014-Aug-29 10:33N 29°56' E 122°14'153549104.1
2014-Aug-29 10:33N 32°01' E 120°32'655124041.5
2014-Aug-29 10:32N 23°04' E 113°30'3688229.3
2014-Aug-29 10:30N 25°58' E 119°26'3471571.8
2014-Aug-29 10:17N 31°28' E 121°25'219.2
2014-Aug-29 10:12N 31°30' E 121°24'6581028.4
2014-Aug-29 09:33N 23°04' E 113°30'3686558.9
2014-Aug-29 09:30N 25°58' E 119°26'3687318.7
2014-Aug-29 09:27N 32°02' E 120°27'60429.4
2014-Aug-29 09:18N 31°28' E 121°25'66616639.0
2014-Aug-29 09:16N 22°52' E 113°33'1318.2
2014-Aug-29 08:33N 23°04' E 113°30'65815682.6
2014-Aug-29 08:31N 31°28' E 121°25'34724000.6
2014-Aug-29 08:30N 25°58' E 119°26'36117811.5
2014-Aug-29 08:29N 31°56' E 120°16'6518029.6
2014-Aug-29 08:24N 22°52' E 113°33'42161.6
2014-Aug-29 08:08N 22°10' E 113°27'69521763.1
2014-Aug-29 08:06N 31°59' E 120°21'6481181.8
2014-Aug-29 07:33N 23°04' E 113°30'13527.1
2014-Aug-29 07:32N 22°52' E 113°33'653335914.3
2014-Aug-29 07:32N 31°57' E 120°18'28637.9
2014-Aug-29 07:32N 31°57' E 120°15'64348214.2
2014-Aug-29 07:31N 23°04' E 113°29'65815284.8
2014-Aug-29 07:28N 31°28' E 121°25'3472000.1
2014-Aug-29 07:18N 25°58' E 119°26'3993791.8
2014-Aug-29 07:11N 22°09' E 113°28'5 8.0
2014-Aug-29 06:33N 22°11' E 113°33'1037933317.4
2014-Aug-29 06:33N 39°05' E 117°44'1001211912.0
2014-Aug-29 06:33N 22°32' E 120°06'5671021060.1
2014-Aug-29 06:33N 31°59' E 120°19'64762937.1
2014-Aug-29 06:32N 23°04' E 113°29'658118450.1
2014-Aug-29 06:32N 31°28' E 121°25'65827872.5
2014-Aug-29 06:31N 23°04' E 113°29'63815211.1
2014-Aug-29 06:28N 31°59' E 120°01'49610955.4
2014-Aug-29 06:25N 23°52' E 118°17'1414685.8
2014-Aug-29 06:24N 25°58' E 119°26'210250.6
2014-Aug-29 05:33N 22°33' E 120°15'3751350764.1
2014-Aug-29 05:33N 23°04' E 113°29'649233808.3
2014-Aug-29 05:33N 31°60' E 120°23'442530434.2
2014-Aug-29 05:33N 39°04' E 117°51'103828093.0
2014-Aug-29 05:31N 22°10' E 113°34'68344703.4
2014-Aug-29 05:30N 31°58' E 120°05'63915973.0
2014-Aug-29 05:28N 23°04' E 113°29'3685436.0
2014-Aug-29 05:24N 25°58' E 119°26'368440.2
2014-Aug-29 04:33N 23°04' E 113°29'57206223.9
2014-Aug-29 04:33N 22°10' E 113°51'10343722490.4
2014-Aug-29 04:33N 39°04' E 117°47'44293579.9
2014-Aug-29 04:33N 32°02' E 120°27'6010746.2
2014-Aug-29 04:33N 31°28' E 121°25'34712602.4
2014-Aug-29 04:31N 25°58' E 119°26'36119697.5
2014-Aug-29 04:30N 31°57' E 120°10'68421423.5
2014-Aug-29 04:28N 22°10' E 113°34'411028.7
2014-Aug-29 04:26N 22°51' E 113°34'13115.1
2014-Aug-29 04:19N 23°04' E 113°29'6603154.3
2014-Aug-29 04:06N 31°31' E 121°24'65118.5
2014-Aug-29 03:33N 31°57' E 120°15'6982630.3
2014-Aug-29 03:33N 31°28' E 121°28'660263906.3
2014-Aug-29 03:33N 23°04' E 113°29'523568.0
2014-Aug-29 03:32N 22°14' E 113°43'382925.2
2014-Aug-29 03:32N 22°51' E 113°34'66764921.3
2014-Aug-29 03:31N 31°29' E 121°27'660148455.8
2014-Aug-29 03:31N 23°04' E 113°29'27420968.8
2014-Aug-29 03:30N 24°38' E 118°10'46115663.0
2014-Aug-29 03:28N 32°02' E 120°31'70129339.1
2014-Aug-29 03:27N 22°10' E 113°30'701788.7
2014-Aug-29 02:33N 31°24' E 121°31'7184659.2
2014-Aug-29 02:33N 31°59' E 120°19'647388123.6
2014-Aug-29 02:33N 23°04' E 113°29'656472162.5
2014-Aug-29 02:33N 32°01' E 120°33'69212277.7
2014-Aug-29 02:30N 22°17' E 113°36'69326551.2
2014-Aug-29 02:28N 31°25' E 121°32'6606453.8
2014-Aug-29 02:22N 23°04' E 113°29'65840847.6
2014-Aug-29 02:21N 31°28' E 121°25'658824.9
2014-Aug-29 01:33N 23°04' E 113°29'6581184499.6
2014-Aug-29 01:33N 31°28' E 121°25'5223530.5
2014-Aug-29 01:33N 32°01' E 120°36'11830.4
2014-Aug-29 01:32N 32°00' E 120°24'66311.9
2014-Aug-29 01:20N 31°21' E 121°27'47310206.6
2014-Aug-29 01:17N 23°57' E 118°20'272375.2
2014-Aug-29 00:33N 23°04' E 113°29'26621287.0
2014-Aug-29 00:33N 23°55' E 118°14'50238443.5
2014-Aug-29 00:32N 32°02' E 120°28'652178.3
2014-Aug-29 00:30N 31°21' E 121°27'8630.1
2014-Aug-29 00:29N 31°28' E 121°25'6665482.9
2014-Aug-29 00:22N 22°52' E 113°33'6642971.4
2014-Aug-29 00:09N 32°00' E 120°34'502858.9
2014-Aug-28 23:34N 23°54' E 118°14'26626632.9
2014-Aug-28 23:33N 23°04' E 113°29'6581184491.1
2014-Aug-28 23:33N 31°28' E 121°25'5515289.3
2014-Aug-28 23:33N 32°02' E 120°33'3333.4
2014-Aug-28 23:32N 32°02' E 120°30'63970.9
2014-Aug-28 23:28N 31°21' E 121°27'654712.4
2014-Aug-28 22:33N 23°04' E 113°29'65429784.8
2014-Aug-28 22:32N 31°21' E 121°27'663170.0
2014-Aug-28 22:31N 32°01' E 120°24'659474662.4
2014-Aug-28 22:31N 22°52' E 113°33'13142.7
2014-Aug-28 22:25N 23°04' E 113°29'53183.4
2014-Aug-28 22:08N 22°11' E 113°25'5392.2
2014-Aug-28 21:33N 23°04' E 113°29'13860.0
2014-Aug-28 21:32N 22°52' E 113°33'293217.5
2014-Aug-28 21:32N 22°28' E 113°52'6673361.2
2014-Aug-28 21:20N 31°58' E 120°20'6380.7
2014-Aug-28 20:33N 31°28' E 121°25'6582369122.6
2014-Aug-28 20:33N 23°04' E 113°29'0 0.4
2014-Aug-28 20:25N 23°04' E 113°29'6435422.0
2014-Aug-28 20:18N 31°56' E 120°16'6523916.2
2014-Aug-28 20:08N 22°52' E 113°33'1322.7
2014-Aug-28 19:33N 23°04' E 113°29'6541176602.9
2014-Aug-28 19:33N 31°21' E 121°27'7729.4
2014-Aug-28 19:33N 31°28' E 121°25'66615262.3
2014-Aug-28 19:30N 22°52' E 113°33'13100.1
2014-Aug-28 19:22N 23°04' E 113°29'0 0.1
2014-Aug-28 18:33N 23°04' E 113°29'65830766.5
2014-Aug-28 18:32N 31°28' E 121°25'7171.9
2014-Aug-28 18:29N 31°21' E 121°27'6549489.1
2014-Aug-28 18:25N 23°04' E 113°29'0 0.1
2014-Aug-28 17:33N 23°04' E 113°29'65840152.3
2014-Aug-28 17:32N 31°28' E 121°25'71419.4
2014-Aug-28 17:32N 31°21' E 121°27'6545711.5
2014-Aug-28 17:25N 23°04' E 113°29'6562397.9
2014-Aug-28 17:09N 31°21' E 121°30'232395.2
2014-Aug-28 16:33N 34°49' E 119°29'773252850.2
2014-Aug-28 16:33N 23°04' E 113°29'65852644.5
2014-Aug-28 16:33N 31°28' E 121°25'8628.2
2014-Aug-28 16:32N 31°21' E 121°27'863.1
2014-Aug-28 16:24N 31°23' E 121°35'66016979.2
2014-Aug-28 16:22N 23°04' E 113°29'6596612.9
2014-Aug-28 16:16N 31°31' E 121°23'659919.7
2014-Aug-28 15:33N 23°04' E 113°29'660474896.6
2014-Aug-28 15:33N 31°28' E 121°27'2249828.4
2014-Aug-28 15:32N 34°49' E 119°29'28917623.7
2014-Aug-28 15:31N 30°45' E 122°33'679320.8
2014-Aug-28 15:30N 31°21' E 121°27'6547817.8
2014-Aug-28 15:25N 23°04' E 113°29'660765.4
2014-Aug-28 14:33N 31°25' E 121°32'660103252.2
2014-Aug-28 14:33N 23°04' E 113°29'7722778989.1
2014-Aug-28 14:33N 34°49' E 119°28'79021233.7
2014-Aug-28 14:31N 22°48' E 113°19'6843908.7
2014-Aug-28 14:20N 30°38' E 122°36'50113064.5
2014-Aug-28 14:18N 22°57' E 118°57'3021298.3
2014-Aug-28 14:04N 23°04' E 113°29'0 0.1
2014-Aug-28 13:33N 23°04' E 113°29'77253436.4
2014-Aug-28 13:33N 34°49' E 119°29'23012747.3
2014-Aug-28 13:31N 31°21' E 121°27'65494126.2
2014-Aug-28 13:31N 23°04' E 113°29'66629604.1
2014-Aug-28 13:30N 30°38' E 122°36'731257.6
2014-Aug-28 13:26N 31°25' E 121°32'726.5
2014-Aug-28 13:11N 31°28' E 121°25'223357.5
2014-Aug-28 12:33N 34°49' E 119°28'772555758.6
2014-Aug-28 12:33N 23°04' E 113°29'665798008.1
2014-Aug-28 12:33N 30°36' E 122°36'66518001.0
2014-Aug-28 12:31N 23°04' E 113°29'65445253.0
2014-Aug-28 12:30N 31°21' E 121°27'6228.5
2014-Aug-28 12:29N 31°25' E 121°32'7783.1
2014-Aug-28 11:33N 30°31' E 122°35'66140345.8
2014-Aug-28 11:32N 23°04' E 113°29'65410142.6
2014-Aug-28 11:28N 31°21' E 121°27'2337416.7
2014-Aug-28 11:26N 34°50' E 119°24'2318664.9
2014-Aug-28 11:25N 31°25' E 121°32'73274.6
2014-Aug-28 11:09N 31°57' E 120°15'6431059.1
2014-Aug-28 10:32N 23°04' E 113°29'368331532.8
2014-Aug-28 10:32N 25°58' E 119°26'31830903.8
2014-Aug-28 10:32N 30°28' E 122°35'856955.1
2014-Aug-28 10:31N 31°28' E 121°25'849.6
2014-Aug-28 10:22N 31°21' E 121°27'6236.1
2014-Aug-28 10:20N 31°25' E 121°32'711479.7
2014-Aug-28 10:17N 31°58' E 120°18'6463715.4
2014-Aug-28 10:07N 23°04' E 113°29'6491157.6
2014-Aug-28 09:33N 31°60' E 120°23'6491168541.6
2014-Aug-28 09:33N 23°04' E 113°29'659296728.6
2014-Aug-28 09:33N 30°28' E 122°35'31820792.3
2014-Aug-28 09:32N 25°58' E 119°26'340136070.6
2014-Aug-28 09:32N 31°21' E 121°27'8241.2
2014-Aug-28 09:30N 31°28' E 121°25'658689.6
2014-Aug-28 08:33N 23°04' E 113°29'6589669.0
2014-Aug-28 08:29N 31°28' E 121°25'6446161.0
2014-Aug-28 08:29N 31°58' E 120°18'3632540.1
2014-Aug-28 08:20N 25°58' E 119°26'3407117.5
2014-Aug-28 08:17N 31°21' E 121°27'62386.0
2014-Aug-28 08:08N 32°02' E 120°31'5798.8
2014-Aug-28 07:33N 31°28' E 121°25'658131608.5
2014-Aug-28 07:33N 23°04' E 113°29'131131.6
2014-Aug-28 07:32N 22°52' E 113°33'65949456.9
2014-Aug-28 07:32N 32°01' E 120°24'44439951.2
2014-Aug-28 07:31N 39°05' E 117°44'79215251.5
2014-Aug-28 07:28N 25°58' E 119°26'369406.8
2014-Aug-28 06:33N 32°02' E 120°31'655112348.2
2014-Aug-28 06:33N 23°04' E 113°29'65490502.1
2014-Aug-28 06:33N 31°21' E 121°27'49813911.4
2014-Aug-28 06:30N 39°05' E 117°44'4917720.0
2014-Aug-28 06:27N 31°28' E 121°25'65811786.0
2014-Aug-28 06:23N 23°04' E 113°29'9851187.1
2014-Aug-28 05:33N 39°05' E 117°46'4971790410.7
2014-Aug-28 05:33N 31°21' E 121°27'72998.8
2014-Aug-28 05:33N 31°28' E 121°25'5212477.5
2014-Aug-28 05:33N 32°01' E 120°37'6572365011.5
2014-Aug-28 05:33N 23°04' E 113°29'2811225.9
2014-Aug-28 05:33N 22°38' E 113°41'251389.7
2014-Aug-28 05:32N 22°13' E 113°36'51195.7
2014-Aug-28 05:16N 23°04' E 113°29'36863160.6
2014-Aug-28 05:16N 25°58' E 119°26'368521.5
2014-Aug-28 04:33N 23°04' E 113°29'986709599.3
2014-Aug-28 04:33N 39°04' E 117°51'44545756.4
2014-Aug-28 04:33N 32°00' E 120°39'67371300.5
2014-Aug-28 04:32N 22°38' E 113°41'66817186.5
2014-Aug-28 04:30N 31°22' E 121°28'3419980.5
2014-Aug-28 04:28N 25°58' E 119°26'3904634.2
2014-Aug-28 04:23N 22°14' E 113°36'51499.8
2014-Aug-28 04:17N 23°04' E 113°29'0 0.1
2014-Aug-28 03:33N 23°04' E 113°29'9851773693.8
2014-Aug-28 03:33N 39°05' E 117°45'985295617.6
2014-Aug-28 03:33N 23°04' E 113°29'65584174.9
2014-Aug-28 03:33N 31°22' E 121°28'7767.8
2014-Aug-28 03:32N 31°28' E 121°25'69827628.4
2014-Aug-28 03:30N 22°21' E 113°18'4008670.0
2014-Aug-28 03:28N 25°58' E 119°26'36869743.5
2014-Aug-28 03:27N 32°00' E 120°39'69716179.9
2014-Aug-28 03:25N 22°14' E 113°36'531821.4
2014-Aug-28 03:23N 23°03' E 113°16'34312.9
2014-Aug-28 03:17N 22°38' E 113°41'668932.2
2014-Aug-28 02:34N 31°22' E 121°28'655214261.9
2014-Aug-28 02:33N 23°04' E 113°29'507141.0
2014-Aug-28 02:33N 22°15' E 113°36'371180.7
2014-Aug-28 02:31N 22°52' E 113°33'666114086.9
2014-Aug-28 02:31N 31°28' E 121°25'65891117.0
2014-Aug-28 02:30N 23°04' E 113°29'512496.7
2014-Aug-28 02:29N 22°14' E 113°23'40017989.3
2014-Aug-28 02:28N 25°58' E 119°26'37395795.8
2014-Aug-28 02:27N 22°53' E 113°31'6676078.1
2014-Aug-28 02:21N 31°26' E 121°30'3 3.2
2014-Aug-28 01:33N 31°24' E 121°31'44666.5
2014-Aug-28 01:33N 31°22' E 121°28'655181312.0
2014-Aug-28 01:33N 23°04' E 113°29'0 6.1
2014-Aug-28 01:33N 23°04' E 113°29'11681.2
2014-Aug-28 01:32N 22°53' E 113°30'66619814.5
2014-Aug-28 01:30N 31°28' E 121°25'70312220.6
2014-Aug-28 01:26N 22°10' E 113°27'3995226.7
2014-Aug-28 01:22N 25°58' E 119°26'373463.4
2014-Aug-28 00:33N 22°53' E 113°30'6661198779.7
2014-Aug-28 00:33N 31°28' E 121°25'6582368999.3
2014-Aug-28 00:33N 23°04' E 113°29'040.7
2014-Aug-28 00:33N 23°04' E 113°29'655107135.6
2014-Aug-28 00:33N 31°22' E 121°28'3411818.7
2014-Aug-28 00:22N 25°58' E 119°26'341425.1
2014-Aug-27 23:33N 31°22' E 121°28'663298148.0
2014-Aug-27 23:33N 22°53' E 113°30'11939.2
2014-Aug-27 23:33N 23°04' E 113°29'0 1.4
2014-Aug-27 23:30N 23°04' E 113°29'65825202.9
2014-Aug-27 23:29N 31°28' E 121°25'3472943.5
2014-Aug-27 23:22N 25°58' E 119°26'373463.7
2014-Aug-27 22:33N 22°53' E 113°30'111792.1
2014-Aug-27 22:33N 23°04' E 113°29'65526482.1
2014-Aug-27 22:31N 31°22' E 121°28'790.3
2014-Aug-27 22:27N 31°28' E 121°25'3474065.2
2014-Aug-27 22:22N 25°58' E 119°26'3682526.3
2014-Aug-27 22:13N 23°04' E 113°29'5 8.4
2014-Aug-27 21:33N 23°02' E 113°24'111377.4
2014-Aug-27 21:33N 22°53' E 113°30'663183470.1
2014-Aug-27 21:33N 31°22' E 121°28'784.8
2014-Aug-27 21:28N 31°28' E 121°25'65814019.1
2014-Aug-27 21:25N 23°04' E 113°29'54334.3
2014-Aug-27 21:15N 22°11' E 113°32'5476.9
2014-Aug-27 20:33N 23°04' E 113°29'114923.0
2014-Aug-27 20:33N 22°53' E 113°30'666114166.1
2014-Aug-27 20:33N 31°28' E 121°25'7352.8
2014-Aug-27 20:32N 31°22' E 121°28'6559945.7
2014-Aug-27 20:28N 23°04' E 113°29'77017443.1
2014-Aug-27 20:25N 34°50' E 119°22'226261.8
2014-Aug-27 19:33N 31°28' E 121°25'66661474.1
2014-Aug-27 19:33N 22°53' E 113°30'66376938.6
2014-Aug-27 19:32N 31°22' E 121°28'23220408.1
2014-Aug-27 19:31N 34°50' E 119°25'7729614.4
2014-Aug-27 19:27N 23°04' E 113°29'0 3.9
2014-Aug-27 19:22N 23°04' E 113°29'656810.6
2014-Aug-27 18:33N 31°22' E 121°30'76561.8
2014-Aug-27 18:33N 31°28' E 121°25'22340068.0
2014-Aug-27 18:33N 34°49' E 119°29'7827071.7
2014-Aug-27 18:26N 22°53' E 113°30'9700.3
2014-Aug-27 18:26N 22°44' E 113°29'201815.6
2014-Aug-27 18:25N 23°04' E 113°29'0 1.8
2014-Aug-27 18:15N 23°04' E 113°29'7721119.1
2014-Aug-27 17:33N 34°49' E 119°30'78278184.0
2014-Aug-27 17:33N 22°53' E 113°30'666342685.7
2014-Aug-27 17:33N 31°24' E 121°31'6593721.9
2014-Aug-27 17:22N 23°04' E 113°29'191640.7
2014-Aug-27 17:21N 22°46' E 113°22'19314.9
2014-Aug-27 17:18N 23°04' E 113°29'7721049.3
2014-Aug-27 16:34N 34°49' E 119°28'229103075.1
2014-Aug-27 16:33N 31°24' E 121°31'536964683.2
2014-Aug-27 16:33N 22°33' E 120°16'53992440.8
2014-Aug-27 16:33N 31°28' E 121°25'666399581.5
2014-Aug-27 16:33N 22°53' E 113°30'12734.9
2014-Aug-27 16:32N 23°02' E 113°22'778.9
2014-Aug-27 16:27N 23°04' E 113°29'17700.4
2014-Aug-27 16:25N 22°50' E 113°18'173575.9
2014-Aug-27 16:25N 23°04' E 113°29'53951.9
2014-Aug-27 16:22N 22°11' E 113°33'4252.2
2014-Aug-27 15:33N 22°53' E 113°30'121076.4
2014-Aug-27 15:32N 23°05' E 113°27'168238.7
2014-Aug-27 15:32N 22°54' E 113°14'515231.1
2014-Aug-27 15:32N 22°07' E 113°36'70022920.8
2014-Aug-27 15:30N 31°24' E 121°31'6999.8
2014-Aug-27 15:29N 31°28' E 121°25'53928957.7
2014-Aug-27 15:28N 22°34' E 120°06'3675436.5
2014-Aug-27 15:24N 23°04' E 113°29'66053959.6
2014-Aug-27 15:23N 31°28' E 121°27'6602931.3
2014-Aug-27 15:10N 23°04' E 113°29'1117.7
2014-Aug-27 14:33N 22°53' E 113°30'6671200455.9
2014-Aug-27 14:33N 31°25' E 121°31'61228.0
2014-Aug-27 14:33N 31°28' E 121°25'6794.8
2014-Aug-27 14:33N 31°24' E 121°31'65931208.5
2014-Aug-27 14:31N 23°02' E 113°31'554906.7
2014-Aug-27 14:31N 22°07' E 113°33'3966484.9
2014-Aug-27 14:27N 25°58' E 119°26'3691881.7
2014-Aug-27 14:15N 23°04' E 113°29'183552.9
2014-Aug-27 14:15N 22°54' E 113°13'18599.7
2014-Aug-27 14:13N 23°04' E 113°29'77222060.5
2014-Aug-27 14:11N 34°48' E 119°31'530846.4
2014-Aug-27 13:33N 25°58' E 119°27'3881395100.1
2014-Aug-27 13:33N 22°54' E 113°13'78785871.9
2014-Aug-27 13:33N 34°49' E 119°28'78239083.0
2014-Aug-27 13:32N 22°53' E 113°30'11147.8
2014-Aug-27 13:27N 23°04' E 113°29'65846452.7
2014-Aug-27 13:26N 31°28' E 121°25'65828203.5
2014-Aug-27 13:25N 23°04' E 113°29'3091405.2
2014-Aug-27 13:12N 24°46' E 118°48'3303833.2
2014-Aug-27 13:07N 22°06' E 113°34'561690.1
2014-Aug-27 13:05N 23°02' E 113°31'7731493.2
2014-Aug-27 12:34N 34°50' E 119°27'782234482.7
2014-Aug-27 12:33N 22°53' E 113°30'66661473.7
2014-Aug-27 12:33N 31°28' E 121°25'6587135.8
2014-Aug-27 12:27N 23°04' E 113°29'3206.9
2014-Aug-27 12:26N 23°02' E 113°31'37712338.0
2014-Aug-27 12:24N 26°07' E 119°33'3775499.9
2014-Aug-27 12:20N 23°04' E 113°30'658789460.0
2014-Aug-27 12:20N 31°31' E 121°22'7023113.7
2014-Aug-27 12:07N 22°06' E 113°34'4784.8
2014-Aug-27 11:33N 22°53' E 113°30'11633.7
2014-Aug-27 11:32N 23°04' E 113°30'3217.5
2014-Aug-27 11:32N 23°02' E 113°32'56621.4
2014-Aug-27 11:26N 22°06' E 113°35'70226869.0
2014-Aug-27 11:25N 31°28' E 121°25'658772.1
2014-Aug-27 10:34N 23°04' E 113°29'114399.7
2014-Aug-27 10:33N 22°53' E 113°30'161351.8
2014-Aug-27 10:33N 22°54' E 113°13'481471.9
2014-Aug-27 10:31N 22°10' E 113°35'54436.4
2014-Aug-27 10:23N 23°04' E 113°30'315.0
2014-Aug-27 10:13N 23°02' E 113°31'3 4.6
2014-Aug-27 09:33N 23°04' E 113°29'658263320.0
2014-Aug-27 09:33N 31°24' E 121°31'65855090.1
2014-Aug-27 09:32N 23°04' E 113°30'32398.2
2014-Aug-27 09:32N 23°02' E 113°31'92114.5
2014-Aug-27 09:32N 22°53' E 113°30'1628288.0
2014-Aug-27 09:32N 22°54' E 113°13'2724366.4
2014-Aug-27 09:28N 23°45' E 118°04'4966976.0
2014-Aug-27 09:24N 31°28' E 121°25'659780.0
2014-Aug-27 08:33N 23°02' E 113°31'81909.5
2014-Aug-27 08:33N 22°53' E 113°30'111413.4
2014-Aug-27 08:33N 23°04' E 113°29'0132.9
2014-Aug-27 08:32N 23°04' E 113°30'25227530.2
2014-Aug-27 08:32N 23°45' E 118°01'50527117.1
2014-Aug-27 08:31N 31°58' E 120°03'75737.9
2014-Aug-27 08:25N 31°28' E 121°25'7016452.2
2014-Aug-27 08:18N 22°16' E 113°21'3850.7
2014-Aug-27 07:33N 22°53' E 113°30'1140533.2
2014-Aug-27 07:33N 23°04' E 113°29'64157697.9
2014-Aug-27 07:32N 31°57' E 120°11'6584891.1
2014-Aug-27 07:24N 22°54' E 113°13'99912977.8
2014-Aug-27 07:20N 39°05' E 117°44'446577.1
2014-Aug-27 06:33N 31°58' E 120°18'65032043.7
2014-Aug-27 06:32N 23°02' E 113°23'7553.6
2014-Aug-27 06:31N 23°02' E 113°31'65987880.8
2014-Aug-27 06:31N 31°28' E 121°25'666140964.6
2014-Aug-27 06:31N 22°51' E 113°33'99731213.9
2014-Aug-27 06:29N 39°05' E 117°44'98510849.1
2014-Aug-27 06:23N 23°04' E 113°30'9858738.1
2014-Aug-27 06:17N 39°05' E 117°44'603840.7
2014-Aug-27 05:33N 29°46' E 122°18'622186612.4
2014-Aug-27 05:33N 23°02' E 113°31'988222211.2
2014-Aug-27 05:33N 39°05' E 117°44'98582504.0
2014-Aug-27 05:32N 23°04' E 113°30'658338297.3
2014-Aug-27 05:32N 31°28' E 121°25'49165476.8
2014-Aug-27 05:32N 39°05' E 117°44'997239299.6
2014-Aug-27 05:31N 22°51' E 113°33'2023712.8
2014-Aug-27 05:31N 23°02' E 113°15'9902220.3
2014-Aug-27 05:05N 39°05' E 117°46'3 4.9
2014-Aug-27 04:33N 39°04' E 117°49'989444830.9
2014-Aug-27 04:33N 23°03' E 113°20'9569.0
2014-Aug-27 04:32N 23°04' E 113°30'376.6
2014-Aug-27 04:30N 23°02' E 113°31'6594485.3
2014-Aug-27 04:21N 31°28' E 121°25'49116522.4
2014-Aug-27 04:20N 39°05' E 117°44'60260158.2
2014-Aug-27 04:19N 29°47' E 122°16'6029799.4
2014-Aug-27 04:15N 39°05' E 117°44'5 7.2
2014-Aug-27 03:33N 39°03' E 117°50'11225.9
2014-Aug-27 03:33N 39°04' E 117°51'986591445.6
2014-Aug-27 03:33N 23°05' E 113°28'47221.3
2014-Aug-27 03:33N 23°02' E 113°31'659395454.9
2014-Aug-27 03:33N 31°28' E 121°25'48992651.5
2014-Aug-27 03:33N 39°04' E 117°48'6015694.3
2014-Aug-27 03:26N 29°46' E 122°18'62826278.8
2014-Aug-27 03:25N 23°02' E 113°22'8258.0
2014-Aug-27 03:23N 23°04' E 113°30'9851187.7
2014-Aug-27 02:34N 39°05' E 117°44'81859.4
2014-Aug-27 02:33N 38°60' E 117°52'981196208.4
2014-Aug-27 02:33N 23°05' E 113°29'1154.6
2014-Aug-27 02:33N 23°04' E 113°29'3605.1
2014-Aug-27 02:32N 23°02' E 113°31'9873554541.4
2014-Aug-27 02:32N 39°03' E 117°52'98910752.4
2014-Aug-27 02:27N 23°03' E 113°16'6636438.3
2014-Aug-27 02:21N 31°60' E 120°37'656181628.0
2014-Aug-27 02:20N 23°04' E 113°30'3071881.4
2014-Aug-27 02:11N 24°47' E 118°46'444718.8
2014-Aug-27 01:33N 32°01' E 120°31'65416014.4
2014-Aug-27 01:31N 23°05' E 113°29'62242274.6
2014-Aug-27 01:30N 29°45' E 122°22'60580644.2
2014-Aug-27 01:30N 39°05' E 117°45'9871184994.4
2014-Aug-27 01:30N 23°02' E 113°31'314.9
2014-Aug-27 01:19N 23°04' E 113°29'984221333.9
2014-Aug-27 01:18N 39°02' E 117°52'4937920.2
2014-Aug-27 01:15N 31°21' E 121°27'497723.0
2014-Aug-27 00:33N 39°05' E 117°46'98480531.4
2014-Aug-27 00:33N 23°05' E 113°29'655131042.4
2014-Aug-27 00:32N 31°22' E 121°29'6714220.8
2014-Aug-27 00:32N 32°01' E 120°24'1698452.3
2014-Aug-27 00:31N 29°45' E 122°22'1304810.5
2014-Aug-27 00:29N 31°40' E 121°13'2223.5
2014-Aug-26 23:33N 31°24' E 121°31'7028063.2
2014-Aug-26 23:32N 31°57' E 120°19'6441159959.8
2014-Aug-26 23:32N 23°05' E 113°29'1191.7
2014-Aug-26 23:32N 23°04' E 113°29'6585396.2
2014-Aug-26 23:25N 31°28' E 121°25'6582637.8
2014-Aug-26 23:10N 23°04' E 113°29'1 2.2
2014-Aug-26 22:32N 23°05' E 113°29'64016683.9
2014-Aug-26 22:30N 31°56' E 120°12'6491720.6
2014-Aug-26 22:07N 22°51' E 113°33'1425.5
2014-Aug-26 21:33N 23°05' E 113°29'1 7.3
2014-Aug-26 21:23N 23°04' E 113°29'6246239.4
2014-Aug-26 21:17N 29°44' E 122°23'623832.7
2014-Aug-26 20:32N 23°05' E 113°29'63784893.9
2014-Aug-26 20:32N 31°58' E 120°03'76390.4
2014-Aug-26 20:20N 31°28' E 121°25'0 0.0
2014-Aug-26 19:32N 31°28' E 121°25'6578103.6
2014-Aug-26 19:27N 23°05' E 113°29'124.3
2014-Aug-26 19:23N 23°04' E 113°30'13236.3
2014-Aug-26 19:20N 22°51' E 113°33'78223074.9
2014-Aug-26 19:18N 34°50' E 119°24'7726826.1
2014-Aug-26 19:11N 23°04' E 113°29'1 1.9
2014-Aug-26 18:33N 23°05' E 113°29'77119683.7
2014-Aug-26 18:31N 34°50' E 119°27'77418818.8
2014-Aug-26 18:29N 23°02' E 113°31'3 9.7
2014-Aug-26 18:11N 23°04' E 113°29'65819417.8
2014-Aug-26 18:09N 31°28' E 121°25'6571089.9
2014-Aug-26 17:33N 23°05' E 113°29'7719773.7
2014-Aug-26 17:28N 34°49' E 119°30'7725754.1
2014-Aug-26 17:20N 23°04' E 113°29'334.1
2014-Aug-26 17:15N 23°02' E 113°31'552065.0
2014-Aug-26 17:13N 22°18' E 114°07'8021192.2
2014-Aug-26 16:33N 34°49' E 119°29'77121024.8
2014-Aug-26 16:31N 23°05' E 113°29'41315.2
2014-Aug-26 16:31N 23°02' E 113°31'6597345.9
2014-Aug-26 16:25N 31°28' E 121°25'657747.2
2014-Aug-26 15:32N 23°05' E 113°29'77259111.1
2014-Aug-26 15:32N 34°49' E 119°31'77411520.1
2014-Aug-26 15:28N 23°02' E 113°31'3133897.0
2014-Aug-26 15:23N 19°43' E 109°11'9675067.6
2014-Aug-26 15:11N 31°28' E 121°25'657981.1
2014-Aug-26 14:31N 23°05' E 113°29'77189536.8
2014-Aug-26 14:31N 34°49' E 119°29'77434385.8
2014-Aug-26 14:29N 23°02' E 113°31'6591954.5
2014-Aug-26 14:09N 31°28' E 121°25'223376.7
2014-Aug-26 13:34N 34°49' E 119°28'771925102.3
2014-Aug-26 13:33N 23°05' E 113°29'62311626.9
2014-Aug-26 13:30N 29°45' E 122°23'62437467.8
2014-Aug-26 13:29N 23°02' E 113°31'3147.7
2014-Aug-26 13:28N 23°04' E 113°30'0 5.1
2014-Aug-26 13:23N 23°04' E 113°29'63817536.9
2014-Aug-26 13:21N 31°58' E 120°03'637803.0
2014-Aug-26 12:33N 23°05' E 113°29'62313199.3
2014-Aug-26 12:30N 29°45' E 122°23'3369768.9
2014-Aug-26 12:28N 34°48' E 119°31'77217258.2
2014-Aug-26 12:26N 23°04' E 113°29'0 4.9
2014-Aug-26 12:23N 23°04' E 113°29'2701539.2
2014-Aug-26 12:12N 24°14' E 118°14'639977.3
2014-Aug-26 11:33N 34°49' E 119°28'26846014.8
2014-Aug-26 11:33N 39°05' E 117°45'98486423.7
2014-Aug-26 11:32N 23°05' E 113°29'265317501.6
2014-Aug-26 11:32N 24°11' E 118°09'265190500.2
2014-Aug-26 11:32N 23°04' E 113°29'396.4
2014-Aug-26 11:30N 23°02' E 113°31'64257822.7
2014-Aug-26 11:30N 31°56' E 120°13'6415456.3
2014-Aug-26 11:23N 23°04' E 113°29'9851205.9
2014-Aug-26 10:34N 39°04' E 117°52'443159354.5
2014-Aug-26 10:33N 31°56' E 120°13'64085377.1
2014-Aug-26 10:33N 23°05' E 113°29'175.5
2014-Aug-26 10:32N 23°04' E 113°29'330.3
2014-Aug-26 10:26N 23°02' E 113°31'25651161.7
2014-Aug-26 10:26N 24°05' E 118°01'4791925.1
2014-Aug-26 10:11N 31°28' E 121°25'65881686.0
2014-Aug-26 10:11N 23°04' E 113°29'9861569.1
2014-Aug-26 09:33N 39°04' E 117°50'98663360.7
2014-Aug-26 09:32N 23°04' E 113°29'11493.8
2014-Aug-26 09:32N 23°05' E 113°29'62419188.7
2014-Aug-26 09:30N 29°45' E 122°23'6248544.5
2014-Aug-26 09:26N 23°04' E 113°29'2506760.9
2014-Aug-26 09:23N 23°60' E 117°55'249990.2
2014-Aug-26 09:08N 23°02' E 113°31'9881706.1
2014-Aug-26 08:34N 39°05' E 117°44'984208460.2
2014-Aug-26 08:33N 23°05' E 113°29'161.4
2014-Aug-26 08:32N 23°04' E 113°29'24413128.9
2014-Aug-26 08:31N 23°56' E 117°50'2462033.0
2014-Aug-26 08:24N 23°05' E 113°27'2115.4
2014-Aug-26 08:23N 23°04' E 113°29'43142.6
2014-Aug-26 08:04N 22°25' E 113°10'10281999.6
2014-Aug-26 07:34N 39°04' E 117°51'985208503.8
2014-Aug-26 07:33N 23°05' E 113°29'158.7
2014-Aug-26 07:32N 23°04' E 113°29'23813810.4
2014-Aug-26 07:31N 23°52' E 117°43'5014833.5
2014-Aug-26 07:25N 31°56' E 120°07'721019.0
2014-Aug-26 07:20N 31°28' E 121°25'66611921.7
2014-Aug-26 07:17N 22°51' E 113°33'13123.0
2014-Aug-26 07:11N 23°04' E 113°29'12176.9
2014-Aug-26 07:07N 23°03' E 113°16'9891795.7
2014-Aug-26 06:34N 39°05' E 117°46'98446016.9
2014-Aug-26 06:32N 23°05' E 113°29'65734797.7
2014-Aug-26 06:31N 31°28' E 121°25'502164438.7
2014-Aug-26 06:31N 23°47' E 117°39'50812979.2
2014-Aug-26 06:29N 32°01' E 119°58'63813117.2
2014-Aug-26 06:26N 23°04' E 113°29'012.7
2014-Aug-26 06:25N 23°04' E 113°29'44287.2
2014-Aug-26 06:16N 22°22' E 113°18'10291470.7
2014-Aug-26 05:34N 39°05' E 117°46'987222165.5
2014-Aug-26 05:33N 23°02' E 113°31'987710951.0
2014-Aug-26 05:33N 39°05' E 117°45'49173586.5
2014-Aug-26 05:33N 31°28' E 121°25'657262954.0
2014-Aug-26 05:33N 23°05' E 113°29'2307450.8
2014-Aug-26 05:31N 23°43' E 117°36'23016207.3
2014-Aug-26 05:30N 23°04' E 113°29'488233.3
2014-Aug-26 05:30N 22°17' E 113°20'48817.5
2014-Aug-26 05:26N 23°04' E 113°29'1339.1
2014-Aug-26 05:05N 22°51' E 113°33'1425.8
2014-Aug-26 04:33N 23°05' E 113°29'9861182645.4
2014-Aug-26 04:33N 39°04' E 117°51'12181.6
2014-Aug-26 04:33N 39°04' E 117°52'98821426.3
2014-Aug-26 04:31N 23°02' E 113°31'3264.6
2014-Aug-26 04:30N 23°04' E 113°29'47650.7
2014-Aug-26 04:26N 22°17' E 113°35'48171049.3
2014-Aug-26 04:26N 23°04' E 113°29'230632.2
2014-Aug-26 04:04N 23°46' E 117°35'9181821.5
2014-Aug-26 03:34N 39°04' E 117°49'14201.9
2014-Aug-26 03:34N 39°04' E 117°50'988222244.0
2014-Aug-26 03:33N 23°02' E 113°31'4376.7
2014-Aug-26 03:33N 23°05' E 113°29'3150.5
2014-Aug-26 03:31N 23°04' E 113°25'51391.5
2014-Aug-26 03:23N 22°14' E 113°35'69520343.5
2014-Aug-26 03:21N 31°28' E 121°25'6582368898.1
2014-Aug-26 03:21N 23°04' E 113°29'2302423.0
2014-Aug-26 03:16N 23°46' E 117°35'228320.1
2014-Aug-26 02:33N 23°02' E 113°31'4714.7
2014-Aug-26 02:33N 23°05' E 113°29'65784521.5
2014-Aug-26 02:32N 31°28' E 121°25'66438567.4
2014-Aug-26 02:31N 23°03' E 113°20'66516277.1
2014-Aug-26 02:29N 31°24' E 121°31'6589443.2
2014-Aug-26 02:24N 23°04' E 113°29'2304977.4
2014-Aug-26 02:22N 23°46' E 117°35'4363040.6
2014-Aug-26 02:13N 29°38' E 122°23'4 5.9
2014-Aug-26 01:34N 29°42' E 122°23'622149217.2
2014-Aug-26 01:33N 23°05' E 113°29'414332.6
2014-Aug-26 01:33N 23°02' E 113°31'6597107.5
2014-Aug-26 01:28N 31°24' E 121°31'503453040.5
2014-Aug-26 01:28N 23°46' E 117°35'2414215.6
2014-Aug-26 01:24N 23°04' E 113°16'41515905.8
2014-Aug-26 01:23N 26°45' E 119°43'40519980.9
2014-Aug-26 01:21N 23°04' E 113°29'64926852.4
2014-Aug-26 01:20N 31°60' E 120°22'6962484.2
2014-Aug-26 01:03N 22°10' E 113°27'52104.8
2014-Aug-26 00:33N 23°02' E 113°31'4247.1
2014-Aug-26 00:32N 23°05' E 113°29'6589666.1
2014-Aug-26 00:28N 31°24' E 121°31'65810396.9
2014-Aug-26 00:24N 23°04' E 113°29'65832002.6
2014-Aug-26 00:23N 32°07' E 120°29'584.8
2014-Aug-26 00:19N 32°02' E 120°26'70023995.6
2014-Aug-26 00:18N 22°10' E 113°27'6574295.5
2014-Aug-26 00:08N 29°37' E 122°23'6191055.9
2014-Aug-25 23:33N 23°05' E 113°29'1 6.3
2014-Aug-25 23:24N 23°04' E 113°29'54762.3
2014-Aug-25 23:20N 22°11' E 113°32'70232809.8
2014-Aug-25 23:19N 32°06' E 120°29'74454.6
2014-Aug-25 23:09N 31°15' E 121°32'6531100.3
2014-Aug-25 22:34N 23°04' E 113°29'1354.8
2014-Aug-25 22:33N 23°03' E 113°30'65622694.0
2014-Aug-25 22:32N 32°04' E 120°28'1804243.5
2014-Aug-25 22:29N 29°34' E 122°25'125481.1
2014-Aug-25 22:13N 31°28' E 121°25'666998.0
2014-Aug-25 21:33N 22°51' E 113°33'1214892.1
2014-Aug-25 21:33N 23°03' E 113°30'65865829.0
2014-Aug-25 21:33N 31°28' E 121°25'7006311.9
2014-Aug-25 21:26N 22°11' E 113°32'69365687.2
2014-Aug-25 21:25N 31°60' E 120°22'649747.5
2014-Aug-25 20:33N 23°04' E 113°29'13902.3
2014-Aug-25 20:33N 23°03' E 113°30'6587669.4
2014-Aug-25 20:28N 31°28' E 121°25'7005313.2
2014-Aug-25 20:20N 22°11' E 113°32'4110534.5
2014-Aug-25 20:20N 22°51' E 113°33'1317.2
2014-Aug-25 19:33N 23°04' E 113°29'1195.1
2014-Aug-25 19:33N 23°03' E 113°30'534231.5
2014-Aug-25 19:32N 22°11' E 113°32'700839473.3
2014-Aug-25 19:32N 31°28' E 121°25'22658044.6
2014-Aug-25 19:32N 34°50' E 119°24'78178144.1
2014-Aug-25 19:31N 22°51' E 113°33'782810.1
2014-Aug-25 18:33N 34°49' E 119°28'772555754.2
2014-Aug-25 18:33N 23°04' E 113°29'1108.2
2014-Aug-25 18:33N 23°03' E 113°30'536566.1
2014-Aug-25 18:32N 22°11' E 113°32'700109498.0
2014-Aug-25 18:32N 31°28' E 121°25'658674.7
2014-Aug-25 17:33N 23°04' E 113°29'1114.2
2014-Aug-25 17:33N 23°03' E 113°30'2299477.6
2014-Aug-25 17:31N 23°46' E 117°35'2441320.2
2014-Aug-25 17:20N 22°11' E 113°32'82168725.4
2014-Aug-25 17:20N 34°49' E 119°29'2233367.4
2014-Aug-25 17:16N 31°28' E 121°25'6662396140.9
2014-Aug-25 17:16N 22°51' E 113°33'1217.6
2014-Aug-25 16:33N 23°03' E 113°30'1822.1
2014-Aug-25 16:33N 23°04' E 113°29'772252561.7
2014-Aug-25 16:33N 34°50' E 119°27'78178143.9
2014-Aug-25 16:33N 22°55' E 113°27'449413.7
2014-Aug-25 16:32N 22°11' E 113°34'2412078.5
2014-Aug-25 16:25N 23°46' E 117°35'5053942.8
2014-Aug-25 16:18N 31°28' E 121°25'124635.7
2014-Aug-25 16:06N 29°36' E 122°24'6191142.8
2014-Aug-25 15:34N 23°03' E 113°30'5729389.0
2014-Aug-25 15:33N 22°06' E 113°33'46572.5
2014-Aug-25 15:29N 22°53' E 113°32'12173.6
2014-Aug-25 15:24N 23°04' E 113°29'2301248.4
2014-Aug-25 15:13N 23°46' E 117°35'229345.0
2014-Aug-25 14:34N 23°03' E 113°30'1513.8
2014-Aug-25 14:33N 23°04' E 113°29'230978.0
2014-Aug-25 14:19N 23°46' E 117°35'230300.0
2014-Aug-25 13:33N 23°04' E 113°29'5312.6
2014-Aug-25 13:32N 22°60' E 113°31'546218.9
2014-Aug-25 13:32N 22°06' E 113°34'5657.1
2014-Aug-25 12:33N 23°02' E 113°24'101166.2
2014-Aug-25 12:32N 22°53' E 113°30'7822643.4
2014-Aug-25 12:14N 34°51' E 119°24'82520478.6
2014-Aug-25 12:12N 22°06' E 113°34'4974.6
2014-Aug-25 11:32N 22°54' E 113°21'4947.2
2014-Aug-25 10:30N 22°06' E 113°34'68621853.2
2014-Aug-25 10:28N 31°60' E 120°00'51013694.3
2014-Aug-25 10:26N 23°46' E 117°35'2481498.5
2014-Aug-25 10:16N 22°54' E 113°11'657914.0
2014-Aug-25 09:33N 31°58' E 120°05'51032187.9
2014-Aug-25 09:32N 23°45' E 117°38'2467759.3
2014-Aug-25 09:30N 22°06' E 113°34'4381486.7
2014-Aug-25 09:12N 26°47' E 119°43'317476.0
2014-Aug-25 08:32N 32°01' E 120°33'2010253.2
2014-Aug-25 08:32N 31°56' E 120°10'221078.5
2014-Aug-25 08:31N 31°60' E 120°36'66428139.4
2014-Aug-25 08:29N 22°51' E 113°33'2375145.5
2014-Aug-25 08:27N 23°52' E 117°43'4968197.0
2014-Aug-25 08:23N 31°28' E 121°25'81356.9
2014-Aug-25 08:23N 31°20' E 121°25'66221.5
2014-Aug-25 08:05N 31°59' E 120°22'815.8
2014-Aug-25 07:33N 31°57' E 120°12'49674459.4
2014-Aug-25 07:33N 23°56' E 117°50'4857698.0
2014-Aug-25 07:29N 31°22' E 121°28'66311866.7
2014-Aug-25 07:26N 22°51' E 113°33'99711654.4
2014-Aug-25 07:20N 39°05' E 117°44'0 0.0
2014-Aug-25 07:08N 39°05' E 117°44'3 6.0
2014-Aug-25 06:33N 39°04' E 117°48'32481.8
2014-Aug-25 06:33N 39°05' E 117°44'44569674.7
2014-Aug-25 06:33N 31°57' E 120°12'563184280.1
2014-Aug-25 06:33N 22°34' E 120°04'147265426.2
2014-Aug-25 06:33N 24°03' E 117°56'901104615.3
2014-Aug-25 06:32N 39°04' E 117°47'99732329.8
2014-Aug-25 06:30N 22°51' E 113°33'62511840.2
2014-Aug-25 06:27N 29°41' E 122°20'118419.1
2014-Aug-25 06:10N 31°28' E 121°25'6647836.5
2014-Aug-25 06:05N 23°02' E 113°21'9891864.0
2014-Aug-25 05:33N 39°04' E 117°52'1460.3
2014-Aug-25 05:33N 39°03' E 117°52'987111051.1
2014-Aug-25 05:33N 23°03' E 113°25'376135414.9
2014-Aug-25 05:33N 22°36' E 120°12'996224034.1
2014-Aug-25 05:32N 39°04' E 117°48'4896852.3
2014-Aug-25 05:28N 31°28' E 121°25'683346.2
2014-Aug-25 05:27N 31°57' E 120°12'17557251.1
2014-Aug-25 05:27N 29°43' E 122°24'62919860.4
2014-Aug-25 05:25N 22°52' E 113°33'26114674.8
2014-Aug-25 05:24N 24°12' E 118°04'8931066.9
2014-Aug-25 04:33N 39°05' E 117°51'11257.6
2014-Aug-25 04:33N 39°04' E 117°50'14976.0
2014-Aug-25 04:33N 39°03' E 117°51'22152.8
2014-Aug-25 04:33N 39°05' E 117°51'987177586.2
2014-Aug-25 04:33N 23°04' E 113°29'6586616.7
2014-Aug-25 04:27N 31°28' E 121°25'683489.6
2014-Aug-25 04:26N 31°57' E 120°12'6614028.7
2014-Aug-25 04:16N 22°28' E 113°52'10171432.4
2014-Aug-25 03:33N 39°05' E 117°44'1767.9
2014-Aug-25 03:33N 39°05' E 117°45'43549.1
2014-Aug-25 03:33N 39°04' E 117°50'1017203437.3
2014-Aug-25 03:33N 22°28' E 113°54'10173661649.2
2014-Aug-25 03:33N 39°04' E 117°51'44211061.8
2014-Aug-25 03:31N 31°57' E 120°12'6414016.1
2014-Aug-25 03:21N 23°04' E 113°29'9851244.7
2014-Aug-25 02:33N 39°05' E 117°46'3946.1
2014-Aug-25 02:33N 39°04' E 117°50'416111.6
2014-Aug-25 02:33N 39°05' E 117°44'985221722.0
2014-Aug-25 02:33N 23°04' E 113°29'6414510.2
2014-Aug-25 02:24N 31°57' E 120°12'6489932.4
2014-Aug-25 02:21N 23°04' E 113°16'2675436.4
2014-Aug-25 02:18N 24°24' E 117°54'8801195.5
2014-Aug-25 01:33N 39°04' E 117°51'187.2
2014-Aug-25 01:33N 39°04' E 117°50'44313292.3
2014-Aug-25 01:31N 31°57' E 120°12'6413018.6
2014-Aug-25 01:18N 23°04' E 113°29'1093.7
2014-Aug-25 01:12N 23°03' E 113°19'5 7.1
2014-Aug-25 00:33N 23°02' E 113°23'9891779490.0
2014-Aug-25 00:33N 39°03' E 117°52'44110885.2
2014-Aug-25 00:31N 31°57' E 120°12'64110084.0
2014-Aug-25 00:27N 23°04' E 113°29'0 0.3
2014-Aug-24 23:33N 23°04' E 113°29'9851182127.8
2014-Aug-24 23:33N 39°04' E 117°47'102060182.0
2014-Aug-24 23:32N 22°24' E 113°54'66439842.0
2014-Aug-24 23:31N 31°57' E 120°12'6415564.4
2014-Aug-24 23:24N 23°04' E 113°29'6313779.9
2014-Aug-24 23:14N 29°47' E 122°32'631922.8
2014-Aug-24 22:33N 23°04' E 113°29'64141235.9
2014-Aug-24 22:32N 31°57' E 120°12'6417671.8
2014-Aug-24 22:27N 23°04' E 113°29'6226863.7
2014-Aug-24 22:22N 29°39' E 122°25'6616113.6
2014-Aug-24 22:15N 22°11' E 113°25'44283.2
2014-Aug-24 22:06N 22°54' E 113°13'1833.1
2014-Aug-24 21:33N 23°04' E 113°29'616722200123.6
2014-Aug-24 21:33N 49°20' W 123°23'5414140223.6
2014-Aug-24 21:31N 29°45' E 122°24'64212569.4
2014-Aug-24 21:28N 22°54' E 113°13'443255.5
2014-Aug-24 21:27N 22°11' E 113°25'69214084.3
2014-Aug-24 21:24N 31°58' E 120°18'645290366.1
2014-Aug-24 21:24N 23°04' E 113°29'1821.6
2014-Aug-24 20:33N 22°54' E 113°13'185028.1
2014-Aug-24 20:33N 23°04' E 113°29'64961443.2
2014-Aug-24 20:32N 31°60' E 120°22'1717984.8
2014-Aug-24 20:31N 29°45' E 122°24'6259291.2
2014-Aug-24 20:27N 23°04' E 113°29'615746083.7
2014-Aug-24 20:19N 49°20' W 123°34'61798156.7
2014-Aug-24 19:33N 22°54' E 113°13'181895.3
2014-Aug-24 19:33N 23°04' E 113°29'654784243.1
2014-Aug-24 19:33N 32°02' E 120°27'591288.5
2014-Aug-24 19:30N 31°28' E 121°25'6586419.3
2014-Aug-24 19:24N 23°04' E 113°29'531081.5
2014-Aug-24 19:21N 22°11' E 113°25'66419274.9
2014-Aug-24 19:19N 29°45' E 122°24'115152.0
2014-Aug-24 18:33N 31°28' E 121°25'658338404.7
2014-Aug-24 18:33N 23°04' E 113°29'65676151.7
2014-Aug-24 18:33N 32°01' E 120°34'672142406.2
2014-Aug-24 18:32N 22°54' E 113°13'64328207.9
2014-Aug-24 18:31N 29°45' E 122°24'6259030.8
2014-Aug-24 18:27N 23°04' E 113°29'1036.3
2014-Aug-24 18:11N 22°55' E 113°26'1219.1
2014-Aug-24 17:33N 22°54' E 113°13'181368.6
2014-Aug-24 17:33N 23°04' E 113°29'11423.3
2014-Aug-24 17:31N 22°54' E 113°30'10207.8
2014-Aug-24 17:28N 23°04' E 113°30'65819734.1
2014-Aug-24 17:26N 31°28' E 121°25'7034209.1
2014-Aug-24 17:16N 22°11' E 113°25'5374.1
2014-Aug-24 16:33N 23°04' E 113°29'65878961.8
2014-Aug-24 16:32N 31°28' E 121°25'1155004.6
2014-Aug-24 16:31N 29°45' E 122°24'64211609.6
2014-Aug-24 16:28N 22°54' E 113°14'1718.7
2014-Aug-24 15:33N 23°04' E 113°29'13868.8
2014-Aug-24 15:32N 22°54' E 113°20'67189507.7
2014-Aug-24 15:32N 31°28' E 121°25'6586103.3
2014-Aug-24 15:25N 23°04' E 113°30'624562022.4
2014-Aug-24 15:25N 29°45' E 122°24'625723.7
2014-Aug-24 14:33N 23°04' E 113°29'102710.5
2014-Aug-24 14:33N 22°55' E 113°28'63217922.4
2014-Aug-24 14:31N 29°45' E 122°24'1742604.7
2014-Aug-24 14:27N 31°57' E 120°12'64121180.5
2014-Aug-24 14:25N 23°04' E 113°30'53212.1
2014-Aug-24 14:10N 22°11' E 113°25'4573.7
2014-Aug-24 13:33N 22°56' E 113°30'648145835.6
2014-Aug-24 13:33N 31°57' E 120°12'64139139.1
2014-Aug-24 13:32N 23°04' E 113°29'6252262.6
2014-Aug-24 13:16N 29°45' E 122°24'1621418.4
2014-Aug-24 13:09N 31°60' E 120°40'6588645.3
2014-Aug-24 13:04N 23°04' E 113°30'6561263.0
2014-Aug-24 12:33N 32°00' E 120°37'657236375.8
2014-Aug-24 12:33N 23°04' E 113°29'624249798.1
2014-Aug-24 12:33N 29°45' E 122°24'11325405.9
2014-Aug-24 12:32N 31°27' E 121°29'660118837.6
2014-Aug-24 12:32N 23°02' E 113°31'235.0
2014-Aug-24 12:28N 23°04' E 113°30'64137236.6
2014-Aug-24 12:27N 31°57' E 120°12'444496.3
2014-Aug-24 11:33N 39°04' E 117°47'986236735.2
2014-Aug-24 11:33N 23°03' E 113°31'657262959.1
2014-Aug-24 11:33N 32°04' E 120°32'657394234.8
2014-Aug-24 11:33N 23°04' E 113°29'641577347.5
2014-Aug-24 11:33N 31°57' E 120°12'7512847.8
2014-Aug-24 11:32N 31°25' E 121°32'6595357.5
2014-Aug-24 11:25N 23°04' E 113°30'2 2.1
2014-Aug-24 10:33N 23°03' E 113°31'986887817.9
2014-Aug-24 10:33N 39°04' E 117°47'9893558634.1
2014-Aug-24 10:33N 23°03' E 113°21'82823.0
2014-Aug-24 10:33N 23°04' E 113°29'654138445.5
2014-Aug-24 10:33N 32°02' E 120°28'698885.8
2014-Aug-24 10:32N 31°20' E 121°33'782575.8
2014-Aug-24 10:31N 31°57' E 120°12'6411448.4
2014-Aug-24 10:04N 23°04' E 113°30'2 3.6
2014-Aug-24 09:33N 23°03' E 113°31'986710252.8
2014-Aug-24 09:33N 39°03' E 117°52'919367560.8
2014-Aug-24 09:33N 23°45' E 117°31'22937544.6
2014-Aug-24 09:33N 23°04' E 113°25'651781586.6
2014-Aug-24 09:33N 32°00' E 120°22'64929971.6
2014-Aug-24 09:32N 23°04' E 113°29'65260229.0
2014-Aug-24 09:31N 32°02' E 120°26'652156552.0
2014-Aug-24 09:31N 23°04' E 113°30'65137180.6
2014-Aug-24 09:30N 31°15' E 121°30'78330.6
2014-Aug-24 09:15N 31°57' E 120°12'25140.5
2014-Aug-24 09:05N 31°60' E 120°41'446853.3
2014-Aug-24 08:33N 39°04' E 117°51'9873552641.3
2014-Aug-24 08:33N 23°03' E 113°30'9863551056.2
2014-Aug-24 08:33N 39°04' E 117°49'444228120.7
2014-Aug-24 08:33N 31°57' E 120°18'6451160889.9
2014-Aug-24 08:33N 23°04' E 113°30'2285.7
2014-Aug-24 08:33N 23°03' E 113°31'648101411.4
2014-Aug-24 08:32N 31°59' E 120°21'142674.9
2014-Aug-24 08:32N 31°60' E 120°38'22759.2
2014-Aug-24 08:30N 31°57' E 120°12'64117104.9
2014-Aug-24 08:28N 23°04' E 113°29'531745.1
2014-Aug-24 08:26N 22°11' E 113°25'66811624.9
2014-Aug-24 08:23N 29°49' E 122°27'277032.4
2014-Aug-24 08:23N 30°16' E 122°32'58012137.8
2014-Aug-24 08:20N 39°05' E 117°44'57714314.7
2014-Aug-24 08:17N 30°18' E 122°29'143194.7
2014-Aug-24 07:33N 32°01' E 120°33'446803117.1
2014-Aug-24 07:33N 39°05' E 117°44'610356.6
2014-Aug-24 07:33N 39°05' E 117°51'574295072.4
2014-Aug-24 07:33N 30°18' E 122°30'575258648.7
2014-Aug-24 07:33N 39°04' E 117°48'9921190593.5
2014-Aug-24 07:33N 22°57' E 113°30'66698.2
2014-Aug-24 07:33N 23°03' E 113°31'643289530.7
2014-Aug-24 07:33N 31°56' E 120°16'446100395.5
2014-Aug-24 07:33N 39°05' E 117°44'44650146.0
2014-Aug-24 07:32N 31°56' E 120°12'64182462.4
2014-Aug-24 07:32N 23°03' E 113°31'247.4
2014-Aug-24 07:29N 23°04' E 113°29'65077949.6
2014-Aug-24 07:29N 30°19' E 122°29'1512497.5
2014-Aug-24 07:25N 31°57' E 120°14'110.7
2014-Aug-24 07:20N 31°56' E 120°13'642822.8
2014-Aug-24 06:33N 23°03' E 113°31'9863550680.5
2014-Aug-24 06:33N 39°04' E 117°47'1462.1
2014-Aug-24 06:33N 39°04' E 117°48'15049.7
2014-Aug-24 06:33N 39°05' E 117°46'  

Dump ship's entire track history